Darstellungsparameter: Aktuell verwendete Einstellungen:
Skalierung der Graphiken ... ?
xyx+y,   Skalierungsfaktor:      Skalierung: Modus: x, Faktor: 1
Darstellungszeitraum ... ?
Vom - - bis: - -   Zeitraum: 02.12.2003 - 01.06.2004
Min/Max/Avg-Anzeige ... ?
Zeige MMA aktuell
Zeige MMA Monat
Zeige MMA alles
Zeige --A aktuell
Zeige --A Monat
Zeige --A alles
Keine MMA-Anzeige
MMA:
Keine MMA-Graphiken
MMA-Basis: 02.12.2003 - 01.06.2004
Quicknavigation für Darstellung... ?
Tage:      1T, 2T, 3T, 5T -1T -2T -3T -5T +1T +2T +3T +5T
Wochen: 1W, 2W, 3W -1W -2W -3W +1W +2W +3W
Monate: 1M, 3M, 6M -1M -3M -6M +1M +3M +6M
Jahre:    1J, 3J, 5J, 10J -1J -3J -5J -10J +1J +3J +5J +10J
Nutze für die Darstellung ... ?
Originaldaten oder Mittelwerte auf ...
Stundenbasis Tagesbasis Wochenbasis
Monatsbasis Jahresbasis      Datenbasis: Original-Daten
Darstellen als:
Statistik (Auto) Statistik J:M      Darstellung:
Zur Graphik,    zurück zur Übersicht aller Sensoren.
 
Tabellarische Datenbersicht: ?
 
Sensor: Nr:Datum:Temp:Abs-Feuchte:Windchill:Wind:
Aussen-T/F 1 02-12-2003 00:05:01 5.9 C 5.62 g/m*3 5.9 C 0 km/h
2 02-12-2003 00:17:01 5.9 C 5.62 g/m*3 5.9 C 0 km/h
3 02-12-2003 00:29:01 5.8 C 5.66 g/m*3 5.8 C 0 km/h
4 02-12-2003 00:41:00 5.8 C 5.66 g/m*3 5.8 C 0 km/h
5 02-12-2003 00:53:00 5.8 C 5.59 g/m*3 5.8 C 0 km/h
6 02-12-2003 01:06:01 5.7 C 5.62 g/m*3 5.7 C 0 km/h
7 02-12-2003 01:18:01 5.8 C 5.66 g/m*3 5.8 C 0 km/h
8 02-12-2003 01:30:01 6.2 C 5.52 g/m*3 6.2 C 0 km/h
9 02-12-2003 01:41:01 6 C 5.52 g/m*3 6 C 0 km/h
10 02-12-2003 01:53:01 5.8 C 5.52 g/m*3 5.8 C 0 km/h
11 02-12-2003 02:05:00 5.6 C 5.59 g/m*3 5.6 C 0 km/h
12 02-12-2003 02:17:00 5.6 C 5.51 g/m*3 5.6 C 0 km/h
13 02-12-2003 02:29:00 5.6 C 5.59 g/m*3 5.6 C 0 km/h
14 02-12-2003 02:41:01 5.5 C 5.55 g/m*3 5.5 C 0 km/h
15 02-12-2003 02:53:01 5.2 C 5.44 g/m*3 5.2 C 0 km/h
16 02-12-2003 03:05:00 5.1 C 5.47 g/m*3 5.1 C 0 km/h
17 02-12-2003 03:17:00 4.9 C 5.47 g/m*3 4.9 C 0 km/h
18 02-12-2003 03:29:00 4.9 C 5.54 g/m*3 4.9 C 0 km/h
19 02-12-2003 03:41:00 4.7 C 5.46 g/m*3 4.7 C 0 km/h
20 02-12-2003 03:53:00 4.6 C 5.49 g/m*3 4.6 C 0 km/h
21 02-12-2003 04:06:01 4.5 C 5.46 g/m*3 4.5 C 0 km/h
22 02-12-2003 04:18:01 4.6 C 5.49 g/m*3 4.6 C 0 km/h
23 02-12-2003 04:30:01 4.6 C 5.56 g/m*3 4.6 C 0 km/h
24 02-12-2003 04:41:01 4.6 C 5.56 g/m*3 4.6 C 0 km/h
25 02-12-2003 04:53:01 4.6 C 5.56 g/m*3 4.6 C 0 km/h
Sensor: Nr:Datum:Temp:Abs-Feuchte:Windchill:Wind:
Aussen-T/F 26 02-12-2003 05:05:00 4.6 C 5.56 g/m*3 4.6 C 0 km/h
27 02-12-2003 05:17:00 4.6 C 5.56 g/m*3 4.6 C 0 km/h
28 02-12-2003 05:29:00 4.6 C 5.56 g/m*3 4.6 C 0 km/h
29 02-12-2003 05:41:00 4.6 C 5.56 g/m*3 4.6 C 0 km/h
30 02-12-2003 05:53:00 4.5 C 5.52 g/m*3 4.5 C 0 km/h
31 02-12-2003 06:06:01 4.4 C 5.48 g/m*3 4.4 C 0 km/h
32 02-12-2003 06:18:01 4.3 C 5.45 g/m*3 4.3 C 0 km/h
33 02-12-2003 06:30:01 4.2 C 5.41 g/m*3 4.2 C 0 km/h
34 02-12-2003 06:41:00 4.1 C 5.38 g/m*3 4.1 C 0 km/h
35 02-12-2003 06:53:00 4.3 C 5.51 g/m*3 4.3 C 0 km/h
36 02-12-2003 07:05:00 4.3 C 5.51 g/m*3 4.3 C 0 km/h
37 02-12-2003 07:17:00 4.3 C 5.51 g/m*3 4.3 C 0 km/h
38 02-12-2003 07:29:00 4.1 C 5.44 g/m*3 4.1 C 0 km/h
39 02-12-2003 07:41:01 4 C 5.4 g/m*3 4 C 0 km/h
40 02-12-2003 07:53:01 3.8 C 5.4 g/m*3 3.8 C 0 km/h
41 02-12-2003 08:05:00 3.8 C 5.4 g/m*3 3.8 C 0 km/h
42 02-12-2003 08:17:00 3.8 C 5.46 g/m*3 3.8 C 0 km/h
43 02-12-2003 08:29:00 3.8 C 5.46 g/m*3 3.8 C 0 km/h
44 02-12-2003 08:41:00 3.9 C 5.49 g/m*3 3.9 C 0 km/h
45 02-12-2003 08:53:00 4 C 5.47 g/m*3 4 C 0 km/h
46 02-12-2003 09:06:00 4.1 C 5.5 g/m*3 4.1 C 0 km/h
47 02-12-2003 09:18:01 4.2 C 5.61 g/m*3 4.2 C 0 km/h
48 02-12-2003 09:30:01 4.3 C 5.64 g/m*3 4.3 C 0 km/h
49 02-12-2003 09:41:01 4.5 C 5.65 g/m*3 4.5 C 0 km/h
50 02-12-2003 09:53:01 4.7 C 5.73 g/m*3 4.7 C 0 km/h
Sensor: Nr:Datum:Temp:Abs-Feuchte:Windchill:Wind:
Aussen-T/F 51 02-12-2003 10:05:00 4.8 C 5.63 g/m*3 4.8 C 0 km/h
52 02-12-2003 10:17:00 5 C 5.64 g/m*3 5 C 0 km/h
53 02-12-2003 10:29:00 5.5 C 5.83 g/m*3 5.5 C 0 km/h
54 02-12-2003 10:41:01 5.8 C 5.87 g/m*3 5.8 C 0 km/h
55 02-12-2003 10:53:01 5.9 C 5.77 g/m*3 5.9 C 0 km/h
56 02-12-2003 11:05:00 6.4 C 5.81 g/m*3 6.4 C 0 km/h
57 02-12-2003 11:17:00 6.4 C 5.74 g/m*3 6.4 C 0 km/h
58 02-12-2003 11:29:00 6.4 C 5.74 g/m*3 6.4 C 0 km/h
59 02-12-2003 11:41:00 6.4 C 5.66 g/m*3 6.4 C 0 km/h
60 02-12-2003 11:53:00 6.4 C 5.81 g/m*3 6.4 C 0 km/h
61 02-12-2003 12:05:00 6.3 C 5.77 g/m*3 6.3 C 0 km/h
62 02-12-2003 12:17:00 6.2 C 5.74 g/m*3 6.2 C 0 km/h
63 02-12-2003 12:29:00 6.9 C 5.85 g/m*3 6.9 C 0 km/h
64 02-12-2003 12:41:00 8 C 6.04 g/m*3 8 C 0 km/h
65 02-12-2003 12:53:00 7.9 C 5.91 g/m*3 7.9 C 0 km/h
66 02-12-2003 13:06:00 8.5 C 5.89 g/m*3 8.5 C 0 km/h
67 02-12-2003 13:18:01 9.3 C 5.66 g/m*3 9.3 C 0 km/h
68 02-12-2003 13:30:01 9.6 C 5.59 g/m*3 9.6 C 0 km/h
69 02-12-2003 13:41:00 9.2 C 5.45 g/m*3 9.2 C 0 km/h
70 02-12-2003 13:53:01 8.5 C 5.46 g/m*3 8.5 C 0 km/h
71 02-12-2003 14:05:00 8 C 5.54 g/m*3 8 C 0 km/h
72 02-12-2003 14:17:00 7.7 C 5.59 g/m*3 7.7 C 0 km/h
73 02-12-2003 14:29:00 7.5 C 5.68 g/m*3 7.5 C 0 km/h
74 02-12-2003 14:41:01 7.4 C 5.57 g/m*3 7.4 C 0 km/h
75 02-12-2003 14:53:01 7.3 C 5.77 g/m*3 7.3 C 0 km/h
Sensor: Nr:Datum:Temp:Abs-Feuchte:Windchill:Wind:
Aussen-T/F 76 02-12-2003 15:05:00 7.3 C 5.77 g/m*3 7.3 C 0 km/h
77 02-12-2003 15:17:00 7.1 C 5.77 g/m*3 7.1 C 0 km/h
78 02-12-2003 15:29:00 7 C 5.66 g/m*3 7 C 0 km/h
79 02-12-2003 15:41:00 7 C 5.73 g/m*3 7 C 0 km/h
80 02-12-2003 15:53:00 6.8 C 5.81 g/m*3 6.8 C 0 km/h
81 02-12-2003 16:06:00 6.6 C 5.74 g/m*3 6.6 C 0 km/h
82 02-12-2003 16:18:00 6.6 C 5.66 g/m*3 6.6 C 0 km/h
83 02-12-2003 16:30:01 6.4 C 5.66 g/m*3 6.4 C 0 km/h
84 02-12-2003 16:41:01 6.2 C 5.74 g/m*3 6.2 C 0 km/h
85 02-12-2003 16:53:01 5.9 C 5.7 g/m*3 5.9 C 0 km/h
86 02-12-2003 17:05:00 5.7 C 5.69 g/m*3 5.7 C 0 km/h
87 02-12-2003 17:17:00 5.7 C 5.76 g/m*3 5.7 C 0 km/h
88 02-12-2003 17:29:00 5.6 C 5.73 g/m*3 5.6 C 0 km/h
89 02-12-2003 17:41:00 5.4 C 5.58 g/m*3 5.4 C 0 km/h
90 02-12-2003 17:53:00 5.2 C 5.58 g/m*3 5.2 C 0 km/h
91 02-12-2003 18:06:01 4.9 C 5.54 g/m*3 4.9 C 0 km/h
92 02-12-2003 18:18:01 4.7 C 5.53 g/m*3 4.7 C 0 km/h
93 02-12-2003 18:30:01 4.6 C 5.49 g/m*3 4.6 C 0 km/h
94 02-12-2003 18:41:01 4.5 C 5.52 g/m*3 4.5 C 0 km/h
95 02-12-2003 18:53:01 4.4 C 5.48 g/m*3 4.4 C 0 km/h
96 02-12-2003 19:05:00 4.3 C 5.45 g/m*3 4.3 C 0 km/h
97 02-12-2003 19:17:00 4.3 C 5.51 g/m*3 4.3 C 0 km/h
98 02-12-2003 19:29:00 4.2 C 5.48 g/m*3 4.2 C 0 km/h
99 02-12-2003 19:41:00 4 C 5.34 g/m*3 4 C 0 km/h
100 02-12-2003 19:53:00 4 C 5.4 g/m*3 4 C 0 km/h
Sensor: Nr:Datum:Temp:Abs-Feuchte:Windchill:Wind:
Aussen-T/F 101 02-12-2003 20:06:00 3.7 C 5.3 g/m*3 3.7 C 0 km/h
102 02-12-2003 20:18:01 3.8 C 5.4 g/m*3 3.8 C 0 km/h
103 02-12-2003 20:30:01 3.7 C 5.36 g/m*3 3.7 C 0 km/h
104 02-12-2003 20:41:01 3.4 C 5.25 g/m*3 3.4 C 0 km/h
105 02-12-2003 20:53:01 3.2 C 5.18 g/m*3 3.2 C 0 km/h
106 02-12-2003 21:05:00 3.3 C 5.22 g/m*3 3.3 C 0 km/h
107 02-12-2003 21:17:00 3.3 C 5.28 g/m*3 3.3 C 0 km/h
108 02-12-2003 21:29:00 3.3 C 5.28 g/m*3 3.3 C 0 km/h
109 02-12-2003 21:41:01 3.3 C 5.34 g/m*3 3.3 C 0 km/h
110 02-12-2003 21:53:01 3.3 C 5.34 g/m*3 3.3 C 0 km/h
111 02-12-2003 22:05:00 3.1 C 5.21 g/m*3 3.1 C 0 km/h
112 02-12-2003 22:17:00 3.3 C 5.34 g/m*3 3.3 C 0 km/h
113 02-12-2003 22:29:00 2.9 C 5.2 g/m*3 2.9 C 0 km/h
114 02-12-2003 22:41:00 2.9 C 5.2 g/m*3 2.9 C 0 km/h
115 02-12-2003 22:53:00 2.9 C 5.2 g/m*3 2.9 C 0 km/h
116 02-12-2003 23:06:01 3 C 5.23 g/m*3 3 C 0 km/h
117 02-12-2003 23:18:01 2.9 C 5.2 g/m*3 2.9 C 0 km/h
118 02-12-2003 23:30:01 2.8 C 5.16 g/m*3 2.8 C 0 km/h
119 02-12-2003 23:41:00 3 C 5.23 g/m*3 3 C 0 km/h
120 02-12-2003 23:53:01 3.1 C 5.27 g/m*3 3.1 C 0 km/h
121 03-12-2003 00:05:00 3.1 C 5.27 g/m*3 3.1 C 0 km/h
122 03-12-2003 00:17:00 3.1 C 5.27 g/m*3 3.1 C 0 km/h
123 03-12-2003 00:29:00 3.1 C 5.27 g/m*3 3.1 C 0 km/h
124 03-12-2003 00:42:00 3 C 5.23 g/m*3 3 C 0 km/h
125 03-12-2003 00:53:00 3 C 5.23 g/m*3 3 C 0 km/h
Sensor: Nr:Datum:Temp:Abs-Feuchte:Windchill:Wind:
Aussen-T/F 126 03-12-2003 01:06:00 3 C 5.23 g/m*3 3 C 0 km/h
127 03-12-2003 01:18:01 3.1 C 5.27 g/m*3 3.1 C 0 km/h
128 03-12-2003 01:30:01 3 C 5.23 g/m*3 3 C 0 km/h
129 03-12-2003 01:41:01 3 C 5.23 g/m*3 3 C 0 km/h
130 03-12-2003 01:53:01 3 C 5.23 g/m*3 3 C 0 km/h
131 03-12-2003 02:05:00 3 C 5.23 g/m*3 3 C 0 km/h
132 03-12-2003 02:17:00 3 C 5.23 g/m*3 3 C 0 km/h
133 03-12-2003 02:29:00 3.1 C 5.27 g/m*3 3.1 C 0 km/h
134 03-12-2003 02:41:01 2.9 C 5.2 g/m*3 2.9 C 0 km/h
135 03-12-2003 02:53:01 2.7 C 5.13 g/m*3 2.7 C 0 km/h
136 03-12-2003 03:05:00 2.5 C 5.06 g/m*3 2.5 C 0 km/h
137 03-12-2003 03:17:00 2.4 C 5.02 g/m*3 2.4 C 0 km/h
138 03-12-2003 03:29:00 2.2 C 4.9 g/m*3 2.2 C 0 km/h
139 03-12-2003 03:41:00 2.1 C 4.87 g/m*3 2.1 C 0 km/h
140 03-12-2003 03:53:00 1.9 C 4.86 g/m*3 1.9 C 0 km/h
141 03-12-2003 04:06:00 2 C 4.89 g/m*3 2 C 0 km/h
142 03-12-2003 04:18:01 2.1 C 4.92 g/m*3 2.1 C 0 km/h
143 03-12-2003 04:30:01 1.9 C 4.91 g/m*3 1.9 C 0 km/h
144 03-12-2003 04:41:01 1.7 C 4.85 g/m*3 1.7 C 0 km/h
145 03-12-2003 04:53:01 1.6 C 4.81 g/m*3 1.6 C 0 km/h
146 03-12-2003 05:05:00 1.6 C 4.81 g/m*3 1.6 C 0 km/h
147 03-12-2003 05:17:00 1.7 C 4.9 g/m*3 1.7 C 0 km/h
148 03-12-2003 05:29:00 1.7 C 4.9 g/m*3 1.7 C 0 km/h
149 03-12-2003 05:41:01 1.6 C 4.87 g/m*3 1.6 C 0 km/h
150 03-12-2003 05:53:01 1.5 C 4.78 g/m*3 1.5 C 0 km/h
Sensor: Nr:Datum:Temp:Abs-Feuchte:Windchill:Wind:
Aussen-T/F 151 03-12-2003 06:05:00 1.6 C 4.81 g/m*3 1.6 C 0 km/h
152 03-12-2003 06:17:00 1.5 C 4.78 g/m*3 1.5 C 0 km/h
153 03-12-2003 06:29:00 1.4 C 4.75 g/m*3 1.4 C 0 km/h
154 03-12-2003 06:41:00 1.5 C 4.83 g/m*3 1.5 C 0 km/h
155 03-12-2003 06:53:00 1.3 C 4.77 g/m*3 1.3 C 0 km/h
156 03-12-2003 07:06:00 1.4 C 4.8 g/m*3 1.4 C 0 km/h
157 03-12-2003 07:18:01 1.3 C 4.77 g/m*3 1.3 C 0 km/h
158 03-12-2003 07:30:01 1.2 C 4.74 g/m*3 1.2 C 0 km/h
159 03-12-2003 07:41:00 1.2 C 4.74 g/m*3 1.2 C 0 km/h
160 03-12-2003 07:53:01 1.2 C 4.74 g/m*3 1.2 C 0 km/h
161 03-12-2003 08:05:00 1.3 C 4.77 g/m*3 1.3 C 0 km/h
162 03-12-2003 08:17:00 1.5 C 4.89 g/m*3 1.5 C 0 km/h
163 03-12-2003 08:29:00 1.8 C 4.99 g/m*3 1.8 C 0 km/h
164 03-12-2003 08:41:01 1.9 C 5.08 g/m*3 1.9 C 0 km/h
165 03-12-2003 08:53:01 2.1 C 5.09 g/m*3 2.1 C 0 km/h
166 03-12-2003 09:05:00 2.2 C 5.13 g/m*3 2.2 C 0 km/h
167 03-12-2003 09:17:00 2.3 C 5.22 g/m*3 2.3 C 0 km/h
168 03-12-2003 09:29:00 2.5 C 5.29 g/m*3 2.5 C 0 km/h
169 03-12-2003 09:41:00 2.5 C 5.29 g/m*3 2.5 C 0 km/h
170 03-12-2003 09:53:00 2.7 C 5.36 g/m*3 2.7 C 0 km/h
171 03-12-2003 10:06:00 2.7 C 5.36 g/m*3 2.7 C 0 km/h
172 03-12-2003 10:18:01 2.9 C 5.43 g/m*3 2.9 C 0 km/h
173 03-12-2003 10:30:01 3 C 5.47 g/m*3 3 C 0 km/h
174 03-12-2003 10:41:01 2.9 C 5.43 g/m*3 2.9 C 0 km/h
175 03-12-2003 10:53:01 3 C 5.41 g/m*3 3 C 0 km/h
Sensor: Nr:Datum:Temp:Abs-Feuchte:Windchill:Wind:
Aussen-T/F 176 03-12-2003 11:05:00 3.3 C 5.52 g/m*3 3.3 C 0 km/h
177 03-12-2003 11:17:00 3.6 C 5.63 g/m*3 3.6 C 0 km/h
178 03-12-2003 11:29:00 3.9 C 5.75 g/m*3 3.9 C 0 km/h
179 03-12-2003 11:41:00 4.1 C 5.7 g/m*3 4.1 C 0 km/h
180 03-12-2003 11:53:00 4.2 C 5.73 g/m*3 4.2 C 0 km/h
181 03-12-2003 12:05:00 4.3 C 5.77 g/m*3 4.3 C 0 km/h
182 03-12-2003 12:17:00 4.6 C 5.82 g/m*3 4.6 C 0 km/h
183 03-12-2003 12:29:00 4.6 C 5.69 g/m*3 4.6 C 0 km/h
184 03-12-2003 12:41:00 4.7 C 5.66 g/m*3 4.7 C 0 km/h
185 03-12-2003 12:53:00 4.9 C 5.67 g/m*3 4.9 C 0 km/h
186 03-12-2003 13:06:01 5 C 5.64 g/m*3 5 C 0 km/h
187 03-12-2003 13:18:01 5.1 C 5.68 g/m*3 5.1 C 0 km/h
188 03-12-2003 13:30:01 5.2 C 5.65 g/m*3 5.2 C 0 km/h
189 03-12-2003 13:41:00 5.2 C 5.65 g/m*3 5.2 C 0 km/h
190 03-12-2003 13:53:01 5.1 C 5.61 g/m*3 5.1 C 0 km/h
191 03-12-2003 14:05:00 5.3 C 5.68 g/m*3 5.3 C 0 km/h
192 03-12-2003 14:17:00 5.4 C 5.79 g/m*3 5.4 C 0 km/h
193 03-12-2003 14:29:00 5.4 C 5.79 g/m*3 5.4 C 0 km/h
194 03-12-2003 14:41:01 5.4 C 5.79 g/m*3 5.4 C 0 km/h
195 03-12-2003 14:53:01 5.4 C 5.79 g/m*3 5.4 C 0 km/h
196 03-12-2003 15:05:00 5.2 C 5.71 g/m*3 5.2 C 0 km/h
197 03-12-2003 15:17:00 5.1 C 5.68 g/m*3 5.1 C 0 km/h
198 03-12-2003 15:29:00 5 C 5.64 g/m*3 5 C 0 km/h
199 03-12-2003 15:41:01 4.8 C 5.63 g/m*3 4.8 C 0 km/h
200 03-12-2003 15:53:01 4.6 C 5.62 g/m*3 4.6 C 0 km/h
Sensor: Nr:Datum:Temp:Abs-Feuchte:Windchill:Wind:
Aussen-T/F 201 03-12-2003 16:05:00 4.5 C 5.59 g/m*3 4.5 C 0 km/h
202 03-12-2003 16:17:00 4.4 C 5.55 g/m*3 4.4 C 0 km/h
203 03-12-2003 16:29:00 4.1 C 5.5 g/m*3 4.1 C 0 km/h
204 03-12-2003 16:41:00 3.9 C 5.49 g/m*3 3.9 C 0 km/h
205 03-12-2003 16:53:00 3.8 C 5.46 g/m*3 3.8 C 0 km/h
206 03-12-2003 17:06:01 3.6 C 5.39 g/m*3 3.6 C 0 km/h
207 03-12-2003 17:18:01 3.5 C 5.35 g/m*3 3.5 C 0 km/h
208 03-12-2003 17:30:01 3.5 C 5.41 g/m*3 3.5 C 0 km/h
209 03-12-2003 17:41:01 3.3 C 5.34 g/m*3 3.3 C 0 km/h
210 03-12-2003 17:53:01 3.4 C 5.37 g/m*3 3.4 C 0 km/h
211 03-12-2003 18:05:00 3.4 C 5.37 g/m*3 3.4 C 0 km/h
212 03-12-2003 18:17:00 3.3 C 5.4 g/m*3 3.3 C 0 km/h
213 03-12-2003 18:29:00 3.2 C 5.3 g/m*3 3.2 C 0 km/h
214 03-12-2003 18:41:00 3 C 5.23 g/m*3 3 C 0 km/h
215 03-12-2003 18:53:00 2.9 C 5.26 g/m*3 2.9 C 0 km/h
216 03-12-2003 19:06:01 3 C 5.29 g/m*3 3 C 0 km/h
217 03-12-2003 19:18:01 3.1 C 5.33 g/m*3 3.1 C 0 km/h
218 03-12-2003 19:30:01 3.2 C 5.36 g/m*3 3.2 C 0 km/h
219 03-12-2003 19:41:01 3.2 C 5.36 g/m*3 3.2 C 0 km/h
220 03-12-2003 19:53:01 3.2 C 5.36 g/m*3 3.2 C 0 km/h
221 03-12-2003 20:05:00 3.2 C 5.36 g/m*3 3.2 C 0 km/h
222 03-12-2003 20:17:00 3.3 C 5.46 g/m*3 3.3 C 0 km/h
223 03-12-2003 20:29:00 3.3 C 5.46 g/m*3 3.3 C 0 km/h
224 03-12-2003 20:41:00 3.2 C 5.42 g/m*3 3.2 C 0 km/h
225 03-12-2003 20:53:00 3.1 C 5.33 g/m*3 3.1 C 0 km/h
Sensor: Nr:Datum:Temp:Abs-Feuchte:Windchill:Wind:
Aussen-T/F 226 03-12-2003 21:06:01 3 C 5.29 g/m*3 3 C 0 km/h
227 03-12-2003 21:18:01 3.1 C 5.39 g/m*3 3.1 C 0 km/h
228 03-12-2003 21:30:01 3.2 C 5.42 g/m*3 3.2 C 0 km/h
229 03-12-2003 21:41:01 3.3 C 5.46 g/m*3 3.3 C 0 km/h
230 03-12-2003 21:53:01 3.3 C 5.46 g/m*3 3.3 C 0 km/h
231 03-12-2003 22:05:00 3.4 C 5.5 g/m*3 3.4 C 0 km/h
232 03-12-2003 22:17:00 3.5 C 5.53 g/m*3 3.5 C 0 km/h
233 03-12-2003 22:29:00 3.5 C 5.53 g/m*3 3.5 C 0 km/h
234 03-12-2003 22:41:00 3.5 C 5.53 g/m*3 3.5 C 0 km/h
235 03-12-2003 22:53:00 3.5 C 5.53 g/m*3 3.5 C 0 km/h
236 03-12-2003 23:06:01 3.7 C 5.67 g/m*3 3.7 C 0 km/h
237 03-12-2003 23:17:01 3.8 C 5.71 g/m*3 3.8 C 0 km/h
238 03-12-2003 23:18:01 3.8 C 5.71 g/m*3 3.8 C 0 km/h
239 03-12-2003 23:29:01 3.9 C 5.75 g/m*3 3.9 C 0 km/h
240 03-12-2003 23:41:01 3.9 C 5.75 g/m*3 3.9 C 0 km/h
241 03-12-2003 23:53:01 4 C 5.72 g/m*3 4 C 0 km/h
242 04-12-2003 00:05:00 4 C 5.72 g/m*3 4 C 0 km/h
243 04-12-2003 00:17:00 4.1 C 5.76 g/m*3 4.1 C 0 km/h
244 04-12-2003 00:29:00 4.2 C 5.8 g/m*3 4.2 C 0 km/h
245 04-12-2003 00:41:00 4.3 C 5.84 g/m*3 4.3 C 0 km/h
246 04-12-2003 00:53:00 4.2 C 5.8 g/m*3 4.2 C 0 km/h
247 04-12-2003 01:06:01 4.2 C 5.8 g/m*3 4.2 C 0 km/h
248 04-12-2003 01:18:01 4.2 C 5.8 g/m*3 4.2 C 0 km/h
249 04-12-2003 01:30:01 4.2 C 5.8 g/m*3 4.2 C 0 km/h
250 04-12-2003 01:41:01 4.3 C 5.84 g/m*3 4.3 C 0 km/h
Sensor: Nr:Datum:Temp:Abs-Feuchte:Windchill:Wind:
Aussen-T/F 251 04-12-2003 01:53:01 4.3 C 5.84 g/m*3 4.3 C 0 km/h
252 04-12-2003 02:05:00 4.3 C 5.84 g/m*3 4.3 C 0 km/h
253 04-12-2003 02:17:00 4.3 C 5.84 g/m*3 4.3 C 0 km/h
254 04-12-2003 02:29:00 4.3 C 5.84 g/m*3 4.3 C 0 km/h
255 04-12-2003 02:41:01 4.3 C 5.84 g/m*3 4.3 C 0 km/h
256 04-12-2003 02:53:01 4.3 C 5.84 g/m*3 4.3 C 0 km/h
257 04-12-2003 03:05:00 4.3 C 5.84 g/m*3 4.3 C 0 km/h
258 04-12-2003 03:17:00 4.3 C 5.84 g/m*3 4.3 C 0 km/h
259 04-12-2003 03:29:00 4.3 C 5.84 g/m*3 4.3 C 0 km/h
260 04-12-2003 03:41:00 4.3 C 5.77 g/m*3 4.3 C 0 km/h
261 04-12-2003 03:53:00 4.3 C 5.77 g/m*3 4.3 C 0 km/h
262 04-12-2003 04:06:00 4.3 C 5.77 g/m*3 4.3 C 0 km/h
263 04-12-2003 04:18:01 4.2 C 5.73 g/m*3 4.2 C 0 km/h
264 04-12-2003 04:30:01 4.3 C 5.71 g/m*3 4.3 C 0 km/h
265 04-12-2003 04:41:01 4.3 C 5.71 g/m*3 4.3 C 0 km/h
266 04-12-2003 04:53:01 4.2 C 5.61 g/m*3 4.2 C 0 km/h
267 04-12-2003 05:05:00 4.1 C 5.57 g/m*3 4.1 C 0 km/h
268 04-12-2003 05:17:00 4.1 C 5.57 g/m*3 4.1 C 0 km/h
269 04-12-2003 05:29:00 4 C 5.47 g/m*3 4 C 0 km/h
270 04-12-2003 05:41:00 4 C 5.47 g/m*3 4 C 0 km/h
271 04-12-2003 05:53:01 3.9 C 5.43 g/m*3 3.9 C 0 km/h
272 04-12-2003 06:05:00 3.9 C 5.37 g/m*3 3.9 C 0 km/h
273 04-12-2003 06:17:00 3.9 C 5.31 g/m*3 3.9 C 0 km/h
274 04-12-2003 06:29:00 3.9 C 5.31 g/m*3 3.9 C 0 km/h
275 04-12-2003 06:41:00 3.9 C 5.31 g/m*3 3.9 C 0 km/h
Sensor: Nr:Datum:Temp:Abs-Feuchte:Windchill:Wind:
Aussen-T/F 276 04-12-2003 06:53:00 4 C 5.28 g/m*3 4 C 0 km/h
277 04-12-2003 07:06:00 4 C 5.28 g/m*3 4 C 0 km/h
278 04-12-2003 07:18:01 3.9 C 5.24 g/m*3 3.9 C 0 km/h
279 04-12-2003 07:30:01 3.9 C 5.31 g/m*3 3.9 C 0 km/h
280 04-12-2003 07:41:01 3.9 C 5.24 g/m*3 3.9 C 0 km/h
281 04-12-2003 07:53:01 3.8 C 5.21 g/m*3 3.8 C 0 km/h
282 04-12-2003 08:05:00 3.9 C 5.31 g/m*3 3.9 C 0 km/h
283 04-12-2003 08:17:00 3.9 C 5.31 g/m*3 3.9 C 0 km/h
284 04-12-2003 08:29:00 3.9 C 5.31 g/m*3 3.9 C 0 km/h
285 04-12-2003 08:41:00 3.9 C 5.24 g/m*3 3.9 C 0 km/h
286 04-12-2003 08:53:00 4 C 5.28 g/m*3 4 C 0 km/h
287 04-12-2003 09:06:00 4.1 C 5.25 g/m*3 4.1 C 0 km/h
288 04-12-2003 09:17:01 4.1 C 5.25 g/m*3 4.1 C 0 km/h
289 04-12-2003 09:18:00 4.1 C 5.25 g/m*3 4.1 C 0 km/h
290 04-12-2003 09:29:01 4.1 C 5.18 g/m*3 4.1 C 0 km/h
291 04-12-2003 09:41:01 4.2 C 5.22 g/m*3 4.2 C 0 km/h
292 04-12-2003 09:53:01 4.2 C 5.22 g/m*3 4.2 C 0 km/h
293 04-12-2003 10:05:00 4.2 C 5.22 g/m*3 4.2 C 0 km/h
294 04-12-2003 10:17:00 4.3 C 5.19 g/m*3 4.3 C 0 km/h
295 04-12-2003 10:29:00 4.3 C 5.19 g/m*3 4.3 C 0 km/h
296 04-12-2003 10:41:00 4.4 C 5.22 g/m*3 4.4 C 0 km/h
297 04-12-2003 10:53:00 4.6 C 5.29 g/m*3 4.6 C 0 km/h
298 04-12-2003 10:54:01 4.6 C 5.29 g/m*3 4.6 C 0 km/h
299 04-12-2003 11:06:01 4.6 C 5.29 g/m*3 4.6 C 0 km/h
300 04-12-2003 11:18:01 4.7 C 5.26 g/m*3 4.7 C 0 km/h
Sensor: Nr:Datum:Temp:Abs-Feuchte:Windchill:Wind:
Aussen-T/F 301 04-12-2003 11:30:01 4.8 C 5.3 g/m*3 4.8 C 0 km/h
302 04-12-2003 11:41:00 5 C 5.3 g/m*3 5 C 0 km/h
303 04-12-2003 11:53:00 5.1 C 5.27 g/m*3 5.1 C 0 km/h
304 04-12-2003 12:05:00 5.3 C 5.34 g/m*3 5.3 C 0 km/h
305 04-12-2003 12:17:00 5.3 C 5.27 g/m*3 5.3 C 0 km/h
306 04-12-2003 12:29:00 5.3 C 5.27 g/m*3 5.3 C 0 km/h
307 04-12-2003 12:41:00 5.3 C 5.27 g/m*3 5.3 C 0 km/h
308 04-12-2003 12:53:00 5.4 C 5.37 g/m*3 5.4 C 0 km/h
309 04-12-2003 13:06:00 5.5 C 5.34 g/m*3 5.5 C 0 km/h
310 04-12-2003 13:18:00 5.6 C 5.37 g/m*3 5.6 C 0 km/h
311 04-12-2003 13:30:01 5.7 C 5.41 g/m*3 5.7 C 0 km/h
312 04-12-2003 13:41:00 5.7 C 5.34 g/m*3 5.7 C 0 km/h
313 04-12-2003 13:53:01 5.7 C 5.34 g/m*3 5.7 C 0 km/h
314 04-12-2003 14:05:00 5.7 C 5.34 g/m*3 5.7 C 0 km/h
315 04-12-2003 14:17:00 5.9 C 5.48 g/m*3 5.9 C 0 km/h
316 04-12-2003 14:29:00 5.9 C 5.41 g/m*3 5.9 C 0 km/h
317 04-12-2003 14:41:00 5.9 C 5.41 g/m*3 5.9 C 0 km/h
318 04-12-2003 14:53:00 5.9 C 5.41 g/m*3 5.9 C 0 km/h
319 04-12-2003 15:06:00 5.8 C 5.3 g/m*3 5.8 C 0 km/h
320 04-12-2003 15:18:01 5.9 C 5.34 g/m*3 5.9 C 0 km/h
321 04-12-2003 15:30:01 5.8 C 5.37 g/m*3 5.8 C 0 km/h
322 04-12-2003 15:41:00 5.8 C 5.37 g/m*3 5.8 C 0 km/h
323 04-12-2003 15:53:00 5.8 C 5.37 g/m*3 5.8 C 0 km/h
324 04-12-2003 16:05:00 5.7 C 5.27 g/m*3 5.7 C 0 km/h
325 04-12-2003 16:17:00 5.7 C 5.27 g/m*3 5.7 C 0 km/h
Sensor: Nr:Datum:Temp:Abs-Feuchte:Windchill:Wind:
Aussen-T/F 326 04-12-2003 16:29:00 5.7 C 5.34 g/m*3 5.7 C 0 km/h
327 04-12-2003 16:41:00 5.7 C 5.34 g/m*3 5.7 C 0 km/h
328 04-12-2003 16:53:00 5.7 C 5.34 g/m*3 5.7 C 0 km/h
329 04-12-2003 16:54:01 5.7 C 5.34 g/m*3 5.7 C 0 km/h
330 04-12-2003 17:06:01 5.7 C 5.34 g/m*3 5.7 C 0 km/h
331 04-12-2003 17:18:01 5.7 C 5.34 g/m*3 5.7 C 0 km/h
332 04-12-2003 17:30:01 5.7 C 5.34 g/m*3 5.7 C 0 km/h
333 04-12-2003 17:41:00 5.7 C 5.34 g/m*3 5.7 C 0 km/h
334 04-12-2003 17:53:01 5.7 C 5.34 g/m*3 5.7 C 0 km/h
335 04-12-2003 18:05:00 5.7 C 5.34 g/m*3 5.7 C 0 km/h
336 04-12-2003 18:17:00 5.7 C 5.34 g/m*3 5.7 C 0 km/h
337 04-12-2003 18:29:01 5.7 C 5.34 g/m*3 5.7 C 0 km/h
338 04-12-2003 18:41:00 5.8 C 5.37 g/m*3 5.8 C 0 km/h
339 04-12-2003 18:53:00 5.7 C 5.41 g/m*3 5.7 C 0 km/h
340 04-12-2003 19:05:01 5.7 C 5.41 g/m*3 5.7 C 0 km/h
341 04-12-2003 19:17:01 5.7 C 5.41 g/m*3 5.7 C 0 km/h
342 04-12-2003 19:29:01 5.7 C 5.41 g/m*3 5.7 C 0 km/h
343 04-12-2003 19:41:01 5.7 C 5.48 g/m*3 5.7 C 0 km/h
344 04-12-2003 19:53:01 5.7 C 5.34 g/m*3 5.7 C 0 km/h
345 04-12-2003 20:06:00 5.8 C 5.37 g/m*3 5.8 C 0 km/h
346 04-12-2003 20:18:00 5.8 C 5.37 g/m*3 5.8 C 0 km/h
347 04-12-2003 20:30:00 5.8 C 5.3 g/m*3 5.8 C 0 km/h
348 04-12-2003 20:41:00 5.8 C 5.37 g/m*3 5.8 C 0 km/h
349 04-12-2003 20:53:00 5.7 C 5.34 g/m*3 5.7 C 0 km/h
350 04-12-2003 21:05:01 5.7 C 5.41 g/m*3 5.7 C 0 km/h
Sensor: Nr:Datum:Temp:Abs-Feuchte:Windchill:Wind:
Aussen-T/F 351 04-12-2003 21:17:01 5.7 C 5.41 g/m*3 5.7 C 0 km/h
352 04-12-2003 21:29:01 5.6 C 5.44 g/m*3 5.6 C 0 km/h
353 04-12-2003 21:41:00 5.7 C 5.34 g/m*3 5.7 C 0 km/h
354 04-12-2003 21:53:00 5.7 C 5.27 g/m*3 5.7 C 0 km/h
355 04-12-2003 22:06:00 5.6 C 5.3 g/m*3 5.6 C 0 km/h
356 04-12-2003 22:18:00 5.5 C 5.34 g/m*3 5.5 C 0 km/h
357 04-12-2003 22:30:01 5.5 C 5.34 g/m*3 5.5 C 0 km/h
358 04-12-2003 22:41:01 5.4 C 5.16 g/m*3 5.4 C 0 km/h
359 04-12-2003 22:53:01 5.4 C 5.23 g/m*3 5.4 C 0 km/h
360 04-12-2003 23:05:00 5.4 C 5.3 g/m*3 5.4 C 0 km/h
361 04-12-2003 23:17:00 5.3 C 5.27 g/m*3 5.3 C 0 km/h
362 04-12-2003 23:17:01 5.3 C 5.27 g/m*3 5.3 C 0 km/h
363 04-12-2003 23:29:01 5.4 C 5.3 g/m*3 5.4 C 0 km/h
364 04-12-2003 23:41:01 5.4 C 5.16 g/m*3 5.4 C 0 km/h
365 04-12-2003 23:53:01 5.4 C 5.09 g/m*3 5.4 C 0 km/h
366 05-12-2003 00:05:01 5.4 C 5.09 g/m*3 5.4 C 0 km/h
367 05-12-2003 00:17:01 5.4 C 5.09 g/m*3 5.4 C 0 km/h
368 05-12-2003 00:29:01 5.4 C 5.09 g/m*3 5.4 C 0 km/h
369 05-12-2003 00:41:00 5.4 C 5.09 g/m*3 5.4 C 0 km/h
370 05-12-2003 00:53:01 5.4 C 5.09 g/m*3 5.4 C 0 km/h
371 05-12-2003 01:05:00 5.3 C 5.13 g/m*3 5.3 C 0 km/h
372 05-12-2003 01:17:00 5.3 C 5.2 g/m*3 5.3 C 0 km/h
373 05-12-2003 01:29:00 5.3 C 5.2 g/m*3 5.3 C 0 km/h
374 05-12-2003 01:41:01 5.3 C 5.2 g/m*3 5.3 C 0 km/h
375 05-12-2003 01:53:01 5.2 C 5.16 g/m*3 5.2 C 0 km/h
Sensor: Nr:Datum:Temp:Abs-Feuchte:Windchill:Wind:
Aussen-T/F 376 05-12-2003 02:05:00 5.2 C 5.16 g/m*3 5.2 C 0 km/h
377 05-12-2003 02:17:00 5.2 C 5.23 g/m*3 5.2 C 0 km/h
378 05-12-2003 02:29:00 5.2 C 5.16 g/m*3 5.2 C 0 km/h
379 05-12-2003 02:41:01 5.2 C 5.16 g/m*3 5.2 C 0 km/h
380 05-12-2003 02:53:01 5.2 C 5.16 g/m*3 5.2 C 0 km/h
381 05-12-2003 03:05:00 5.2 C 5.16 g/m*3 5.2 C 0 km/h
382 05-12-2003 03:17:00 5.2 C 5.16 g/m*3 5.2 C 0 km/h
383 05-12-2003 03:29:00 5.2 C 5.16 g/m*3 5.2 C 0 km/h
384 05-12-2003 03:41:00 5.2 C 5.23 g/m*3 5.2 C 0 km/h
385 05-12-2003 03:53:00 5.2 C 5.16 g/m*3 5.2 C 0 km/h
386 05-12-2003 04:06:01 5.2 C 5.16 g/m*3 5.2 C 0 km/h
387 05-12-2003 04:18:01 5.2 C 5.23 g/m*3 5.2 C 0 km/h
388 05-12-2003 04:30:01 5.2 C 5.23 g/m*3 5.2 C 0 km/h
389 05-12-2003 04:41:01 5.2 C 5.23 g/m*3 5.2 C 0 km/h
390 05-12-2003 04:53:01 5.2 C 5.23 g/m*3 5.2 C 0 km/h
391 05-12-2003 05:05:00 5.2 C 5.23 g/m*3 5.2 C 0 km/h
392 05-12-2003 05:17:00 5.2 C 5.23 g/m*3 5.2 C 0 km/h
393 05-12-2003 05:29:00 5.2 C 5.16 g/m*3 5.2 C 0 km/h
394 05-12-2003 05:41:00 5.2 C 5.16 g/m*3 5.2 C 0 km/h
395 05-12-2003 05:53:00 5.2 C 5.23 g/m*3 5.2 C 0 km/h
396 05-12-2003 06:06:01 5.2 C 5.23 g/m*3 5.2 C 0 km/h
397 05-12-2003 06:18:01 5.2 C 5.23 g/m*3 5.2 C 0 km/h
398 05-12-2003 06:30:01 5.2 C 5.23 g/m*3 5.2 C 0 km/h
399 05-12-2003 06:41:01 5.2 C 5.23 g/m*3 5.2 C 0 km/h
400 05-12-2003 06:53:01 5.2 C 5.16 g/m*3 5.2 C 0 km/h
Sensor: Nr:Datum:Temp:Abs-Feuchte:Windchill:Wind:
Aussen-T/F 401 05-12-2003 07:05:00 5.3 C 4.99 g/m*3 5.3 C 0 km/h
402 05-12-2003 07:17:00 5.3 C 4.92 g/m*3 5.3 C 0 km/h
403 05-12-2003 07:29:00 5.2 C 4.96 g/m*3 5.2 C 0 km/h
404 05-12-2003 07:41:00 5.2 C 5.03 g/m*3 5.2 C 0 km/h
405 05-12-2003 07:53:00 5.2 C 4.96 g/m*3 5.2 C 0 km/h
406 05-12-2003 08:06:00 5.2 C 5.03 g/m*3 5.2 C 0 km/h
407 05-12-2003 08:18:01 5.2 C 5.03 g/m*3 5.2 C 0 km/h
408 05-12-2003 08:30:01 5.2 C 5.03 g/m*3 5.2 C 0 km/h
409 05-12-2003 08:41:00 5.2 C 5.1 g/m*3 5.2 C 0 km/h
410 05-12-2003 08:53:00 5.2 C 5.1 g/m*3 5.2 C 0 km/h
411 05-12-2003 09:05:00 5.3 C 5.13 g/m*3 5.3 C 0 km/h
412 05-12-2003 09:17:00 5.4 C 5.09 g/m*3 5.4 C 0 km/h
413 05-12-2003 09:29:00 5.4 C 5.09 g/m*3 5.4 C 0 km/h
414 05-12-2003 09:41:00 5.5 C 5.06 g/m*3 5.5 C 0 km/h
415 05-12-2003 09:53:00 5.6 C 5.09 g/m*3 5.6 C 0 km/h
416 05-12-2003 10:06:00 5.6 C 5.02 g/m*3 5.6 C 0 km/h
417 05-12-2003 10:18:01 5.7 C 4.98 g/m*3 5.7 C 0 km/h
418 05-12-2003 10:30:01 5.7 C 4.98 g/m*3 5.7 C 0 km/h
419 05-12-2003 10:41:00 5.8 C 5.01 g/m*3 5.8 C 0 km/h
420 05-12-2003 10:53:01 6 C 4.94 g/m*3 6 C 0 km/h
421 05-12-2003 11:05:00 6.1 C 4.97 g/m*3 6.1 C 0 km/h
422 05-12-2003 11:17:00 6.2 C 4.93 g/m*3 6.2 C 0 km/h
423 05-12-2003 11:29:00 6.1 C 4.97 g/m*3 6.1 C 0 km/h
424 05-12-2003 11:41:00 6.1 C 4.89 g/m*3 6.1 C 0 km/h
425 05-12-2003 11:53:01 6.1 C 4.89 g/m*3 6.1 C 0 km/h
Sensor: Nr:Datum:Temp:Abs-Feuchte:Windchill:Wind:
Aussen-T/F 426 05-12-2003 12:05:00 6.2 C 4.93 g/m*3 6.2 C 0 km/h
427 05-12-2003 12:17:00 6.2 C 5 g/m*3 6.2 C 0 km/h
428 05-12-2003 12:29:00 6.2 C 5 g/m*3 6.2 C 0 km/h
429 05-12-2003 12:41:00 6.2 C 5 g/m*3 6.2 C 0 km/h
430 05-12-2003 12:53:00 6.2 C 5 g/m*3 6.2 C 0 km/h
431 05-12-2003 13:05:00 6.3 C 5.03 g/m*3 6.3 C 0 km/h
432 05-12-2003 13:17:00 6.2 C 5 g/m*3 6.2 C 0 km/h
433 05-12-2003 13:29:00 6.2 C 5 g/m*3 6.2 C 0 km/h
434 05-12-2003 13:41:00 6.1 C 4.97 g/m*3 6.1 C 0 km/h
435 05-12-2003 13:53:00 6.1 C 4.97 g/m*3 6.1 C 0 km/h
436 05-12-2003 14:05:00 6 C 4.94 g/m*3 6 C 0 km/h
437 05-12-2003 14:17:00 6 C 5.01 g/m*3 6 C 0 km/h
438 05-12-2003 14:29:00 6.1 C 5.04 g/m*3 6.1 C 0 km/h
439 05-12-2003 14:41:00 6 C 5.01 g/m*3 6 C 0 km/h
440 05-12-2003 14:53:00 6 C 5.01 g/m*3 6 C 0 km/h
441 05-12-2003 15:05:01 5.9 C 4.98 g/m*3 5.9 C 0 km/h
442 05-12-2003 15:17:01 5.9 C 5.05 g/m*3 5.9 C 0 km/h
443 05-12-2003 15:29:01 5.9 C 4.98 g/m*3 5.9 C 0 km/h
444 05-12-2003 15:41:00 6 C 5.01 g/m*3 6 C 0 km/h
445 05-12-2003 15:53:01 5.9 C 5.05 g/m*3 5.9 C 0 km/h
446 05-12-2003 16:05:00 5.8 C 5.01 g/m*3 5.8 C 0 km/h
447 05-12-2003 16:17:00 5.6 C 4.95 g/m*3 5.6 C 0 km/h
448 05-12-2003 16:29:00 5.6 C 4.95 g/m*3 5.6 C 0 km/h
449 05-12-2003 16:41:00 5.5 C 4.99 g/m*3 5.5 C 0 km/h
450 05-12-2003 16:41:01 5.5 C 4.99 g/m*3 5.5 C 0 km/h
Sensor: Nr:Datum:Temp:Abs-Feuchte:Windchill:Wind:
Aussen-T/F 451 05-12-2003 16:53:00 5.5 C 4.99 g/m*3 5.5 C 0 km/h
452 05-12-2003 17:05:00 5.5 C 4.99 g/m*3 5.5 C 0 km/h
453 05-12-2003 17:17:00 5.4 C 4.88 g/m*3 5.4 C 0 km/h
454 05-12-2003 17:29:01 5.4 C 4.95 g/m*3 5.4 C 0 km/h
455 05-12-2003 17:41:00 5.4 C 4.95 g/m*3 5.4 C 0 km/h
456 05-12-2003 17:53:00 5.4 C 4.88 g/m*3 5.4 C 0 km/h
457 05-12-2003 18:06:01 5.3 C 4.92 g/m*3 5.3 C 0 km/h
458 05-12-2003 18:18:01 5.3 C 4.92 g/m*3 5.3 C 0 km/h
459 05-12-2003 18:30:01 5.3 C 4.99 g/m*3 5.3 C 0 km/h
460 05-12-2003 18:41:01 5.2 C 4.89 g/m*3 5.2 C 0 km/h
461 05-12-2003 18:53:01 5.2 C 4.96 g/m*3 5.2 C 0 km/h
462 05-12-2003 19:05:00 5.2 C 4.96 g/m*3 5.2 C 0 km/h
463 05-12-2003 19:17:00 5.2 C 4.96 g/m*3 5.2 C 0 km/h
464 05-12-2003 19:29:00 5.1 C 4.92 g/m*3 5.1 C 0 km/h
465 05-12-2003 19:41:01 5.2 C 4.96 g/m*3 5.2 C 0 km/h
466 05-12-2003 19:53:01 5 C 4.89 g/m*3 5 C 0 km/h
467 05-12-2003 20:05:00 5.2 C 5.03 g/m*3 5.2 C 0 km/h
468 05-12-2003 20:17:00 5.2 C 5.03 g/m*3 5.2 C 0 km/h
469 05-12-2003 20:29:00 5 C 4.89 g/m*3 5 C 0 km/h
470 05-12-2003 20:41:00 5 C 4.96 g/m*3 5 C 0 km/h
471 05-12-2003 20:53:00 5 C 4.96 g/m*3 5 C 0 km/h
472 05-12-2003 21:06:01 5 C 4.96 g/m*3 5 C 0 km/h
473 05-12-2003 21:18:01 4.8 C 4.96 g/m*3 4.8 C 0 km/h
474 05-12-2003 21:30:01 4.8 C 4.96 g/m*3 4.8 C 0 km/h
475 05-12-2003 21:41:00 4.9 C 5 g/m*3 4.9 C 0 km/h
Sensor: Nr:Datum:Temp:Abs-Feuchte:Windchill:Wind:
Aussen-T/F 476 05-12-2003 21:53:00 4.8 C 4.96 g/m*3 4.8 C 0 km/h
477 05-12-2003 22:05:00 4.7 C 4.93 g/m*3 4.7 C 0 km/h
478 05-12-2003 22:05:01 4.7 C 4.93 g/m*3 4.7 C 0 km/h
479 05-12-2003 22:17:01 4.7 C 4.93 g/m*3 4.7 C 0 km/h
480 05-12-2003 22:29:01 4.6 C 4.9 g/m*3 4.6 C 0 km/h
481 05-12-2003 22:41:01 4.6 C 4.96 g/m*3 4.6 C 0 km/h
482 05-12-2003 22:53:01 4.5 C 4.93 g/m*3 4.5 C 0 km/h
483 05-12-2003 23:05:00 4.5 C 4.93 g/m*3 4.5 C 0 km/h
484 05-12-2003 23:17:00 4.4 C 4.9 g/m*3 4.4 C 0 km/h
485 05-12-2003 23:29:00 4.5 C 5 g/m*3 4.5 C 0 km/h
486 05-12-2003 23:41:00 4.5 C 5 g/m*3 4.5 C 0 km/h
487 05-12-2003 23:53:00 4.3 C 4.93 g/m*3 4.3 C 0 km/h
488 06-12-2003 00:06:01 4.3 C 4.93 g/m*3 4.3 C 0 km/h
489 06-12-2003 00:18:01 4.3 C 4.93 g/m*3 4.3 C 0 km/h
490 06-12-2003 00:30:01 4.3 C 4.93 g/m*3 4.3 C 0 km/h
491 06-12-2003 00:41:00 4.3 C 4.93 g/m*3 4.3 C 0 km/h
492 06-12-2003 00:53:00 4.2 C 4.9 g/m*3 4.2 C 0 km/h
493 06-12-2003 01:05:00 4.2 C 4.96 g/m*3 4.2 C 0 km/h
494 06-12-2003 01:17:00 4.2 C 4.96 g/m*3 4.2 C 0 km/h
495 06-12-2003 01:29:00 4.2 C 4.9 g/m*3 4.2 C 0 km/h
496 06-12-2003 01:41:01 4.1 C 4.86 g/m*3 4.1 C 0 km/h
497 06-12-2003 01:53:01 4.1 C 4.93 g/m*3 4.1 C 0 km/h
498 06-12-2003 02:05:00 4.1 C 4.93 g/m*3 4.1 C 0 km/h
499 06-12-2003 02:17:00 4.1 C 4.93 g/m*3 4.1 C 0 km/h
500 06-12-2003 02:29:00 4.1 C 4.99 g/m*3 4.1 C 0 km/h
Sensor: Nr:Datum:Temp:Abs-Feuchte:Windchill:Wind:
Aussen-T/F 501 06-12-2003 02:41:00 4 C 4.96 g/m*3 4 C 0 km/h
502 06-12-2003 02:53:00 4 C 4.96 g/m*3 4 C 0 km/h
503 06-12-2003 03:06:01 3.9 C 4.99 g/m*3 3.9 C 0 km/h
504 06-12-2003 03:18:01 3.9 C 4.99 g/m*3 3.9 C 0 km/h
505 06-12-2003 03:30:01 3.8 C 4.96 g/m*3 3.8 C 0 km/h
506 06-12-2003 03:41:01 3.6 C 5.01 g/m*3 3.6 C 0 km/h
507 06-12-2003 03:53:01 3.4 C 5.07 g/m*3 3.4 C 0 km/h
508 06-12-2003 04:05:00 3.4 C 5.13 g/m*3 3.4 C 0 km/h
509 06-12-2003 04:17:00 3.4 C 5.13 g/m*3 3.4 C 0 km/h
510 06-12-2003 04:29:00 3.4 C 5.13 g/m*3 3.4 C 0 km/h
511 06-12-2003 04:41:01 3.4 C 5.19 g/m*3 3.4 C 0 km/h
512 06-12-2003 04:53:01 3.4 C 5.13 g/m*3 3.4 C 0 km/h
513 06-12-2003 05:05:00 3.4 C 5.13 g/m*3 3.4 C 0 km/h
514 06-12-2003 05:17:00 3.5 C 5.1 g/m*3 3.5 C 0 km/h
515 06-12-2003 05:29:00 3.6 C 5.14 g/m*3 3.6 C 0 km/h
516 06-12-2003 05:41:00 3.5 C 5.1 g/m*3 3.5 C 0 km/h
517 06-12-2003 05:53:00 3.4 C 5.07 g/m*3 3.4 C 0 km/h
518 06-12-2003 06:06:01 3.4 C 5.13 g/m*3 3.4 C 0 km/h
519 06-12-2003 06:18:01 3.4 C 5.13 g/m*3 3.4 C 0 km/h
520 06-12-2003 06:30:01 3.4 C 5.19 g/m*3 3.4 C 0 km/h
521 06-12-2003 06:41:01 3.4 C 5.19 g/m*3 3.4 C 0 km/h
522 06-12-2003 06:53:01 3.4 C 5.25 g/m*3 3.4 C 0 km/h
523 06-12-2003 07:05:00 3.4 C 5.25 g/m*3 3.4 C 0 km/h
524 06-12-2003 07:17:00 3.5 C 5.35 g/m*3 3.5 C 0 km/h
525 06-12-2003 07:29:00 3.4 C 5.31 g/m*3 3.4 C 0 km/h
Sensor: Nr:Datum:Temp:Abs-Feuchte:Windchill:Wind:
Aussen-T/F 526 06-12-2003 07:41:00 3.4 C 5.31 g/m*3 3.4 C 0 km/h
527 06-12-2003 07:53:00 3.5 C 5.41 g/m*3 3.5 C 0 km/h
528 06-12-2003 08:06:01 3.5 C 5.41 g/m*3 3.5 C 0 km/h
529 06-12-2003 08:18:01 3.5 C 5.47 g/m*3 3.5 C 0 km/h
530 06-12-2003 08:30:01 3.6 C 5.51 g/m*3 3.6 C 0 km/h
531 06-12-2003 08:41:00 3.6 C 5.51 g/m*3 3.6 C 0 km/h
532 06-12-2003 08:53:01 3.6 C 5.51 g/m*3 3.6 C 0 km/h
533 06-12-2003 09:05:00 3.7 C 5.55 g/m*3 3.7 C 0 km/h
534 06-12-2003 09:17:00 3.7 C 5.55 g/m*3 3.7 C 0 km/h
535 06-12-2003 09:29:00 3.8 C 5.58 g/m*3 3.8 C 0 km/h
536 06-12-2003 09:41:00 3.9 C 5.68 g/m*3 3.9 C 0 km/h
537 06-12-2003 09:53:00 4.1 C 5.7 g/m*3 4.1 C 0 km/h
538 06-12-2003 10:06:00 4.2 C 5.73 g/m*3 4.2 C 0 km/h
539 06-12-2003 10:18:00 4.4 C 5.81 g/m*3 4.4 C 0 km/h
540 06-12-2003 10:30:01 4.5 C 5.92 g/m*3 4.5 C 0 km/h
541 06-12-2003 10:41:01 4.9 C 6.08 g/m*3 4.9 C 0 km/h
542 06-12-2003 10:53:01 5.1 C 6.09 g/m*3 5.1 C 0 km/h
543 06-12-2003 11:05:00 5.2 C 6.13 g/m*3 5.2 C 0 km/h
544 06-12-2003 11:17:00 5.4 C 6.14 g/m*3 5.4 C 0 km/h
545 06-12-2003 11:29:00 5.7 C 6.12 g/m*3 5.7 C 0 km/h
546 06-12-2003 11:41:00 5.9 C 5.84 g/m*3 5.9 C 0 km/h
547 06-12-2003 11:53:01 5.9 C 5.77 g/m*3 5.9 C 0 km/h
548 06-12-2003 12:05:00 6 C 5.66 g/m*3 6 C 0 km/h
549 06-12-2003 12:17:00 6 C 5.59 g/m*3 6 C 0 km/h
550 06-12-2003 12:29:00 6.3 C 5.48 g/m*3 6.3 C 0 km/h
Sensor: Nr:Datum:Temp:Abs-Feuchte:Windchill:Wind:
Aussen-T/F 551 06-12-2003 12:41:01 6.2 C 5.22 g/m*3 6.2 C 0 km/h
552 06-12-2003 12:53:01 6.1 C 5.19 g/m*3 6.1 C 0 km/h
553 06-12-2003 13:05:00 6.2 C 5 g/m*3 6.2 C 0 km/h
554 06-12-2003 13:06:00 6.2 C 5 g/m*3 6.2 C 0 km/h
555 06-12-2003 13:17:01 6.1 C 4.89 g/m*3 6.1 C 0 km/h
556 06-12-2003 13:29:01 6.1 C 4.82 g/m*3 6.1 C 0 km/h
557 06-12-2003 13:41:01 6.1 C 4.82 g/m*3 6.1 C 0 km/h
558 06-12-2003 13:53:01 6.1 C 4.82 g/m*3 6.1 C 0 km/h
559 06-12-2003 14:05:00 5.1 C 4.65 g/m*3 5.1 C 0 km/h
560 06-12-2003 14:17:01 5.4 C 4.88 g/m*3 5.4 C 0 km/h
561 06-12-2003 14:29:01 5.9 C 4.69 g/m*3 5.9 C 0 km/h
562 06-12-2003 14:41:00 6 C 4.57 g/m*3 6 C 0 km/h
563 06-12-2003 14:53:00 5.9 C 4.54 g/m*3 5.9 C 0 km/h
564 06-12-2003 15:06:01 5.7 C 4.41 g/m*3 5.7 C 0 km/h
565 06-12-2003 15:18:01 5.2 C 3.99 g/m*3 5.2 C 0 km/h
566 06-12-2003 15:30:01 5 C 3.87 g/m*3 5 C 0 km/h
567 06-12-2003 15:41:00 4.9 C 3.71 g/m*3 4.9 C 0 km/h
568 06-12-2003 15:53:00 4.7 C 3.46 g/m*3 4.7 C 0 km/h
569 06-12-2003 16:05:01 4.4 C 3 g/m*3 4.4 C 0 km/h
570 06-12-2003 16:17:01 4.1 C 3.01 g/m*3 4.1 C 0 km/h
571 06-12-2003 16:29:01 3.8 C 2.95 g/m*3 3.8 C 0 km/h
572 06-12-2003 16:41:00 3.4 C 2.99 g/m*3 3.4 C 0 km/h
573 06-12-2003 16:53:00 3.1 C 2.81 g/m*3 3.1 C 0 km/h
574 06-12-2003 17:06:01 2.7 C 2.68 g/m*3 2.7 C 0 km/h
575 06-12-2003 17:18:01 2.4 C 2.57 g/m*3 2.4 C 0 km/h
Sensor: Nr:Datum:Temp:Abs-Feuchte:Windchill:Wind:
Aussen-T/F 576 06-12-2003 17:30:01 2.2 C 2.48 g/m*3 2.2 C 0 km/h
577 06-12-2003 17:41:01 2 C 2.5 g/m*3 2 C 0 km/h
578 06-12-2003 17:53:01 1.8 C 2.52 g/m*3 1.8 C 0 km/h
579 06-12-2003 18:05:00 1.6 C 2.54 g/m*3 1.6 C 0 km/h
580 06-12-2003 18:17:00 1.2 C 2.63 g/m*3 1.2 C 0 km/h
581 06-12-2003 18:29:00 1.1 C 2.61 g/m*3 1.1 C 0 km/h
582 06-12-2003 18:41:01 1 C 2.6 g/m*3 1 C 0 km/h
583 06-12-2003 18:53:01 0.8 C 2.61 g/m*3 0.8 C 0 km/h
584 06-12-2003 19:05:00 0.5 C 2.61 g/m*3 0.5 C 0 km/h
585 06-12-2003 19:17:00 0.3 C 2.67 g/m*3 0.3 C 0 km/h
586 06-12-2003 19:29:00 0.2 C 2.8 g/m*3 0.2 C 0 km/h
587 06-12-2003 19:41:00 0.2 C 2.7 g/m*3 0.2 C 0 km/h
588 06-12-2003 19:53:00 0.2 C 2.65 g/m*3 0.2 C 0 km/h
589 06-12-2003 20:06:01 0 C 2.66 g/m*3 0 C 0 km/h
590 06-12-2003 20:18:01 -0.3 C 2.71 g/m*3 -0.3 C 0 km/h
591 06-12-2003 20:30:01 -0.3 C 2.71 g/m*3 -0.3 C 0 km/h
592 06-12-2003 20:41:21 -0.7 C 2.77 g/m*3 -0.7 C 0 km/h
593 06-12-2003 20:53:21 -1 C 2.71 g/m*3 -1 C 0 km/h
594 06-12-2003 21:05:00 -1.1 C 2.78 g/m*3 -1.1 C 0 km/h
595 06-12-2003 21:17:00 -1.2 C 2.72 g/m*3 -1.2 C 0 km/h
596 06-12-2003 21:29:00 -1.4 C 2.73 g/m*3 -1.4 C 0 km/h
597 06-12-2003 21:41:00 -1.4 C 2.73 g/m*3 -1.4 C 0 km/h
598 06-12-2003 21:53:00 -1.6 C 2.77 g/m*3 -1.6 C 0 km/h
599 06-12-2003 22:05:00 -1.8 C 2.74 g/m*3 -1.8 C 0 km/h
600 06-12-2003 22:17:00 -2 C 2.74 g/m*3 -2 C 0 km/h
Sensor: Nr:Datum:Temp:Abs-Feuchte:Windchill:Wind:
Aussen-T/F 601 06-12-2003 22:29:00 -2.1 C 2.72 g/m*3 -2.1 C 0 km/h
602 06-12-2003 22:41:01 -2.2 C 2.74 g/m*3 -2.2 C 0 km/h
603 06-12-2003 22:53:01 -2.2 C 2.74 g/m*3 -2.2 C 0 km/h
604 06-12-2003 23:05:00 -1.9 C 2.84 g/m*3 -1.9 C 0 km/h
605 06-12-2003 23:17:00 -1.7 C 2.88 g/m*3 -1.7 C 0 km/h
606 06-12-2003 23:29:00 -1.4 C 2.9 g/m*3 -1.4 C 0 km/h
607 06-12-2003 23:41:00 -1.3 C 2.83 g/m*3 -1.3 C 0 km/h
608 06-12-2003 23:53:00 -1.3 C 2.83 g/m*3 -1.3 C 0 km/h
609 07-12-2003 00:06:01 -1.4 C 2.81 g/m*3 -1.4 C 0 km/h
610 07-12-2003 00:17:01 -1.4 C 2.81 g/m*3 -1.4 C 0 km/h
611 07-12-2003 00:18:01 -1.4 C 2.81 g/m*3 -1.4 C 0 km/h
612 07-12-2003 00:29:01 -1.5 C 2.75 g/m*3 -1.5 C 0 km/h
613 07-12-2003 00:41:01 -1.8 C 2.69 g/m*3 -1.8 C 0 km/h
614 07-12-2003 00:53:01 -1.8 C 2.69 g/m*3 -1.8 C 0 km/h
615 07-12-2003 01:05:00 -2 C 2.7 g/m*3 -2 C 0 km/h
616 07-12-2003 01:17:00 -2.1 C 2.72 g/m*3 -2.1 C 0 km/h
617 07-12-2003 01:29:00 -2.2 C 2.7 g/m*3 -2.2 C 0 km/h
618 07-12-2003 01:41:00 -2.2 C 2.66 g/m*3 -2.2 C 0 km/h
619 07-12-2003 01:53:00 -2.3 C 2.68 g/m*3 -2.3 C 0 km/h
620 07-12-2003 02:06:01 -2.4 C 2.75 g/m*3 -2.4 C 0 km/h
621 07-12-2003 02:18:01 -2.4 C 2.75 g/m*3 -2.4 C 0 km/h
622 07-12-2003 02:30:01 -2.4 C 2.75 g/m*3 -2.4 C 0 km/h
623 07-12-2003 02:41:01 -2.4 C 2.75 g/m*3 -2.4 C 0 km/h
624 07-12-2003 02:53:01 -2.5 C 2.77 g/m*3 -2.5 C 0 km/h
625 07-12-2003 03:05:00 -2.6 C 2.75 g/m*3 -2.6 C 0 km/h
Sensor: Nr:Datum:Temp:Abs-Feuchte:Windchill:Wind:
Aussen-T/F 626 07-12-2003 03:17:00 -2.8 C 2.71 g/m*3 -2.8 C 0 km/h
627 07-12-2003 03:29:00 -3 C 2.71 g/m*3 -3 C 0 km/h
628 07-12-2003 03:41:01 -3 C 2.71 g/m*3 -3 C 0 km/h
629 07-12-2003 03:53:01 -3.1 C 2.73 g/m*3 -3.1 C 0 km/h
630 07-12-2003 04:05:00 -3.2 C 2.71 g/m*3 -3.2 C 0 km/h
631 07-12-2003 04:17:00 -3.2 C 2.75 g/m*3 -3.2 C 0 km/h
632 07-12-2003 04:29:00 -3.3 C 2.73 g/m*3 -3.3 C 0 km/h
633 07-12-2003 04:41:00 -3.2 C 2.75 g/m*3 -3.2 C 0 km/h
634 07-12-2003 04:53:00 -3.4 C 2.75 g/m*3 -3.4 C 0 km/h
635 07-12-2003 05:06:00 -3.4 C 2.75 g/m*3 -3.4 C 0 km/h
636 07-12-2003 05:18:00 -3.7 C 2.69 g/m*3 -3.7 C 0 km/h
637 07-12-2003 05:30:01 -3.9 C 2.65 g/m*3 -3.9 C 0 km/h
638 07-12-2003 05:41:01 -4 C 2.67 g/m*3 -4 C 0 km/h
639 07-12-2003 05:53:01 -4.2 C 2.67 g/m*3 -4.2 C 0 km/h
640 07-12-2003 06:05:00 -3.9 C 2.8 g/m*3 -3.9 C 0 km/h
641 07-12-2003 06:17:00 -3.9 C 2.84 g/m*3 -3.9 C 0 km/h
642 07-12-2003 06:29:00 -4.2 C 2.78 g/m*3 -4.2 C 0 km/h
643 07-12-2003 06:41:01 -4.4 C 2.74 g/m*3 -4.4 C 0 km/h
644 07-12-2003 06:53:00 -4.4 C 2.74 g/m*3 -4.4 C 0 km/h
645 07-12-2003 06:53:01 -4.4 C 2.74 g/m*3 -4.4 C 0 km/h
646 07-12-2003 07:05:00 -4.5 C 2.75 g/m*3 -4.5 C 0 km/h
647 07-12-2003 07:17:00 -4.6 C 2.73 g/m*3 -4.6 C 0 km/h
648 07-12-2003 07:29:00 -4.5 C 2.79 g/m*3 -4.5 C 0 km/h
649 07-12-2003 07:41:00 -4.4 C 2.84 g/m*3 -4.4 C 0 km/h
650 07-12-2003 07:53:00 -3.9 C 2.98 g/m*3 -3.9 C 0 km/h
Sensor: Nr:Datum:Temp:Abs-Feuchte:Windchill:Wind:
Aussen-T/F 651 07-12-2003 08:06:00 -3.8 C 3.01 g/m*3 -3.8 C 0 km/h
652 07-12-2003 08:18:01 -3.7 C 3.03 g/m*3 -3.7 C 0 km/h
653 07-12-2003 08:30:01 -3.7 C 3.03 g/m*3 -3.7 C 0 km/h
654 07-12-2003 08:41:01 -3.6 C 3.05 g/m*3 -3.6 C 0 km/h
655 07-12-2003 08:53:01 -3.6 C 3.05 g/m*3 -3.6 C 0 km/h
656 07-12-2003 09:05:00 -3.5 C 3.07 g/m*3 -3.5 C 0 km/h
657 07-12-2003 09:17:00 -3.6 C 3.01 g/m*3 -3.6 C 0 km/h
658 07-12-2003 09:29:00 -3.6 C 3.05 g/m*3 -3.6 C 0 km/h
659 07-12-2003 09:41:00 -3.5 C 3.07 g/m*3 -3.5 C 0 km/h
660 07-12-2003 09:53:00 -3.6 C 3.05 g/m*3 -3.6 C 0 km/h
661 07-12-2003 10:06:00 -3.3 C 3.11 g/m*3 -3.3 C 0 km/h
662 07-12-2003 10:18:01 -3 C 3.22 g/m*3 -3 C 0 km/h
663 07-12-2003 10:30:01 -2.8 C 3.23 g/m*3 -2.8 C 0 km/h
664 07-12-2003 10:41:01 -2.6 C 3.27 g/m*3 -2.6 C 0 km/h
665 07-12-2003 10:53:01 -2.4 C 3.24 g/m*3 -2.4 C 0 km/h
666 07-12-2003 11:05:00 -2.2 C 3.24 g/m*3 -2.2 C 0 km/h
667 07-12-2003 11:17:00 -2.2 C 3.24 g/m*3 -2.2 C 0 km/h
668 07-12-2003 11:29:00 -2.2 C 3.24 g/m*3 -2.2 C 0 km/h
669 07-12-2003 11:41:01 -1.7 C 3.23 g/m*3 -1.7 C 0 km/h
670 07-12-2003 11:53:01 -1.7 C 3.19 g/m*3 -1.7 C 0 km/h
671 07-12-2003 12:06:00 -1.6 C 3.21 g/m*3 -1.6 C 0 km/h
672 07-12-2003 12:18:01 -1.4 C 3.21 g/m*3 -1.4 C 0 km/h
673 07-12-2003 12:30:01 -1.2 C 3.21 g/m*3 -1.2 C 0 km/h
674 07-12-2003 12:41:00 -0.9 C 3.28 g/m*3 -0.9 C 0 km/h
675 07-12-2003 12:53:00 -0.9 C 3.28 g/m*3 -0.9 C 0 km/h
Sensor: Nr:Datum:Temp:Abs-Feuchte:Windchill:Wind:
Aussen-T/F 676 07-12-2003 13:05:36 -0.1 C 3.18 g/m*3 -0.1 C 0 km/h
677 07-12-2003 13:17:36 -0.3 C 3.18 g/m*3 -0.3 C 0 km/h
678 07-12-2003 13:29:36 -0.3 C 3.23 g/m*3 -0.3 C 0 km/h
679 07-12-2003 13:41:00 -0.3 C 3.23 g/m*3 -0.3 C 0 km/h
680 07-12-2003 13:53:00 0.1 C 3.22 g/m*3 0.1 C 0 km/h
681 07-12-2003 14:06:00 0.1 C 3.17 g/m*3 0.1 C 0 km/h
682 07-12-2003 14:18:00 0.1 C 3.17 g/m*3 0.1 C 0 km/h
683 07-12-2003 14:30:01 0.1 C 3.17 g/m*3 0.1 C 0 km/h
684 07-12-2003 14:41:00 0.1 C 3.17 g/m*3 0.1 C 0 km/h
685 07-12-2003 14:53:01 0.2 C 3.09 g/m*3 0.2 C 0 km/h
686 07-12-2003 15:05:00 0.4 C 2.99 g/m*3 0.4 C 0 km/h
687 07-12-2003 15:17:00 0.4 C 2.99 g/m*3 0.4 C 0 km/h
688 07-12-2003 15:29:00 0.7 C 2.85 g/m*3 0.7 C 0 km/h
689 07-12-2003 15:41:00 0.1 C 2.93 g/m*3 0.1 C 0 km/h
690 07-12-2003 15:53:00 -0.2 C 2.91 g/m*3 -0.2 C 0 km/h
691 07-12-2003 16:05:38 -0.5 C 2.95 g/m*3 -0.5 C 0 km/h
692 07-12-2003 16:17:38 -0.7 C 2.95 g/m*3 -0.7 C 0 km/h
693 07-12-2003 16:30:00 -0.9 C 2.96 g/m*3 -0.9 C 0 km/h
694 07-12-2003 16:41:00 -0.9 C 2.96 g/m*3 -0.9 C 0 km/h
695 07-12-2003 16:53:00 -0.9 C 2.96 g/m*3 -0.9 C 0 km/h
696 07-12-2003 17:05:00 -1.1 C 2.92 g/m*3 -1.1 C 0 km/h
697 07-12-2003 17:17:00 -1.3 C 2.92 g/m*3 -1.3 C 0 km/h
698 07-12-2003 17:29:00 -1.5 C 2.92 g/m*3 -1.5 C 0 km/h
699 07-12-2003 17:41:00 -1.7 C 2.93 g/m*3 -1.7 C 0 km/h
700 07-12-2003 17:53:00 -1.8 C 2.95 g/m*3 -1.8 C 0 km/h
Sensor: Nr:Datum:Temp:Abs-Feuchte:Windchill:Wind:
Aussen-T/F 701 07-12-2003 18:06:01 -2 C 2.95 g/m*3 -2 C 0 km/h
702 07-12-2003 18:18:01 -2 C 2.91 g/m*3 -2 C 0 km/h
703 07-12-2003 18:30:01 -2 C 2.95 g/m*3 -2 C 0 km/h
704 07-12-2003 18:41:01 -2.1 C 2.93 g/m*3 -2.1 C 0 km/h
705 07-12-2003 18:53:01 -1.9 C 2.93 g/m*3 -1.9 C 0 km/h
706 07-12-2003 19:05:00 -2.1 C 2.89 g/m*3 -2.1 C 0 km/h
707 07-12-2003 19:17:00 -2.1 C 2.93 g/m*3 -2.1 C 0 km/h
708 07-12-2003 19:29:00 -2.2 C 2.87 g/m*3 -2.2 C 0 km/h
709 07-12-2003 19:41:01 -2.5 C 2.85 g/m*3 -2.5 C 0 km/h
710 07-12-2003 19:53:01 -2.4 C 2.87 g/m*3 -2.4 C 0 km/h
711 07-12-2003 20:05:00 -2.6 C 2.83 g/m*3 -2.6 C 0 km/h
712 07-12-2003 20:17:00 -2.6 C 2.87 g/m*3 -2.6 C 0 km/h
713 07-12-2003 20:29:00 -2.5 C 2.85 g/m*3 -2.5 C 0 km/h
714 07-12-2003 20:41:01 -2.6 C 2.83 g/m*3 -2.6 C 0 km/h
715 07-12-2003 20:53:01 -2.8 C 2.79 g/m*3 -2.8 C 0 km/h
716 07-12-2003 21:05:01 -2.8 C 2.83 g/m*3 -2.8 C 0 km/h
717 07-12-2003 21:17:01 -3 C 2.79 g/m*3 -3 C 0 km/h
718 07-12-2003 21:29:01 -3 C 2.79 g/m*3 -3 C 0 km/h
719 07-12-2003 21:41:01 -3.1 C 2.81 g/m*3 -3.1 C 0 km/h
720 07-12-2003 21:53:01 -3.1 C 2.81 g/m*3 -3.1 C 0 km/h
721 07-12-2003 22:05:00 -3.1 C 2.81 g/m*3 -3.1 C 0 km/h
722 07-12-2003 22:17:00 -3.1 C 2.77 g/m*3 -3.1 C 0 km/h
723 07-12-2003 22:29:00 -3.5 C 2.69 g/m*3 -3.5 C 0 km/h
724 07-12-2003 22:41:00 -3.7 C 2.73 g/m*3 -3.7 C 0 km/h
725 07-12-2003 22:53:00 -3.9 C 2.73 g/m*3 -3.9 C 0 km/h
Sensor: Nr:Datum:Temp:Abs-Feuchte:Windchill:Wind:
Aussen-T/F 726 07-12-2003 23:06:00 -3.9 C 2.76 g/m*3 -3.9 C 0 km/h
727 07-12-2003 23:18:01 -4.1 C 2.72 g/m*3 -4.1 C 0 km/h
728 07-12-2003 23:30:01 -4.2 C 2.7 g/m*3 -4.2 C 0 km/h
729 07-12-2003 23:41:01 -4.3 C 2.72 g/m*3 -4.3 C 0 km/h
730 07-12-2003 23:53:01 -4.4 C 2.7 g/m*3 -4.4 C 0 km/h
731 08-12-2003 00:05:00 -4.4 C 2.7 g/m*3 -4.4 C 0 km/h
732 08-12-2003 00:17:00 -4.5 C 2.68 g/m*3 -4.5 C 0 km/h
733 08-12-2003 00:29:00 -4.6 C 2.7 g/m*3 -4.6 C 0 km/h
734 08-12-2003 00:41:00 -4.5 C 2.72 g/m*3 -4.5 C 0 km/h
735 08-12-2003 00:53:00 -4.6 C 2.7 g/m*3 -4.6 C 0 km/h
736 08-12-2003 01:06:00 -4.5 C 2.72 g/m*3 -4.5 C 0 km/h
737 08-12-2003 01:18:01 -4.7 C 2.71 g/m*3 -4.7 C 0 km/h
738 08-12-2003 01:30:01 -4.7 C 2.71 g/m*3 -4.7 C 0 km/h
739 08-12-2003 01:41:01 -4.9 C 2.68 g/m*3 -4.9 C 0 km/h
740 08-12-2003 01:53:01 -5 C 2.66 g/m*3 -5 C 0 km/h
741 08-12-2003 02:05:00 -5 C 2.66 g/m*3 -5 C 0 km/h
742 08-12-2003 02:17:00 -4.9 C 2.71 g/m*3 -4.9 C 0 km/h
743 08-12-2003 02:29:00 -4.9 C 2.71 g/m*3 -4.9 C 0 km/h
744 08-12-2003 02:41:00 -4.9 C 2.71 g/m*3 -4.9 C 0 km/h
745 08-12-2003 02:53:00 -4.8 C 2.73 g/m*3 -4.8 C 0 km/h
746 08-12-2003 03:06:01 -4.9 C 2.71 g/m*3 -4.9 C 0 km/h
747 08-12-2003 03:18:01 -5.1 C 2.67 g/m*3 -5.1 C 0 km/h
748 08-12-2003 03:30:01 -4.9 C 2.71 g/m*3 -4.9 C 0 km/h
749 08-12-2003 03:41:01 -4.9 C 2.71 g/m*3 -4.9 C 0 km/h
750 08-12-2003 03:53:01 -5.3 C 2.63 g/m*3 -5.3 C 0 km/h
Sensor: Nr:Datum:Temp:Abs-Feuchte:Windchill:Wind:
Aussen-T/F 751 08-12-2003 04:05:00 -5.2 C 2.68 g/m*3 -5.2 C 0 km/h
752 08-12-2003 04:17:00 -5.6 C 2.61 g/m*3 -5.6 C 0 km/h
753 08-12-2003 04:29:00 -5.6 C 2.61 g/m*3 -5.6 C 0 km/h
754 08-12-2003 04:41:01 -5.9 C 2.55 g/m*3 -5.9 C 0 km/h
755 08-12-2003 04:53:01 -5.7 C 2.59 g/m*3 -5.7 C 0 km/h
756 08-12-2003 05:05:00 -5.6 C 2.64 g/m*3 -5.6 C 0 km/h
757 08-12-2003 05:17:00 -5.7 C 2.62 g/m*3 -5.7 C 0 km/h
758 08-12-2003 05:29:00 -5.7 C 2.62 g/m*3 -5.7 C 0 km/h
759 08-12-2003 05:41:00 -5.7 C 2.62 g/m*3 -5.7 C 0 km/h
760 08-12-2003 05:53:00 -5.7 C 2.65 g/m*3 -5.7 C 0 km/h
761 08-12-2003 06:06:01 -6.1 C 2.55 g/m*3 -6.1 C 0 km/h
762 08-12-2003 06:18:01 -6.2 C 2.53 g/m*3 -6.2 C 0 km/h
763 08-12-2003 06:30:01 -6.1 C 2.55 g/m*3 -6.1 C 0 km/h
764 08-12-2003 06:41:01 -6 C 2.6 g/m*3 -6 C 0 km/h
765 08-12-2003 06:53:01 -6.2 C 2.56 g/m*3 -6.2 C 0 km/h
766 08-12-2003 07:05:00 -5.9 C 2.62 g/m*3 -5.9 C 0 km/h
767 08-12-2003 07:17:00 -6 C 2.6 g/m*3 -6 C 0 km/h
768 08-12-2003 07:29:00 -6.3 C 2.54 g/m*3 -6.3 C 0 km/h
769 08-12-2003 07:41:00 -6.2 C 2.56 g/m*3 -6.2 C 0 km/h
770 08-12-2003 07:53:01 -6.2 C 2.56 g/m*3 -6.2 C 0 km/h
771 08-12-2003 08:05:00 -6.2 C 2.56 g/m*3 -6.2 C 0 km/h
772 08-12-2003 08:17:00 -6.4 C 2.52 g/m*3 -6.4 C 0 km/h
773 08-12-2003 08:29:00 -6.4 C 2.52 g/m*3 -6.4 C 0 km/h
774 08-12-2003 08:41:00 -6.5 C 2.5 g/m*3 -6.5 C 0 km/h
775 08-12-2003 08:53:00 -6.4 C 2.49 g/m*3 -6.4 C 0 km/h
Sensor: Nr:Datum:Temp:Abs-Feuchte:Windchill:Wind:
Aussen-T/F 776 08-12-2003 09:06:00 -6.4 C 2.52 g/m*3 -6.4 C 0 km/h
777 08-12-2003 09:18:00 -6.5 C 2.5 g/m*3 -6.5 C 0 km/h
778 08-12-2003 09:30:01 -6.4 C 2.52 g/m*3 -6.4 C 0 km/h
779 08-12-2003 09:41:00 -6.3 C 2.54 g/m*3 -6.3 C 0 km/h
780 08-12-2003 09:53:00 -6 C 2.63 g/m*3 -6 C 0 km/h
781 08-12-2003 10:05:00 -6.1 C 2.58 g/m*3 -6.1 C 0 km/h
782 08-12-2003 10:17:00 -5.7 C 2.69 g/m*3 -5.7 C 0 km/h
783 08-12-2003 10:29:00 -5.3 C 2.77 g/m*3 -5.3 C 0 km/h
784 08-12-2003 10:41:00 -5.3 C 2.77 g/m*3 -5.3 C 0 km/h
785 08-12-2003 10:53:01 -4.9 C 2.88 g/m*3 -4.9 C 0 km/h
786 08-12-2003 11:05:00 -4.8 C 2.9 g/m*3 -4.8 C 0 km/h
787 08-12-2003 11:17:00 -4.8 C 2.9 g/m*3 -4.8 C 0 km/h
788 08-12-2003 11:29:00 -4.5 C 2.96 g/m*3 -4.5 C 0 km/h
789 08-12-2003 11:41:00 -4.2 C 3.03 g/m*3 -4.2 C 0 km/h
790 08-12-2003 11:53:00 -4 C 3.07 g/m*3 -4 C 0 km/h
791 08-12-2003 12:06:01 -3.9 C 3.06 g/m*3 -3.9 C 0 km/h
792 08-12-2003 12:18:01 -3.6 C 3.12 g/m*3 -3.6 C 0 km/h
793 08-12-2003 12:30:01 -3.3 C 3.19 g/m*3 -3.3 C 0 km/h
794 08-12-2003 12:41:00 -2.8 C 3.31 g/m*3 -2.8 C 0 km/h
795 08-12-2003 12:53:01 -2.6 C 3.31 g/m*3 -2.6 C 0 km/h
796 08-12-2003 13:05:00 -2.6 C 3.23 g/m*3 -2.6 C 0 km/h
797 08-12-2003 13:17:00 -2.7 C 3.17 g/m*3 -2.7 C 0 km/h
798 08-12-2003 13:29:00 -2.5 C 3.21 g/m*3 -2.5 C 0 km/h
799 08-12-2003 13:41:00 -2.5 C 3.21 g/m*3 -2.5 C 0 km/h
800 08-12-2003 13:53:00 -2.4 C 3.24 g/m*3 -2.4 C 0 km/h
Sensor: Nr:Datum:Temp:Abs-Feuchte:Windchill:Wind:
Aussen-T/F 801 08-12-2003 14:06:00 -2.4 C 3.2 g/m*3 -2.4 C 0 km/h
802 08-12-2003 14:18:00 -1.5 C 3.27 g/m*3 -1.5 C 0 km/h
803 08-12-2003 14:30:01 -1.3 C 3.23 g/m*3 -1.3 C 0 km/h
804 08-12-2003 14:41:01 -1.3 C 3.19 g/m*3 -1.3 C 0 km/h
805 08-12-2003 14:53:01 -1.3 C 3.19 g/m*3 -1.3 C 0 km/h
806 08-12-2003 15:05:00 -1.3 C 3.19 g/m*3 -1.3 C 0 km/h
807 08-12-2003 15:17:00 -1.5 C 3.14 g/m*3 -1.5 C 0 km/h
808 08-12-2003 15:29:00 -1.6 C 3.21 g/m*3 -1.6 C 0 km/h
809 08-12-2003 15:41:00 -1.7 C 3.23 g/m*3 -1.7 C 0 km/h
810 08-12-2003 15:53:00 -1.8 C 3.25 g/m*3 -1.8 C 0 km/h
811 08-12-2003 16:06:01 -1.7 C 3.27 g/m*3 -1.7 C 0 km/h
812 08-12-2003 16:18:01 -1.8 C 3.25 g/m*3 -1.8 C 0 km/h
813 08-12-2003 16:30:01 -2 C 3.2 g/m*3 -2 C 0 km/h
814 08-12-2003 16:41:01 -2 C 3.16 g/m*3 -2 C 0 km/h
815 08-12-2003 16:53:01 -2.2 C 3.08 g/m*3 -2.2 C 0 km/h
816 08-12-2003 17:05:01 -2.2 C 3.08 g/m*3 -2.2 C 0 km/h
817 08-12-2003 17:17:01 -2.3 C 3.05 g/m*3 -2.3 C 0 km/h
818 08-12-2003 17:29:01 -2.6 C 2.99 g/m*3 -2.6 C 0 km/h
819 08-12-2003 17:41:00 -2.6 C 2.99 g/m*3 -2.6 C 0 km/h
820 08-12-2003 17:53:00 -2.6 C 2.99 g/m*3 -2.6 C 0 km/h
821 08-12-2003 18:05:01 -2.6 C 2.99 g/m*3 -2.6 C 0 km/h
822 08-12-2003 18:17:01 -2.6 C 2.99 g/m*3 -2.6 C 0 km/h
823 08-12-2003 18:29:01 -2.6 C 2.99 g/m*3 -2.6 C 0 km/h
824 08-12-2003 18:41:00 -2.6 C 2.99 g/m*3 -2.6 C 0 km/h
825 08-12-2003 18:53:00 -2.6 C 2.99 g/m*3 -2.6 C 0 km/h
Sensor: Nr:Datum:Temp:Abs-Feuchte:Windchill:Wind:
Aussen-T/F 826 08-12-2003 19:06:01 -2.6 C 2.99 g/m*3 -2.6 C 0 km/h
827 08-12-2003 19:18:01 -2.6 C 2.99 g/m*3 -2.6 C 0 km/h
828 08-12-2003 19:30:01 -2.6 C 2.99 g/m*3 -2.6 C 0 km/h
829 08-12-2003 19:41:01 -3.8 C 2.89 g/m*3 -3.8 C 0 km/h
830 08-12-2003 19:53:01 -3.8 C 2.89 g/m*3 -3.8 C 0 km/h
831 08-12-2003 20:05:00 -3.8 C 2.89 g/m*3 -3.8 C 0 km/h
832 08-12-2003 20:17:01 -3.8 C 2.89 g/m*3 -3.8 C 0 km/h
833 08-12-2003 20:29:01 -3.8 C 2.89 g/m*3 -3.8 C 0 km/h
834 08-12-2003 20:41:00 -3.8 C 2.89 g/m*3 -3.8 C 0 km/h
835 08-12-2003 20:53:00 -3.8 C 2.89 g/m*3 -3.8 C 0 km/h
836 08-12-2003 21:06:00 -3.8 C 2.89 g/m*3 -3.8 C 0 km/h
837 08-12-2003 21:18:01 -3.8 C 2.89 g/m*3 -3.8 C 0 km/h
838 08-12-2003 21:30:01 -3.8 C 2.89 g/m*3 -3.8 C 0 km/h
839 08-12-2003 21:41:01 -3.8 C 2.89 g/m*3 -3.8 C 0 km/h
840 08-12-2003 21:53:01 -4.5 C 2.75 g/m*3 -4.5 C 0 km/h
841 08-12-2003 22:05:00 -4.8 C 2.69 g/m*3 -4.8 C 0 km/h
842 08-12-2003 22:17:00 -5.2 C 2.62 g/m*3 -5.2 C 0 km/h
843 08-12-2003 22:29:00 -5.4 C 2.58 g/m*3 -5.4 C 0 km/h
844 08-12-2003 22:41:01 -5.4 C 2.58 g/m*3 -5.4 C 0 km/h
845 08-12-2003 22:53:01 -5.4 C 2.58 g/m*3 -5.4 C 0 km/h
846 08-12-2003 23:05:00 -5.4 C 2.58 g/m*3 -5.4 C 0 km/h
847 08-12-2003 23:17:00 -5.4 C 2.58 g/m*3 -5.4 C 0 km/h
848 08-12-2003 23:29:00 -5.4 C 2.58 g/m*3 -5.4 C 0 km/h
849 08-12-2003 23:41:01 -5.4 C 2.58 g/m*3 -5.4 C 0 km/h
850 08-12-2003 23:53:01 -5.4 C 2.58 g/m*3 -5.4 C 0 km/h
Sensor: Nr:Datum:Temp:Abs-Feuchte:Windchill:Wind:
Aussen-T/F 851 09-12-2003 00:05:01 -5.4 C 2.58 g/m*3 -5.4 C 0 km/h
852 09-12-2003 00:17:01 -5.4 C 2.58 g/m*3 -5.4 C 0 km/h
853 09-12-2003 00:29:01 -5.4 C 2.58 g/m*3 -5.4 C 0 km/h
854 09-12-2003 00:41:00 -5.4 C 2.58 g/m*3 -5.4 C 0 km/h
855 09-12-2003 00:53:01 -5.4 C 2.58 g/m*3 -5.4 C 0 km/h
856 09-12-2003 01:05:00 -5.4 C 2.58 g/m*3 -5.4 C 0 km/h
857 09-12-2003 01:17:00 -5.4 C 2.58 g/m*3 -5.4 C 0 km/h
858 09-12-2003 01:29:00 -5.4 C 2.58 g/m*3 -5.4 C 0 km/h
859 09-12-2003 01:41:01 -5.4 C 2.58 g/m*3 -5.4 C 0 km/h
860 09-12-2003 01:53:01 -5.4 C 2.58 g/m*3 -5.4 C 0 km/h
861 09-12-2003 02:05:00 -5.4 C 2.58 g/m*3 -5.4 C 0 km/h
862 09-12-2003 02:17:00 -5.4 C 2.58 g/m*3 -5.4 C 0 km/h
863 09-12-2003 02:29:00 -5.4 C 2.58 g/m*3 -5.4 C 0 km/h
864 09-12-2003 02:41:00 -5.4 C 2.58 g/m*3 -5.4 C 0 km/h
865 09-12-2003 02:53:00 -5.4 C 2.58 g/m*3 -5.4 C 0 km/h
866 09-12-2003 03:06:01 -5.4 C 2.58 g/m*3 -5.4 C 0 km/h
867 09-12-2003 03:18:01 -5.4 C 2.58 g/m*3 -5.4 C 0 km/h
868 09-12-2003 03:30:01 -5.4 C 2.58 g/m*3 -5.4 C 0 km/h
869 09-12-2003 03:41:01 -5.4 C 2.58 g/m*3 -5.4 C 0 km/h
870 09-12-2003 03:53:01 -6.6 C 2.52 g/m*3 -6.6 C 0 km/h
871 09-12-2003 04:05:00 -6.7 C 2.5 g/m*3 -6.7 C 0 km/h
872 09-12-2003 04:17:00 -6.7 C 2.5 g/m*3 -6.7 C 0 km/h
873 09-12-2003 04:29:00 -6.7 C 2.5 g/m*3 -6.7 C 0 km/h
874 09-12-2003 04:41:01 -7 C 2.44 g/m*3 -7 C 0 km/h
875 09-12-2003 04:53:01 -7 C 2.44 g/m*3 -7 C 0 km/h
Sensor: Nr:Datum:Temp:Abs-Feuchte:Windchill:Wind:
Aussen-T/F 876 09-12-2003 05:05:00 -7 C 2.44 g/m*3 -7 C 0 km/h
877 09-12-2003 05:17:00 -7 C 2.44 g/m*3 -7 C 0 km/h
878 09-12-2003 05:29:00 -7 C 2.44 g/m*3 -7 C 0 km/h
879 09-12-2003 05:41:00 -7 C 2.44 g/m*3 -7 C 0 km/h
880 09-12-2003 05:53:00 -7 C 2.44 g/m*3 -7 C 0 km/h
881 09-12-2003 06:06:01 -7 C 2.44 g/m*3 -7 C 0 km/h
882 09-12-2003 06:18:01 -7 C 2.44 g/m*3 -7 C 0 km/h
883 09-12-2003 06:30:01 -7 C 2.44 g/m*3 -7 C 0 km/h
884 09-12-2003 06:41:00 -7 C 2.44 g/m*3 -7 C 0 km/h
885 09-12-2003 06:53:01 -7 C 2.44 g/m*3 -7 C 0 km/h
886 09-12-2003 07:05:00 -7 C 2.44 g/m*3 -7 C 0 km/h
887 09-12-2003 07:17:00 -7 C 2.44 g/m*3 -7 C 0 km/h
888 09-12-2003 07:29:00 -7 C 2.44 g/m*3 -7 C 0 km/h
889 09-12-2003 07:41:01 -7 C 2.44 g/m*3 -7 C 0 km/h
890 09-12-2003 07:53:01 -7 C 2.44 g/m*3 -7 C 0 km/h
891 09-12-2003 08:05:00 -7 C 2.44 g/m*3 -7 C 0 km/h
892 09-12-2003 08:17:00 -7.5 C 2.33 g/m*3 -7.5 C 0 km/h
893 09-12-2003 08:29:00 -7.5 C 2.33 g/m*3 -7.5 C 0 km/h
894 09-12-2003 08:41:00 -7.5 C 2.33 g/m*3 -7.5 C 0 km/h
895 09-12-2003 08:53:00 -7.3 C 2.36 g/m*3 -7.3 C 0 km/h
896 09-12-2003 09:06:00 -7.2 C 2.38 g/m*3 -7.2 C 0 km/h
897 09-12-2003 09:18:01 -7.2 C 2.38 g/m*3 -7.2 C 0 km/h
898 09-12-2003 09:30:01 -7.2 C 2.38 g/m*3 -7.2 C 0 km/h
899 09-12-2003 09:41:01 -6.9 C 2.46 g/m*3 -6.9 C 0 km/h
900 09-12-2003 09:53:01 -6.9 C 2.46 g/m*3 -6.9 C 0 km/h
Sensor: Nr:Datum:Temp:Abs-Feuchte:Windchill:Wind:
Aussen-T/F 901 09-12-2003 10:05:00 -6.8 C 2.48 g/m*3 -6.8 C 0 km/h
902 09-12-2003 10:17:00 -6.6 C 2.52 g/m*3 -6.6 C 0 km/h
903 09-12-2003 10:29:00 -6.3 C 2.57 g/m*3 -6.3 C 0 km/h
904 09-12-2003 10:41:00 -6.2 C 2.59 g/m*3 -6.2 C 0 km/h
905 09-12-2003 10:53:00 -5.8 C 2.67 g/m*3 -5.8 C 0 km/h
906 09-12-2003 11:06:01 -5.7 C 2.69 g/m*3 -5.7 C 0 km/h
907 09-12-2003 11:18:01 -5.4 C 2.75 g/m*3 -5.4 C 0 km/h
908 09-12-2003 11:30:01 -5.2 C 2.79 g/m*3 -5.2 C 0 km/h
909 09-12-2003 11:41:00 -5.2 C 2.79 g/m*3 -5.2 C 0 km/h
910 09-12-2003 11:53:01 -5.2 C 2.79 g/m*3 -5.2 C 0 km/h
911 09-12-2003 12:05:00 -4.1 C 2.98 g/m*3 -4.1 C 0 km/h
912 09-12-2003 12:17:00 -3.8 C 3.04 g/m*3 -3.8 C 0 km/h
913 09-12-2003 12:29:00 -3.6 C 3.05 g/m*3 -3.6 C 0 km/h
914 09-12-2003 12:41:00 -3.3 C 3.11 g/m*3 -3.3 C 0 km/h
915 09-12-2003 12:53:00 -3.2 C 3.02 g/m*3 -3.2 C 0 km/h
916 09-12-2003 13:06:00 -3.2 C 2.9 g/m*3 -3.2 C 0 km/h
917 09-12-2003 13:18:00 -3 C 2.91 g/m*3 -3 C 0 km/h
918 09-12-2003 13:30:00 -2.8 C 2.87 g/m*3 -2.8 C 0 km/h
919 09-12-2003 13:41:00 -2.6 C 2.91 g/m*3 -2.6 C 0 km/h
920 09-12-2003 13:53:01 -2.4 C 2.91 g/m*3 -2.4 C 0 km/h
921 09-12-2003 14:05:00 -2.4 C 2.91 g/m*3 -2.4 C 0 km/h
922 09-12-2003 14:17:00 -2.4 C 2.91 g/m*3 -2.4 C 0 km/h
923 09-12-2003 14:29:00 -2.4 C 2.91 g/m*3 -2.4 C 0 km/h
924 09-12-2003 14:41:01 -2.4 C 2.91 g/m*3 -2.4 C 0 km/h
925 09-12-2003 14:53:01 -2.4 C 2.91 g/m*3 -2.4 C 0 km/h
Sensor: Nr:Datum:Temp:Abs-Feuchte:Windchill:Wind:
Aussen-T/F 926 09-12-2003 15:05:00 -2.4 C 2.91 g/m*3 -2.4 C 0 km/h
927 09-12-2003 15:17:00 -2.4 C 2.91 g/m*3 -2.4 C 0 km/h
928 09-12-2003 15:29:00 -2.4 C 2.91 g/m*3 -2.4 C 0 km/h
929 09-12-2003 15:41:00 -2.4 C 2.91 g/m*3 -2.4 C 0 km/h
930 09-12-2003 15:53:00 -2.4 C 2.91 g/m*3 -2.4 C 0 km/h
931 09-12-2003 16:06:00 -2.4 C 2.91 g/m*3 -2.4 C 0 km/h
932 09-12-2003 16:18:00 -2.4 C 2.91 g/m*3 -2.4 C 0 km/h
933 09-12-2003 16:30:00 -2.4 C 2.91 g/m*3 -2.4 C 0 km/h
934 09-12-2003 16:41:01 -2.4 C 2.91 g/m*3 -2.4 C 0 km/h
935 09-12-2003 16:53:01 -2.4 C 2.91 g/m*3 -2.4 C 0 km/h
936 09-12-2003 17:05:00 -2.2 C 2.91 g/m*3 -2.2 C 0 km/h
937 09-12-2003 17:17:00 -2.3 C 2.89 g/m*3 -2.3 C 0 km/h
938 09-12-2003 17:29:00 -2.6 C 2.87 g/m*3 -2.6 C 0 km/h
939 09-12-2003 17:41:00 -2.5 C 2.89 g/m*3 -2.5 C 0 km/h
940 09-12-2003 17:53:00 -2.8 C 2.83 g/m*3 -2.8 C 0 km/h
941 09-12-2003 18:06:01 -3 C 2.83 g/m*3 -3 C 0 km/h
942 09-12-2003 18:18:01 -3.1 C 2.77 g/m*3 -3.1 C 0 km/h
943 09-12-2003 18:30:01 -3.1 C 2.77 g/m*3 -3.1 C 0 km/h
944 09-12-2003 18:41:00 -3 C 2.75 g/m*3 -3 C 0 km/h
945 09-12-2003 18:53:00 -3.3 C 2.69 g/m*3 -3.3 C 0 km/h
946 09-12-2003 19:05:00 -3.5 C 2.69 g/m*3 -3.5 C 0 km/h
947 09-12-2003 19:17:00 -3.5 C 2.69 g/m*3 -3.5 C 0 km/h
948 09-12-2003 19:29:00 -3.3 C 2.69 g/m*3 -3.3 C 0 km/h
949 09-12-2003 19:41:00 -3.4 C 2.67 g/m*3 -3.4 C 0 km/h
950 09-12-2003 19:53:01 -3.5 C 2.65 g/m*3 -3.5 C 0 km/h
Sensor: Nr:Datum:Temp:Abs-Feuchte:Windchill:Wind:
Aussen-T/F 951 09-12-2003 20:05:00 -3.7 C 2.62 g/m*3 -3.7 C 0 km/h
952 09-12-2003 20:17:00 -3.9 C 2.58 g/m*3 -3.9 C 0 km/h
953 09-12-2003 20:29:00 -4.2 C 2.52 g/m*3 -4.2 C 0 km/h
954 09-12-2003 20:41:00 -4.3 C 2.51 g/m*3 -4.3 C 0 km/h
955 09-12-2003 20:53:00 -4.1 C 2.51 g/m*3 -4.1 C 0 km/h
956 09-12-2003 21:06:01 -3.8 C 2.56 g/m*3 -3.8 C 0 km/h
957 09-12-2003 21:18:01 -3.8 C 2.56 g/m*3 -3.8 C 0 km/h
958 09-12-2003 21:30:01 -4.1 C 2.54 g/m*3 -4.1 C 0 km/h
959 09-12-2003 21:41:00 -4.2 C 2.52 g/m*3 -4.2 C 0 km/h
960 09-12-2003 21:53:01 -4.2 C 2.56 g/m*3 -4.2 C 0 km/h
961 09-12-2003 22:05:00 -4.5 C 2.54 g/m*3 -4.5 C 0 km/h
962 09-12-2003 22:17:00 -4.5 C 2.54 g/m*3 -4.5 C 0 km/h
963 09-12-2003 22:29:00 -4.5 C 2.54 g/m*3 -4.5 C 0 km/h
964 09-12-2003 22:41:00 -4.5 C 2.54 g/m*3 -4.5 C 0 km/h
965 09-12-2003 22:53:00 -4.5 C 2.54 g/m*3 -4.5 C 0 km/h
966 09-12-2003 23:06:01 -4.5 C 2.54 g/m*3 -4.5 C 0 km/h
967 09-12-2003 23:18:01 -4.5 C 2.54 g/m*3 -4.5 C 0 km/h
968 09-12-2003 23:30:01 -4.5 C 2.54 g/m*3 -4.5 C 0 km/h
969 09-12-2003 23:41:01 -4.5 C 2.54 g/m*3 -4.5 C 0 km/h
970 09-12-2003 23:53:01 -4.5 C 2.54 g/m*3 -4.5 C 0 km/h
971 10-12-2003 00:05:00 -4.5 C 2.54 g/m*3 -4.5 C 0 km/h
972 10-12-2003 00:17:00 -4.5 C 2.54 g/m*3 -4.5 C 0 km/h
973 10-12-2003 00:29:00 -4.5 C 2.54 g/m*3 -4.5 C 0 km/h
974 10-12-2003 00:41:00 -4.5 C 2.54 g/m*3 -4.5 C 0 km/h
975 10-12-2003 00:53:00 -4.5 C 2.54 g/m*3 -4.5 C 0 km/h
Sensor: Nr:Datum:Temp:Abs-Feuchte:Windchill:Wind:
Aussen-T/F 976 10-12-2003 01:06:01 -4.5 C 2.54 g/m*3 -4.5 C 0 km/h
977 10-12-2003 01:18:01 -4.5 C 2.54 g/m*3 -4.5 C 0 km/h
978 10-12-2003 01:30:01 -4.5 C 2.54 g/m*3 -4.5 C 0 km/h
979 10-12-2003 01:41:01 -4.5 C 2.54 g/m*3 -4.5 C 0 km/h
980 10-12-2003 01:53:01 -4.5 C 2.54 g/m*3 -4.5 C 0 km/h
981 10-12-2003 02:05:00 -4.5 C 2.54 g/m*3 -4.5 C 0 km/h
982 10-12-2003 02:17:00 -4.5 C 2.54 g/m*3 -4.5 C 0 km/h
983 10-12-2003 02:29:00 -4.5 C 2.54 g/m*3 -4.5 C 0 km/h
984 10-12-2003 02:41:00 -4.5 C 2.54 g/m*3 -4.5 C 0 km/h
985 10-12-2003 02:53:01 -4.5 C 2.54 g/m*3 -4.5 C 0 km/h
986 10-12-2003 03:05:00 -4.5 C 2.54 g/m*3 -4.5 C 0 km/h
987 10-12-2003 03:17:00 -4.5 C 2.54 g/m*3 -4.5 C 0 km/h
988 10-12-2003 03:29:00 -4.5 C 2.54 g/m*3 -4.5 C 0 km/h
989 10-12-2003 03:41:00 -4.5 C 2.54 g/m*3 -4.5 C 0 km/h
990 10-12-2003 03:53:00 -4.5 C 2.54 g/m*3 -4.5 C 0 km/h
991 10-12-2003 04:06:00 -4.5 C 2.54 g/m*3 -4.5 C 0 km/h
992 10-12-2003 04:18:01 -4.5 C 2.54 g/m*3 -4.5 C 0 km/h
993 10-12-2003 04:30:01 -4.5 C 2.54 g/m*3 -4.5 C 0 km/h
994 10-12-2003 04:41:01 -4.5 C 2.54 g/m*3 -4.5 C 0 km/h
995 10-12-2003 04:53:01 -4.5 C 2.54 g/m*3 -4.5 C 0 km/h
996 10-12-2003 05:05:00 -4.5 C 2.54 g/m*3 -4.5 C 0 km/h
997 10-12-2003 05:17:00 -4.5 C 2.54 g/m*3 -4.5 C 0 km/h
998 10-12-2003 05:29:00 -4.5 C 2.54 g/m*3 -4.5 C 0 km/h
999 10-12-2003 05:41:01 -4.5 C 2.54 g/m*3 -4.5 C 0 km/h
1000 10-12-2003 05:53:01 -4.5 C 2.54 g/m*3 -4.5 C 0 km/h
Sensor: Nr:Datum:Temp:Abs-Feuchte:Windchill:Wind:
Aussen-T/F 1001 10-12-2003 06:05:00 -4.5 C 2.54 g/m*3 -4.5 C 0 km/h
1002 10-12-2003 06:17:00 -4.5 C 2.54 g/m*3 -4.5 C 0 km/h
1003 10-12-2003 06:29:00 -4.5 C 2.54 g/m*3 -4.5 C 0 km/h
1004 10-12-2003 06:41:00 -4.5 C 2.54 g/m*3 -4.5 C 0 km/h
1005 10-12-2003 06:53:00 -4.5 C 2.54 g/m*3 -4.5 C 0 km/h
1006 10-12-2003 07:06:00 -4.5 C 2.54 g/m*3 -4.5 C 0 km/h
1007 10-12-2003 07:18:00 -7.2 C 2.38 g/m*3 -7.2 C 0 km/h
1008 10-12-2003 07:30:01 -7.2 C 2.38 g/m*3 -7.2 C 0 km/h
1009 10-12-2003 07:41:00 -7.2 C 2.38 g/m*3 -7.2 C 0 km/h
1010 10-12-2003 07:53:01 -7.2 C 2.38 g/m*3 -7.2 C 0 km/h
1011 10-12-2003 08:05:00 -7.2 C 2.38 g/m*3 -7.2 C 0 km/h
1012 10-12-2003 08:17:00 -7.2 C 2.38 g/m*3 -7.2 C 0 km/h
1013 10-12-2003 08:29:00 -7.2 C 2.38 g/m*3 -7.2 C 0 km/h
1014 10-12-2003 08:41:01 -7.2 C 2.38 g/m*3 -7.2 C 0 km/h
1015 10-12-2003 08:53:01 -7.2 C 2.38 g/m*3 -7.2 C 0 km/h
1016 10-12-2003 09:05:00 -7.2 C 2.38 g/m*3 -7.2 C 0 km/h
1017 10-12-2003 09:17:00 -7.2 C 2.38 g/m*3 -7.2 C 0 km/h
1018 10-12-2003 09:29:00 -7.2 C 2.38 g/m*3 -7.2 C 0 km/h
1019 10-12-2003 09:41:00 -7.2 C 2.38 g/m*3 -7.2 C 0 km/h
1020 10-12-2003 09:53:00 -7.2 C 2.38 g/m*3 -7.2 C 0 km/h
1021 10-12-2003 10:06:00 -7.2 C 2.38 g/m*3 -7.2 C 0 km/h
1022 10-12-2003 10:18:00 -7.2 C 2.38 g/m*3 -7.2 C 0 km/h
1023 10-12-2003 10:30:00 -7.2 C 2.38 g/m*3 -7.2 C 0 km/h
1024 10-12-2003 10:41:00 -7.2 C 2.38 g/m*3 -7.2 C 0 km/h
1025 10-12-2003 10:53:00 -7.2 C 2.38 g/m*3 -7.2 C 0 km/h
Sensor: Nr:Datum:Temp:Abs-Feuchte:Windchill:Wind:
Aussen-T/F 1026 10-12-2003 11:05:00 -7.2 C 2.38 g/m*3 -7.2 C 0 km/h
1027 10-12-2003 11:17:00 -7.2 C 2.38 g/m*3 -7.2 C 0 km/h
1028 10-12-2003 11:29:00 -5.4 C 2.75 g/m*3 -5.4 C 0 km/h
1029 10-12-2003 11:41:00 -5 C 2.83 g/m*3 -5 C 0 km/h
1030 10-12-2003 11:53:01 -4.8 C 2.87 g/m*3 -4.8 C 0 km/h
1031 10-12-2003 12:05:00 -4.8 C 2.87 g/m*3 -4.8 C 0 km/h
1032 10-12-2003 12:17:00 -4.5 C 2.93 g/m*3 -4.5 C 0 km/h
1033 10-12-2003 12:29:00 -4.2 C 2.99 g/m*3 -4.2 C 0 km/h
1034 10-12-2003 12:41:00 -4 C 3.07 g/m*3 -4 C 0 km/h
1035 10-12-2003 12:53:00 -4 C 3.07 g/m*3 -4 C 0 km/h
1036 10-12-2003 13:06:00 -4 C 3.07 g/m*3 -4 C 0 km/h
1037 10-12-2003 13:18:00 -4 C 3.07 g/m*3 -4 C 0 km/h
1038 10-12-2003 13:30:00 -4 C 3.07 g/m*3 -4 C 0 km/h
1039 10-12-2003 13:41:01 -4 C 3.07 g/m*3 -4 C 0 km/h
1040 10-12-2003 13:53:01 -2.7 C 3.25 g/m*3 -2.7 C 0 km/h
1041 10-12-2003 14:05:00 -2.6 C 3.27 g/m*3 -2.6 C 0 km/h
1042 10-12-2003 14:17:00 -2.6 C 3.27 g/m*3 -2.6 C 0 km/h
1043 10-12-2003 14:29:00 -2.6 C 3.27 g/m*3 -2.6 C 0 km/h
1044 10-12-2003 14:41:00 -2.6 C 3.27 g/m*3 -2.6 C 0 km/h
1045 10-12-2003 14:53:00 -2.6 C 3.27 g/m*3 -2.6 C 0 km/h
1046 10-12-2003 15:06:00 -2.6 C 3.27 g/m*3 -2.6 C 0 km/h
1047 10-12-2003 15:18:01 -2.6 C 3.27 g/m*3 -2.6 C 0 km/h
1048 10-12-2003 15:30:01 -2.6 C 3.27 g/m*3 -2.6 C 0 km/h
1049 10-12-2003 15:41:01 -2.6 C 3.27 g/m*3 -2.6 C 0 km/h
1050 10-12-2003 15:53:01 -2.6 C 3.27 g/m*3 -2.6 C 0 km/h
Sensor: Nr:Datum:Temp:Abs-Feuchte:Windchill:Wind:
Aussen-T/F 1051 10-12-2003 16:05:00 -2.6 C 3.27 g/m*3 -2.6 C 0 km/h
1052 10-12-2003 16:17:00 -2.6 C 3.27 g/m*3 -2.6 C 0 km/h
1053 10-12-2003 16:29:00 -2.6 C 3.27 g/m*3 -2.6 C 0 km/h
1054 10-12-2003 16:41:00 -2.6 C 3.27 g/m*3 -2.6 C 0 km/h
1055 10-12-2003 16:53:00 -2.6 C 3.27 g/m*3 -2.6 C 0 km/h
1056 10-12-2003 17:06:00 -2.6 C 3.27 g/m*3 -2.6 C 0 km/h
1057 10-12-2003 17:18:00 -1.5 C 3.32 g/m*3 -1.5 C 0 km/h
1058 10-12-2003 17:30:01 -1.5 C 3.32 g/m*3 -1.5 C 0 km/h
1059 10-12-2003 17:41:01 -1.5 C 3.32 g/m*3 -1.5 C 0 km/h
1060 10-12-2003 17:53:01 -1.5 C 3.32 g/m*3 -1.5 C 0 km/h
1061 10-12-2003 18:05:00 -1.5 C 3.32 g/m*3 -1.5 C 0 km/h
1062 10-12-2003 18:17:00 -1.5 C 3.32 g/m*3 -1.5 C 0 km/h
1063 10-12-2003 18:29:00 -1.5 C 3.32 g/m*3 -1.5 C 0 km/h
1064 10-12-2003 18:41:00 -1.5 C 3.32 g/m*3 -1.5 C 0 km/h
1065 10-12-2003 18:53:00 -3 C 3.18 g/m*3 -3 C 0 km/h
1066 10-12-2003 19:05:00 -3 C 3.22 g/m*3 -3 C 0 km/h
1067 10-12-2003 19:17:00 -3.2 C 3.18 g/m*3 -3.2 C 0 km/h
1068 10-12-2003 19:29:00 -3.3 C 3.15 g/m*3 -3.3 C 0 km/h
1069 10-12-2003 19:41:00 -3.4 C 3.17 g/m*3 -3.4 C 0 km/h
1070 10-12-2003 19:53:00 -3.3 C 3.19 g/m*3 -3.3 C 0 km/h
1071 10-12-2003 20:06:01 -3.3 C 3.19 g/m*3 -3.3 C 0 km/h
1072 10-12-2003 20:18:01 -3.4 C 3.17 g/m*3 -3.4 C 0 km/h
1073 10-12-2003 20:30:01 -2.5 C 3.42 g/m*3 -2.5 C 0 km/h
1074 10-12-2003 20:41:00 -2 C 3.46 g/m*3 -2 C 0 km/h
1075 10-12-2003 20:53:01 -2 C 3.46 g/m*3 -2 C 0 km/h
Sensor: Nr:Datum:Temp:Abs-Feuchte:Windchill:Wind:
Aussen-T/F 1076 10-12-2003 21:05:01 -2 C 3.46 g/m*3 -2 C 0 km/h
1077 10-12-2003 21:17:01 -1.1 C 3.32 g/m*3 -1.1 C 0 km/h
1078 10-12-2003 21:29:01 -1.1 C 3.28 g/m*3 -1.1 C 0 km/h
1079 10-12-2003 21:41:00 -1.4 C 3.21 g/m*3 -1.4 C 0 km/h
1080 10-12-2003 21:53:00 -1.3 C 3.28 g/m*3 -1.3 C 0 km/h
1081 10-12-2003 22:06:01 -1.2 C 3.25 g/m*3 -1.2 C 0 km/h
1082 10-12-2003 22:18:01 -1.1 C 3.28 g/m*3 -1.1 C 0 km/h
1083 10-12-2003 22:30:01 -1.2 C 3.25 g/m*3 -1.2 C 0 km/h
1084 10-12-2003 22:41:00 -1.4 C 3.21 g/m*3 -1.4 C 0 km/h
1085 10-12-2003 22:53:01 -1.7 C 3.19 g/m*3 -1.7 C 0 km/h
1086 10-12-2003 23:05:00 -1.6 C 3.21 g/m*3 -1.6 C 0 km/h
1087 10-12-2003 23:17:00 -1.5 C 3.27 g/m*3 -1.5 C 0 km/h
1088 10-12-2003 23:29:00 -1.4 C 3.3 g/m*3 -1.4 C 0 km/h
1089 10-12-2003 23:41:00 -1.2 C 3.34 g/m*3 -1.2 C 0 km/h
1090 10-12-2003 23:53:00 -0.9 C 3.37 g/m*3 -0.9 C 0 km/h
1091 11-12-2003 00:06:01 -0.7 C 3.46 g/m*3 -0.7 C 0 km/h
1092 11-12-2003 00:18:01 -0.2 C 3.58 g/m*3 -0.2 C 0 km/h
1093 11-12-2003 00:30:01 0.1 C 3.61 g/m*3 0.1 C 0 km/h
1094 11-12-2003 00:41:01 0.1 C 3.61 g/m*3 0.1 C 0 km/h
1095 11-12-2003 00:53:01 0.5 C 3.81 g/m*3 0.5 C 0 km/h
1096 11-12-2003 01:05:00 0.8 C 3.89 g/m*3 0.8 C 0 km/h
1097 11-12-2003 01:17:00 1 C 3.84 g/m*3 1 C 0 km/h
1098 11-12-2003 01:29:00 1 C 3.84 g/m*3 1 C 0 km/h
1099 11-12-2003 01:41:00 1 C 3.84 g/m*3 1 C 0 km/h
1100 11-12-2003 01:53:00 0.9 C 3.92 g/m*3 0.9 C 0 km/h
Sensor: Nr:Datum:Temp:Abs-Feuchte:Windchill:Wind:
Aussen-T/F 1101 11-12-2003 02:05:00 0.8 C 3.89 g/m*3 0.8 C 0 km/h
1102 11-12-2003 02:17:00 0.8 C 3.89 g/m*3 0.8 C 0 km/h
1103 11-12-2003 02:29:00 0.8 C 3.89 g/m*3 0.8 C 0 km/h
1104 11-12-2003 02:41:00 0.8 C 3.84 g/m*3 0.8 C 0 km/h
1105 11-12-2003 02:53:00 0.9 C 3.87 g/m*3 0.9 C 0 km/h
1106 11-12-2003 03:06:01 0.7 C 3.81 g/m*3 0.7 C 0 km/h
1107 11-12-2003 03:18:01 0.7 C 3.81 g/m*3 0.7 C 0 km/h
1108 11-12-2003 03:30:01 0.6 C 3.79 g/m*3 0.6 C 0 km/h
1109 11-12-2003 03:41:01 0.5 C 3.76 g/m*3 0.5 C 0 km/h
1110 11-12-2003 03:53:01 0.5 C 3.71 g/m*3 0.5 C 0 km/h
1111 11-12-2003 04:05:00 0.4 C 3.74 g/m*3 0.4 C 0 km/h
1112 11-12-2003 04:17:00 0.3 C 3.71 g/m*3 0.3 C 0 km/h
1113 11-12-2003 04:29:00 0.2 C 3.64 g/m*3 0.2 C 0 km/h
1114 11-12-2003 04:41:01 0.1 C 3.61 g/m*3 0.1 C 0 km/h
1115 11-12-2003 04:53:01 0.1 C 3.61 g/m*3 0.1 C 0 km/h
1116 11-12-2003 05:05:00 0 C 3.59 g/m*3 0 C 0 km/h
1117 11-12-2003 05:17:00 0 C 3.59 g/m*3 0 C 0 km/h
1118 11-12-2003 05:29:00 -0.1 C 3.56 g/m*3 -0.1 C 0 km/h
1119 11-12-2003 05:41:00 -0.1 C 3.56 g/m*3 -0.1 C 0 km/h
1120 11-12-2003 05:53:00 -0.2 C 3.54 g/m*3 -0.2 C 0 km/h
1121 11-12-2003 06:06:00 -0.1 C 3.56 g/m*3 -0.1 C 0 km/h
1122 11-12-2003 06:18:01 -0.1 C 3.51 g/m*3 -0.1 C 0 km/h
1123 11-12-2003 06:30:01 -0.1 C 3.46 g/m*3 -0.1 C 0 km/h
1124 11-12-2003 06:41:00 -0.2 C 3.44 g/m*3 -0.2 C 0 km/h
1125 11-12-2003 06:53:00 -0.1 C 3.46 g/m*3 -0.1 C 0 km/h
Sensor: Nr:Datum:Temp:Abs-Feuchte:Windchill:Wind:
Aussen-T/F 1126 11-12-2003 07:05:00 -0.2 C 3.44 g/m*3 -0.2 C 0 km/h
1127 11-12-2003 07:17:00 -0.2 C 3.44 g/m*3 -0.2 C 0 km/h
1128 11-12-2003 07:29:00 -0.2 C 3.44 g/m*3 -0.2 C 0 km/h
1129 11-12-2003 07:41:00 -0.2 C 3.44 g/m*3 -0.2 C 0 km/h
1130 11-12-2003 07:53:00 -0.2 C 3.44 g/m*3 -0.2 C 0 km/h
1131 11-12-2003 08:06:00 -0.2 C 3.44 g/m*3 -0.2 C 0 km/h
1132 11-12-2003 08:18:01 -0.2 C 3.39 g/m*3 -0.2 C 0 km/h
1133 11-12-2003 08:30:01 -0.2 C 3.44 g/m*3 -0.2 C 0 km/h
1134 11-12-2003 08:41:01 -0.2 C 3.44 g/m*3 -0.2 C 0 km/h
1135 11-12-2003 08:53:01 -0.2 C 3.39 g/m*3 -0.2 C 0 km/h
1136 11-12-2003 09:05:00 -0.2 C 3.39 g/m*3 -0.2 C 0 km/h
1137 11-12-2003 09:17:00 -0.2 C 3.44 g/m*3 -0.2 C 0 km/h
1138 11-12-2003 09:29:00 0 C 3.44 g/m*3 0 C 0 km/h
1139 11-12-2003 09:41:01 0 C 3.44 g/m*3 0 C 0 km/h
1140 11-12-2003 09:53:01 0 C 3.44 g/m*3 0 C 0 km/h
1141 11-12-2003 10:06:00 0 C 3.44 g/m*3 0 C 0 km/h
1142 11-12-2003 10:18:00 0.1 C 3.46 g/m*3 0.1 C 0 km/h
1143 11-12-2003 10:30:00 0.1 C 3.46 g/m*3 0.1 C 0 km/h
1144 11-12-2003 10:41:01 0.2 C 3.44 g/m*3 0.2 C 0 km/h
1145 11-12-2003 10:53:01 0.3 C 3.46 g/m*3 0.3 C 0 km/h
1146 11-12-2003 11:05:00 0.4 C 3.49 g/m*3 0.4 C 0 km/h
1147 11-12-2003 11:17:00 0.4 C 3.54 g/m*3 0.4 C 0 km/h
1148 11-12-2003 11:29:00 0.5 C 3.56 g/m*3 0.5 C 0 km/h
1149 11-12-2003 11:41:01 0.6 C 3.59 g/m*3 0.6 C 0 km/h
1150 11-12-2003 11:53:01 0.6 C 3.59 g/m*3 0.6 C 0 km/h
Sensor: Nr:Datum:Temp:Abs-Feuchte:Windchill:Wind:
Aussen-T/F 1151 11-12-2003 12:06:01 0.6 C 3.59 g/m*3 0.6 C 0 km/h
1152 11-12-2003 12:18:01 0.7 C 3.61 g/m*3 0.7 C 0 km/h
1153 11-12-2003 12:30:01 0.9 C 3.61 g/m*3 0.9 C 0 km/h
1154 11-12-2003 12:41:00 1.1 C 3.61 g/m*3 1.1 C 0 km/h
1155 11-12-2003 12:53:00 1.3 C 3.6 g/m*3 1.3 C 0 km/h
1156 11-12-2003 13:05:00 1.6 C 3.68 g/m*3 1.6 C 0 km/h
1157 11-12-2003 13:17:00 1.9 C 3.7 g/m*3 1.9 C 0 km/h
1158 11-12-2003 13:29:00 1.8 C 3.67 g/m*3 1.8 C 0 km/h
1159 11-12-2003 13:41:01 1.8 C 3.67 g/m*3 1.8 C 0 km/h
1160 11-12-2003 13:53:01 1.9 C 3.7 g/m*3 1.9 C 0 km/h
1161 11-12-2003 14:05:00 1.9 C 3.7 g/m*3 1.9 C 0 km/h
1162 11-12-2003 14:17:00 1.9 C 3.7 g/m*3 1.9 C 0 km/h
1163 11-12-2003 14:29:00 1.9 C 3.7 g/m*3 1.9 C 0 km/h
1164 11-12-2003 14:41:00 1.8 C 3.73 g/m*3 1.8 C 0 km/h
1165 11-12-2003 14:53:00 1.9 C 3.7 g/m*3 1.9 C 0 km/h
1166 11-12-2003 15:06:00 1.9 C 3.7 g/m*3 1.9 C 0 km/h
1167 11-12-2003 15:18:01 1.9 C 3.7 g/m*3 1.9 C 0 km/h
1168 11-12-2003 15:30:01 1.8 C 3.73 g/m*3 1.8 C 0 km/h
1169 11-12-2003 15:41:01 1.9 C 3.75 g/m*3 1.9 C 0 km/h
1170 11-12-2003 15:53:01 1.9 C 3.75 g/m*3 1.9 C 0 km/h
1171 11-12-2003 16:05:00 1.9 C 3.81 g/m*3 1.9 C 0 km/h
1172 11-12-2003 16:17:00 1.7 C 3.76 g/m*3 1.7 C 0 km/h
1173 11-12-2003 16:29:00 1.7 C 3.76 g/m*3 1.7 C 0 km/h
1174 11-12-2003 16:41:00 1.5 C 3.76 g/m*3 1.5 C 0 km/h
1175 11-12-2003 16:53:00 1.4 C 3.79 g/m*3 1.4 C 0 km/h
Sensor: Nr:Datum:Temp:Abs-Feuchte:Windchill:Wind:
Aussen-T/F 1176 11-12-2003 17:05:00 1.4 C 3.79 g/m*3 1.4 C 0 km/h
1177 11-12-2003 17:17:00 1.4 C 3.79 g/m*3 1.4 C 0 km/h
1178 11-12-2003 17:29:00 1.4 C 3.79 g/m*3 1.4 C 0 km/h
1179 11-12-2003 17:41:01 1.4 C 3.79 g/m*3 1.4 C 0 km/h
1180 11-12-2003 17:53:01 1.6 C 3.84 g/m*3 1.6 C 0 km/h
1181 11-12-2003 18:06:00 1.6 C 3.84 g/m*3 1.6 C 0 km/h
1182 11-12-2003 18:18:00 1.5 C 3.87 g/m*3 1.5 C 0 km/h
1183 11-12-2003 18:30:01 1.5 C 3.87 g/m*3 1.5 C 0 km/h
1184 11-12-2003 18:41:01 1.6 C 3.89 g/m*3 1.6 C 0 km/h
1185 11-12-2003 18:53:01 1.5 C 3.87 g/m*3 1.5 C 0 km/h
1186 11-12-2003 19:05:00 1.4 C 3.89 g/m*3 1.4 C 0 km/h
1187 11-12-2003 19:17:00 0.8 C 4.04 g/m*3 0.8 C 0 km/h
1188 11-12-2003 19:29:00 0.9 C 4.23 g/m*3 0.9 C 0 km/h
1189 11-12-2003 19:41:03 1 C 4.31 g/m*3 1 C 0 km/h
1190 11-12-2003 19:53:03 1.2 C 4.47 g/m*3 1.2 C 0 km/h
1191 11-12-2003 20:05:00 1.5 C 4.62 g/m*3 1.5 C 0 km/h
1192 11-12-2003 20:17:00 1.7 C 4.74 g/m*3 1.7 C 0 km/h
1193 11-12-2003 20:29:01 1.9 C 4.8 g/m*3 1.9 C 0 km/h
1194 11-12-2003 20:40:01 1.9 C 4.86 g/m*3 1.9 C 0 km/h
1195 11-12-2003 20:52:01 1.9 C 4.86 g/m*3 1.9 C 0 km/h
1196 11-12-2003 21:04:00 1.9 C 4.86 g/m*3 1.9 C 0 km/h
1197 11-12-2003 21:16:00 2.2 C 4.96 g/m*3 2.2 C 0 km/h
1198 11-12-2003 21:28:00 2.3 C 5.05 g/m*3 2.3 C 0 km/h
1199 11-12-2003 21:40:04 2.8 C 5.22 g/m*3 2.8 C 0 km/h
1200 11-12-2003 21:52:04 3.2 C 5.3 g/m*3 3.2 C 0 km/h
Sensor: Nr:Datum:Temp:Abs-Feuchte:Windchill:Wind:
Aussen-T/F 1201 11-12-2003 22:04:00 3.5 C 5.35 g/m*3 3.5 C 0 km/h
1202 11-12-2003 22:16:00 4 C 5.47 g/m*3 4 C 0 km/h
1203 11-12-2003 22:28:00 4.2 C 5.41 g/m*3 4.2 C 0 km/h
1204 11-12-2003 22:40:05 4.3 C 5.38 g/m*3 4.3 C 0 km/h
1205 11-12-2003 22:52:05 4.5 C 5.39 g/m*3 4.5 C 0 km/h
1206 11-12-2003 23:05:00 4.6 C 5.36 g/m*3 4.6 C 0 km/h
1207 11-12-2003 23:17:00 4.6 C 5.36 g/m*3 4.6 C 0 km/h
1208 11-12-2003 23:29:00 4.7 C 5.4 g/m*3 4.7 C 0 km/h
1209 11-12-2003 23:42:01 4.6 C 5.36 g/m*3 4.6 C 0 km/h
1210 11-12-2003 23:54:01 4.5 C 5.32 g/m*3 4.5 C 0 km/h
1211 12-12-2003 00:06:01 4.4 C 5.35 g/m*3 4.4 C 0 km/h
1212 12-12-2003 00:18:01 4.4 C 5.42 g/m*3 4.4 C 0 km/h
1213 12-12-2003 00:30:01 4.5 C 5.46 g/m*3 4.5 C 0 km/h
1214 12-12-2003 00:41:56 4.5 C 5.46 g/m*3 4.5 C 0 km/h
1215 12-12-2003 00:53:56 4.6 C 5.43 g/m*3 4.6 C 0 km/h
1216 12-12-2003 01:06:00 4.6 C 5.43 g/m*3 4.6 C 0 km/h
1217 12-12-2003 01:18:01 4.7 C 5.46 g/m*3 4.7 C 0 km/h
1218 12-12-2003 01:30:01 4.6 C 5.43 g/m*3 4.6 C 0 km/h
1219 12-12-2003 01:41:55 4.6 C 5.43 g/m*3 4.6 C 0 km/h
1220 12-12-2003 01:53:55 4.8 C 5.43 g/m*3 4.8 C 0 km/h
1221 12-12-2003 02:06:01 4.9 C 5.47 g/m*3 4.9 C 0 km/h
1222 12-12-2003 02:18:01 5.1 C 5.47 g/m*3 5.1 C 0 km/h
1223 12-12-2003 02:30:01 5.2 C 5.51 g/m*3 5.2 C 0 km/h
1224 12-12-2003 02:41:56 5.3 C 5.54 g/m*3 5.3 C 0 km/h
1225 12-12-2003 02:53:56 5.4 C 5.58 g/m*3 5.4 C 0 km/h
Sensor: Nr:Datum:Temp:Abs-Feuchte:Windchill:Wind:
Aussen-T/F 1226 12-12-2003 03:06:01 5.8 C 5.66 g/m*3 5.8 C 0 km/h
1227 12-12-2003 03:18:01 5.9 C 5.7 g/m*3 5.9 C 0 km/h
1228 12-12-2003 03:30:01 5.8 C 5.66 g/m*3 5.8 C 0 km/h
1229 12-12-2003 03:41:55 5.7 C 5.62 g/m*3 5.7 C 0 km/h
1230 12-12-2003 03:53:55 5.6 C 5.66 g/m*3 5.6 C 0 km/h
1231 12-12-2003 04:05:00 5.4 C 5.65 g/m*3 5.4 C 0 km/h
1232 12-12-2003 04:17:00 5.5 C 5.69 g/m*3 5.5 C 0 km/h
1233 12-12-2003 04:29:00 6.2 C 5.96 g/m*3 6.2 C 0 km/h
1234 12-12-2003 04:41:00 6.2 C 5.88 g/m*3 6.2 C 0 km/h
1235 12-12-2003 04:53:00 6.3 C 5.77 g/m*3 6.3 C 0 km/h
1236 12-12-2003 05:06:01 6.3 C 5.77 g/m*3 6.3 C 0 km/h
1237 12-12-2003 05:18:01 6.2 C 5.74 g/m*3 6.2 C 0 km/h
1238 12-12-2003 05:30:01 6 C 5.66 g/m*3 6 C 0 km/h
1239 12-12-2003 05:41:01 5.7 C 5.62 g/m*3 5.7 C 0 km/h
1240 12-12-2003 05:53:01 5.6 C 5.66 g/m*3 5.6 C 0 km/h
1241 12-12-2003 06:05:00 5.6 C 5.59 g/m*3 5.6 C 0 km/h
1242 12-12-2003 06:17:00 5.6 C 5.59 g/m*3 5.6 C 0 km/h
1243 12-12-2003 06:29:00 5.6 C 5.51 g/m*3 5.6 C 0 km/h
1244 12-12-2003 06:41:01 5.5 C 5.48 g/m*3 5.5 C 0 km/h
1245 12-12-2003 06:53:01 5.1 C 5.4 g/m*3 5.1 C 0 km/h
1246 12-12-2003 07:05:00 4.6 C 5.36 g/m*3 4.6 C 0 km/h
1247 12-12-2003 07:17:00 4.8 C 5.5 g/m*3 4.8 C 0 km/h
1248 12-12-2003 07:29:00 4.8 C 5.5 g/m*3 4.8 C 0 km/h
1249 12-12-2003 07:41:00 4.7 C 5.4 g/m*3 4.7 C 0 km/h
1250 12-12-2003 07:53:00 4.6 C 5.43 g/m*3 4.6 C 0 km/h
Sensor: Nr:Datum:Temp:Abs-Feuchte:Windchill:Wind:
Aussen-T/F 1251 12-12-2003 08:06:01 4.2 C 5.22 g/m*3 4.2 C 0 km/h
1252 12-12-2003 08:17:01 4.2 C 5.28 g/m*3 4.2 C 0 km/h
1253 12-12-2003 08:18:01 4.2 C 5.28 g/m*3 4.2 C 0 km/h
1254 12-12-2003 08:29:01 4.1 C 5.25 g/m*3 4.1 C 0 km/h
1255 12-12-2003 08:41:01 3.9 C 5.31 g/m*3 3.9 C 0 km/h
1256 12-12-2003 08:53:01 3.7 C 5.17 g/m*3 3.7 C 0 km/h
1257 12-12-2003 09:05:00 3.9 C 5.31 g/m*3 3.9 C 0 km/h
1258 12-12-2003 09:17:00 4 C 5.28 g/m*3 4 C 0 km/h
1259 12-12-2003 09:29:00 4.1 C 5.38 g/m*3 4.1 C 0 km/h
1260 12-12-2003 09:41:00 4.2 C 5.41 g/m*3 4.2 C 0 km/h
1261 12-12-2003 09:53:00 3.9 C 5.31 g/m*3 3.9 C 0 km/h
1262 12-12-2003 10:06:01 3.7 C 5.23 g/m*3 3.7 C 0 km/h
1263 12-12-2003 10:18:01 3.5 C 5.16 g/m*3 3.5 C 0 km/h
1264 12-12-2003 10:30:01 3.4 C 5.19 g/m*3 3.4 C 0 km/h
1265 12-12-2003 10:41:01 3.4 C 5.19 g/m*3 3.4 C 0 km/h
1266 12-12-2003 10:53:01 3.4 C 5.19 g/m*3 3.4 C 0 km/h
1267 12-12-2003 11:05:00 3.5 C 5.23 g/m*3 3.5 C 0 km/h
1268 12-12-2003 11:17:00 3.5 C 5.29 g/m*3 3.5 C 0 km/h
1269 12-12-2003 11:29:00 3.7 C 5.36 g/m*3 3.7 C 0 km/h
1270 12-12-2003 11:41:00 3.9 C 5.43 g/m*3 3.9 C 0 km/h
1271 12-12-2003 11:53:00 4.1 C 5.38 g/m*3 4.1 C 0 km/h
1272 12-12-2003 12:06:01 4.5 C 5.59 g/m*3 4.5 C 0 km/h
1273 12-12-2003 12:17:00 5.3 C 5.89 g/m*3 5.3 C 0 km/h
1274 12-12-2003 12:18:01 5.3 C 5.89 g/m*3 5.3 C 0 km/h
1275 12-12-2003 12:29:00 5.7 C 5.91 g/m*3 5.7 C 0 km/h
Sensor: Nr:Datum:Temp:Abs-Feuchte:Windchill:Wind:
Aussen-T/F 1276 12-12-2003 12:41:00 6 C 5.88 g/m*3 6 C 0 km/h
1277 12-12-2003 12:53:00 6.3 C 6 g/m*3 6.3 C 0 km/h
1278 12-12-2003 13:05:00 6.5 C 6 g/m*3 6.5 C 0 km/h
1279 12-12-2003 13:17:00 6.8 C 6.04 g/m*3 6.8 C 0 km/h
1280 12-12-2003 13:29:00 6.9 C 5.85 g/m*3 6.9 C 0 km/h
1281 12-12-2003 13:41:01 7.1 C 5.54 g/m*3 7.1 C 0 km/h
1282 12-12-2003 13:53:01 7.3 C 5.37 g/m*3 7.3 C 0 km/h
1283 12-12-2003 14:05:00 7.3 C 5.45 g/m*3 7.3 C 0 km/h
1284 12-12-2003 14:17:00 7.1 C 5.3 g/m*3 7.1 C 0 km/h
1285 12-12-2003 14:29:00 7.1 C 5.15 g/m*3 7.1 C 0 km/h
1286 12-12-2003 14:41:00 7 C 5.27 g/m*3 7 C 0 km/h
1287 12-12-2003 14:53:00 6.6 C 5.28 g/m*3 6.6 C 0 km/h
1288 12-12-2003 15:05:33 6.3 C 5.11 g/m*3 6.3 C 0 km/h
1289 12-12-2003 15:17:33 6 C 5.08 g/m*3 6 C 0 km/h
1290 12-12-2003 15:30:00 5.8 C 5.09 g/m*3 5.8 C 0 km/h
1291 12-12-2003 15:41:00 5.7 C 5.05 g/m*3 5.7 C 0 km/h
1292 12-12-2003 15:53:01 5.5 C 5.06 g/m*3 5.5 C 0 km/h
1293 12-12-2003 16:05:00 5.2 C 4.96 g/m*3 5.2 C 0 km/h
1294 12-12-2003 16:17:00 5.1 C 4.92 g/m*3 5.1 C 0 km/h
1295 12-12-2003 16:29:00 4.8 C 4.9 g/m*3 4.8 C 0 km/h
1296 12-12-2003 16:41:00 4.7 C 4.86 g/m*3 4.7 C 0 km/h
1297 12-12-2003 16:53:00 4.7 C 4.86 g/m*3 4.7 C 0 km/h
1298 12-12-2003 17:06:01 4.6 C 4.9 g/m*3 4.6 C 0 km/h
1299 12-12-2003 17:18:01 4.5 C 4.86 g/m*3 4.5 C 0 km/h
1300 12-12-2003 17:30:01 4.4 C 4.9 g/m*3 4.4 C 0 km/h
Sensor: Nr:Datum:Temp:Abs-Feuchte:Windchill:Wind:
Aussen-T/F 1301 12-12-2003 17:41:01 4.3 C 4.86 g/m*3 4.3 C 0 km/h
1302 12-12-2003 17:53:01 4.3 C 4.93 g/m*3 4.3 C 0 km/h
1303 12-12-2003 18:05:00 4.3 C 4.93 g/m*3 4.3 C 0 km/h
1304 12-12-2003 18:17:00 4.3 C 4.93 g/m*3 4.3 C 0 km/h
1305 12-12-2003 18:29:00 4.2 C 4.96 g/m*3 4.2 C 0 km/h
1306 12-12-2003 18:41:01 4.2 C 5.03 g/m*3 4.2 C 0 km/h
1307 12-12-2003 18:53:01 4.1 C 4.99 g/m*3 4.1 C 0 km/h
1308 12-12-2003 19:05:00 4.1 C 4.99 g/m*3 4.1 C 0 km/h
1309 12-12-2003 19:17:00 4 C 4.96 g/m*3 4 C 0 km/h
1310 12-12-2003 19:29:00 3.9 C 4.99 g/m*3 3.9 C 0 km/h
1311 12-12-2003 19:41:16 3.9 C 5.05 g/m*3 3.9 C 0 km/h
1312 12-12-2003 19:53:50 4 C 5.02 g/m*3 4 C 0 km/h
1313 12-12-2003 20:05:30 4 C 5.09 g/m*3 4 C 0 km/h
1314 12-12-2003 20:17:00 4.1 C 5.06 g/m*3 4.1 C 0 km/h
1315 12-12-2003 20:29:00 4.2 C 5.09 g/m*3 4.2 C 0 km/h
1316 12-12-2003 20:41:00 4.2 C 5.09 g/m*3 4.2 C 0 km/h
1317 12-12-2003 20:53:00 4.3 C 5.19 g/m*3 4.3 C 0 km/h
1318 12-12-2003 21:05:01 4.7 C 5.33 g/m*3 4.7 C 0 km/h
1319 12-12-2003 21:06:01 4.7 C 5.33 g/m*3 4.7 C 0 km/h
1320 12-12-2003 21:17:00 4.7 C 5.26 g/m*3 4.7 C 0 km/h
1321 12-12-2003 21:17:01 4.7 C 5.26 g/m*3 4.7 C 0 km/h
1322 12-12-2003 21:29:00 4.7 C 5.26 g/m*3 4.7 C 0 km/h
1323 12-12-2003 21:41:00 4.7 C 5.26 g/m*3 4.7 C 0 km/h
1324 12-12-2003 21:53:00 4.7 C 5.26 g/m*3 4.7 C 0 km/h
1325 12-12-2003 22:05:00 4.8 C 5.36 g/m*3 4.8 C 0 km/h
Sensor: Nr:Datum:Temp:Abs-Feuchte:Windchill:Wind:
Aussen-T/F 1326 12-12-2003 22:17:00 4.7 C 5.26 g/m*3 4.7 C 0 km/h
1327 12-12-2003 22:29:01 4.8 C 5.3 g/m*3 4.8 C 0 km/h
1328 12-12-2003 22:41:00 4.8 C 5.36 g/m*3 4.8 C 0 km/h
1329 12-12-2003 22:53:00 4.9 C 5.47 g/m*3 4.9 C 0 km/h
1330 12-12-2003 23:06:01 5 C 5.37 g/m*3 5 C 0 km/h
1331 12-12-2003 23:18:01 5 C 5.44 g/m*3 5 C 0 km/h
1332 12-12-2003 23:30:01 5 C 5.5 g/m*3 5 C 0 km/h
1333 12-12-2003 23:41:01 5 C 5.57 g/m*3 5 C 0 km/h
1334 12-12-2003 23:53:01 4.9 C 5.74 g/m*3 4.9 C 0 km/h
1335 13-12-2003 00:05:01 4.9 C 5.81 g/m*3 4.9 C 0 km/h
1336 13-12-2003 00:17:01 4.8 C 5.77 g/m*3 4.8 C 0 km/h
1337 13-12-2003 00:29:01 4.9 C 5.87 g/m*3 4.9 C 0 km/h
1338 13-12-2003 00:41:01 5.1 C 5.88 g/m*3 5.1 C 0 km/h
1339 13-12-2003 00:53:01 5.1 C 5.88 g/m*3 5.1 C 0 km/h
1340 13-12-2003 01:06:00 5 C 5.91 g/m*3 5 C 0 km/h
1341 13-12-2003 01:18:00 5.1 C 5.95 g/m*3 5.1 C 0 km/h
1342 13-12-2003 01:30:00 5.5 C 6.18 g/m*3 5.5 C 0 km/h
1343 13-12-2003 01:41:00 5.6 C 6.29 g/m*3 5.6 C 0 km/h
1344 13-12-2003 01:53:01 6.2 C 6.55 g/m*3 6.2 C 0 km/h
1345 13-12-2003 02:05:00 6.3 C 6.51 g/m*3 6.3 C 0 km/h
1346 13-12-2003 02:17:00 6.4 C 6.56 g/m*3 6.4 C 0 km/h
1347 13-12-2003 02:29:00 6.4 C 6.56 g/m*3 6.4 C 0 km/h
1348 13-12-2003 02:41:00 6 C 6.39 g/m*3 6 C 0 km/h
1349 13-12-2003 02:53:00 5.9 C 6.35 g/m*3 5.9 C 0 km/h
1350 13-12-2003 03:06:00 6 C 6.39 g/m*3 6 C 0 km/h
Sensor: Nr:Datum:Temp:Abs-Feuchte:Windchill:Wind:
Aussen-T/F 1351 13-12-2003 03:18:01 6.2 C 6.47 g/m*3 6.2 C 0 km/h
1352 13-12-2003 03:30:01 6.2 C 6.47 g/m*3 6.2 C 0 km/h
1353 13-12-2003 03:41:01 6.2 C 6.47 g/m*3 6.2 C 0 km/h
1354 13-12-2003 03:53:01 6.3 C 6.51 g/m*3 6.3 C 0 km/h
1355 13-12-2003 04:05:00 6.5 C 6.67 g/m*3 6.5 C 0 km/h
1356 13-12-2003 04:17:00 7 C 6.82 g/m*3 7 C 0 km/h
1357 13-12-2003 04:29:00 7.3 C 7.03 g/m*3 7.3 C 0 km/h
1358 13-12-2003 04:41:00 7.5 C 7.2 g/m*3 7.5 C 0 km/h
1359 13-12-2003 04:53:00 7.6 C 7.25 g/m*3 7.6 C 0 km/h
1360 13-12-2003 05:06:01 7.8 C 7.35 g/m*3 7.8 C 0 km/h
1361 13-12-2003 05:18:01 7.9 C 7.39 g/m*3 7.9 C 0 km/h
1362 13-12-2003 05:30:01 9 C 7.93 g/m*3 9 C 0 km/h
1363 13-12-2003 05:41:01 9.7 C 8.2 g/m*3 9.7 C 0 km/h
1364 13-12-2003 05:53:01 9.9 C 8.12 g/m*3 9.9 C 0 km/h
1365 13-12-2003 06:05:00 10 C 7.99 g/m*3 10 C 0 km/h
1366 13-12-2003 06:17:00 10.2 C 7.99 g/m*3 10.2 C 0 km/h
1367 13-12-2003 06:29:00 10.5 C 8.05 g/m*3 10.5 C 0 km/h
1368 13-12-2003 06:41:00 10.6 C 8 g/m*3 10.6 C 0 km/h
1369 13-12-2003 06:53:00 10.7 C 8.05 g/m*3 10.7 C 0 km/h
1370 13-12-2003 07:06:00 10.7 C 8.05 g/m*3 10.7 C 0 km/h
1371 13-12-2003 07:18:01 10.7 C 7.96 g/m*3 10.7 C 0 km/h
1372 13-12-2003 07:30:01 10.9 C 7.96 g/m*3 10.9 C 0 km/h
1373 13-12-2003 07:41:01 11 C 7.91 g/m*3 11 C 0 km/h
1374 13-12-2003 07:53:01 11 C 7.81 g/m*3 11 C 0 km/h
1375 13-12-2003 08:05:00 11 C 7.91 g/m*3 11 C 0 km/h
Sensor: Nr:Datum:Temp:Abs-Feuchte:Windchill:Wind:
Aussen-T/F 1376 13-12-2003 08:17:00 11.1 C 7.86 g/m*3 11.1 C 0 km/h
1377 13-12-2003 08:29:00 11.2 C 7.8 g/m*3 11.2 C 0 km/h
1378 13-12-2003 08:41:00 11.4 C 7.9 g/m*3 11.4 C 0 km/h
1379 13-12-2003 08:53:00 11.5 C 7.85 g/m*3 11.5 C 0 km/h
1380 13-12-2003 09:06:01 11.6 C 7.8 g/m*3 11.6 C 0 km/h
1381 13-12-2003 09:18:01 11.6 C 7.8 g/m*3 11.6 C 0 km/h
1382 13-12-2003 09:30:01 11.6 C 7.8 g/m*3 11.6 C 0 km/h
1383 13-12-2003 09:41:00 11.6 C 7.8 g/m*3 11.6 C 0 km/h
1384 13-12-2003 09:53:00 11.5 C 7.75 g/m*3 11.5 C 0 km/h
1385 13-12-2003 10:05:00 11.7 C 7.74 g/m*3 11.7 C 0 km/h
1386 13-12-2003 10:17:00 11.6 C 7.69 g/m*3 11.6 C 0 km/h
1387 13-12-2003 10:29:00 11.3 C 7.75 g/m*3 11.3 C 0 km/h
1388 13-12-2003 10:41:00 11.2 C 7.8 g/m*3 11.2 C 0 km/h
1389 13-12-2003 10:53:00 11.4 C 7.8 g/m*3 11.4 C 0 km/h
1390 13-12-2003 11:06:01 11.6 C 7.8 g/m*3 11.6 C 0 km/h
1391 13-12-2003 11:17:00 11.6 C 7.69 g/m*3 11.6 C 0 km/h
1392 13-12-2003 11:18:01 11.6 C 7.69 g/m*3 11.6 C 0 km/h
1393 13-12-2003 11:29:00 11.7 C 7.74 g/m*3 11.7 C 0 km/h
1394 13-12-2003 11:41:01 11.6 C 7.69 g/m*3 11.6 C 0 km/h
1395 13-12-2003 11:53:01 11.7 C 7.74 g/m*3 11.7 C 0 km/h
1396 13-12-2003 12:05:01 11.7 C 7.74 g/m*3 11.7 C 0 km/h
1397 13-12-2003 12:17:01 11.7 C 7.74 g/m*3 11.7 C 0 km/h
1398 13-12-2003 12:29:01 11.8 C 7.79 g/m*3 11.8 C 0 km/h
1399 13-12-2003 12:41:01 12 C 7.67 g/m*3 12 C 0 km/h
1400 13-12-2003 12:53:01 12 C 7.67 g/m*3 12 C 0 km/h
Sensor: Nr:Datum:Temp:Abs-Feuchte:Windchill:Wind:
Aussen-T/F 1401 13-12-2003 13:06:00 12 C 7.67 g/m*3 12 C 0 km/h
1402 13-12-2003 13:18:00 12 C 7.78 g/m*3 12 C 0 km/h
1403 13-12-2003 13:30:00 11.9 C 7.84 g/m*3 11.9 C 0 km/h
1404 13-12-2003 13:41:00 11.7 C 7.84 g/m*3 11.7 C 0 km/h
1405 13-12-2003 13:41:01 11.7 C 7.84 g/m*3 11.7 C 0 km/h
1406 13-12-2003 13:53:00 11.8 C 7.89 g/m*3 11.8 C 0 km/h
1407 13-12-2003 14:05:00 11.8 C 7.89 g/m*3 11.8 C 0 km/h
1408 13-12-2003 14:17:00 12.4 C 8.09 g/m*3 12.4 C 0 km/h
1409 13-12-2003 14:29:00 12 C 7.89 g/m*3 12 C 0 km/h
1410 13-12-2003 14:41:00 12.1 C 7.83 g/m*3 12.1 C 0 km/h
1411 13-12-2003 14:53:00 12.2 C 7.77 g/m*3 12.2 C 0 km/h
1412 13-12-2003 15:06:01 12.2 C 7.77 g/m*3 12.2 C 0 km/h
1413 13-12-2003 15:18:01 12.2 C 7.88 g/m*3 12.2 C 0 km/h
1414 13-12-2003 15:30:01 12.2 C 7.88 g/m*3 12.2 C 0 km/h
1415 13-12-2003 15:41:01 12.2 C 7.88 g/m*3 12.2 C 0 km/h
1416 13-12-2003 15:53:01 12.1 C 7.94 g/m*3 12.1 C 0 km/h
1417 13-12-2003 16:05:00 12 C 7.99 g/m*3 12 C 0 km/h
1418 13-12-2003 16:17:00 12 C 7.99 g/m*3 12 C 0 km/h
1419 13-12-2003 16:29:00 11.8 C 8.1 g/m*3 11.8 C 0 km/h
1420 13-12-2003 16:41:00 11.6 C 8.11 g/m*3 11.6 C 0 km/h
1421 13-12-2003 16:53:00 11.5 C 8.16 g/m*3 11.5 C 0 km/h
1422 13-12-2003 17:06:01 11.6 C 8.11 g/m*3 11.6 C 0 km/h
1423 13-12-2003 17:18:01 11.7 C 8.05 g/m*3 11.7 C 0 km/h
1424 13-12-2003 17:30:01 11.9 C 7.84 g/m*3 11.9 C 0 km/h
1425 13-12-2003 17:41:01 12 C 7.78 g/m*3 12 C 0 km/h
Sensor: Nr:Datum:Temp:Abs-Feuchte:Windchill:Wind:
Aussen-T/F 1426 13-12-2003 17:53:01 12.2 C 7.66 g/m*3 12.2 C 0 km/h
1427 13-12-2003 18:05:01 12.2 C 7.55 g/m*3 12.2 C 0 km/h
1428 13-12-2003 18:17:01 12.2 C 7.55 g/m*3 12.2 C 0 km/h
1429 13-12-2003 18:29:01 12.2 C 7.55 g/m*3 12.2 C 0 km/h
1430 13-12-2003 18:41:00 12.1 C 7.51 g/m*3 12.1 C 0 km/h
1431 13-12-2003 18:53:00 12.1 C 7.61 g/m*3 12.1 C 0 km/h
1432 13-12-2003 19:05:01 12 C 7.57 g/m*3 12 C 0 km/h
1433 13-12-2003 19:17:01 12 C 7.57 g/m*3 12 C 0 km/h
1434 13-12-2003 19:29:01 12.4 C 7.87 g/m*3 12.4 C 0 km/h
1435 13-12-2003 19:41:01 11.7 C 7.84 g/m*3 11.7 C 0 km/h
1436 13-12-2003 19:53:01 11.4 C 7.9 g/m*3 11.4 C 0 km/h
1437 13-12-2003 20:05:01 11.5 C 7.85 g/m*3 11.5 C 0 km/h
1438 13-12-2003 20:17:01 11.8 C 7.79 g/m*3 11.8 C 0 km/h
1439 13-12-2003 20:29:01 11.8 C 7.79 g/m*3 11.8 C 0 km/h
1440 13-12-2003 20:41:00 11.9 C 7.73 g/m*3 11.9 C 0 km/h
1441 13-12-2003 20:53:00 12 C 7.57 g/m*3 12 C 0 km/h
1442 13-12-2003 21:05:00 12 C 7.57 g/m*3 12 C 0 km/h
1443 13-12-2003 21:17:00 12.1 C 7.51 g/m*3 12.1 C 0 km/h
1444 13-12-2003 21:29:00 12.3 C 7.49 g/m*3 12.3 C 0 km/h
1445 13-12-2003 21:41:00 12.1 C 7.51 g/m*3 12.1 C 0 km/h
1446 13-12-2003 21:53:00 12.2 C 7.55 g/m*3 12.2 C 0 km/h
1447 13-12-2003 22:06:01 12.2 C 7.55 g/m*3 12.2 C 0 km/h
1448 13-12-2003 22:18:01 11.6 C 7.8 g/m*3 11.6 C 0 km/h
1449 13-12-2003 22:30:01 11.1 C 7.86 g/m*3 11.1 C 0 km/h
1450 13-12-2003 22:41:01 10.9 C 8.06 g/m*3 10.9 C 0 km/h
Sensor: Nr:Datum:Temp:Abs-Feuchte:Windchill:Wind:
Aussen-T/F 1451 13-12-2003 22:53:01 10.9 C 8.06 g/m*3 10.9 C 0 km/h
1452 13-12-2003 23:05:00 10.7 C 8.05 g/m*3 10.7 C 0 km/h
1453 13-12-2003 23:17:00 10.7 C 8.05 g/m*3 10.7 C 0 km/h
1454 13-12-2003 23:29:00 10.8 C 8.11 g/m*3 10.8 C 0 km/h
1455 13-12-2003 23:41:01 11 C 8.01 g/m*3 11 C 0 km/h
1456 13-12-2003 23:53:01 11.1 C 7.96 g/m*3 11.1 C 0 km/h
1457 14-12-2003 00:05:01 10.9 C 7.96 g/m*3 10.9 C 0 km/h
1458 14-12-2003 00:17:01 11 C 8.01 g/m*3 11 C 0 km/h
1459 14-12-2003 00:29:01 10.8 C 8.01 g/m*3 10.8 C 0 km/h
1460 14-12-2003 00:41:00 10.8 C 8.01 g/m*3 10.8 C 0 km/h
1461 14-12-2003 00:53:00 11 C 7.91 g/m*3 11 C 0 km/h
1462 14-12-2003 01:05:00 11 C 7.81 g/m*3 11 C 0 km/h
1463 14-12-2003 01:17:00 11.2 C 7.5 g/m*3 11.2 C 0 km/h
1464 14-12-2003 01:29:00 11.1 C 7.35 g/m*3 11.1 C 0 km/h
1465 14-12-2003 01:41:00 11.1 C 7.25 g/m*3 11.1 C 0 km/h
1466 14-12-2003 01:53:00 11.2 C 7.2 g/m*3 11.2 C 0 km/h
1467 14-12-2003 02:06:01 11 C 7.21 g/m*3 11 C 0 km/h
1468 14-12-2003 02:18:01 11 C 7.21 g/m*3 11 C 0 km/h
1469 14-12-2003 02:30:01 10.8 C 7.31 g/m*3 10.8 C 0 km/h
1470 14-12-2003 02:41:01 10.6 C 7.42 g/m*3 10.6 C 0 km/h
1471 14-12-2003 02:53:01 10.4 C 7.42 g/m*3 10.4 C 0 km/h
1472 14-12-2003 03:05:00 10 C 7.33 g/m*3 10 C 0 km/h
1473 14-12-2003 03:17:00 9.9 C 7.38 g/m*3 9.9 C 0 km/h
1474 14-12-2003 03:29:00 10 C 7.33 g/m*3 10 C 0 km/h
1475 14-12-2003 03:41:00 10.5 C 7.08 g/m*3 10.5 C 0 km/h
Sensor: Nr:Datum:Temp:Abs-Feuchte:Windchill:Wind:
Aussen-T/F 1476 14-12-2003 03:53:00 10.6 C 6.83 g/m*3 10.6 C 0 km/h
1477 14-12-2003 04:06:01 10.6 C 6.34 g/m*3 10.6 C 0 km/h
1478 14-12-2003 04:18:01 10.2 C 6.28 g/m*3 10.2 C 0 km/h
1479 14-12-2003 04:30:01 10.1 C 5.96 g/m*3 10.1 C 0 km/h
1480 14-12-2003 04:41:00 9.8 C 5.94 g/m*3 9.8 C 0 km/h
1481 14-12-2003 04:41:01 9.8 C 5.94 g/m*3 9.8 C 0 km/h
1482 14-12-2003 04:53:00 9.6 C 5.86 g/m*3 9.6 C 0 km/h
1483 14-12-2003 05:05:00 9.3 C 5.84 g/m*3 9.3 C 0 km/h
1484 14-12-2003 05:17:00 9.3 C 6.02 g/m*3 9.3 C 0 km/h
1485 14-12-2003 05:29:01 9.4 C 6.06 g/m*3 9.4 C 0 km/h
1486 14-12-2003 05:41:00 9.3 C 6.11 g/m*3 9.3 C 0 km/h
1487 14-12-2003 05:53:01 8.7 C 6.31 g/m*3 8.7 C 0 km/h
1488 14-12-2003 06:05:00 8.4 C 6.45 g/m*3 8.4 C 0 km/h
1489 14-12-2003 06:17:00 8 C 6.12 g/m*3 8 C 0 km/h
1490 14-12-2003 06:29:00 7.8 C 5.79 g/m*3 7.8 C 0 km/h
1491 14-12-2003 06:41:00 7.8 C 5.55 g/m*3 7.8 C 0 km/h
1492 14-12-2003 06:53:00 7.7 C 5.51 g/m*3 7.7 C 0 km/h
1493 14-12-2003 07:06:01 7.7 C 5.35 g/m*3 7.7 C 0 km/h
1494 14-12-2003 07:18:01 7.8 C 5.39 g/m*3 7.8 C 0 km/h
1495 14-12-2003 07:30:01 7.7 C 5.35 g/m*3 7.7 C 0 km/h
1496 14-12-2003 07:41:01 7.5 C 5.2 g/m*3 7.5 C 0 km/h
1497 14-12-2003 07:53:01 7.4 C 5.25 g/m*3 7.4 C 0 km/h
1498 14-12-2003 08:05:00 6.7 C 5.24 g/m*3 6.7 C 0 km/h
1499 14-12-2003 08:17:00 6.7 C 5.32 g/m*3 6.7 C 0 km/h
1500 14-12-2003 08:29:00 6.4 C 5.07 g/m*3 6.4 C 0 km/h
Sensor: Nr:Datum:Temp:Abs-Feuchte:Windchill:Wind:
Aussen-T/F 1501 14-12-2003 08:41:00 6.5 C 5.17 g/m*3 6.5 C 0 km/h
1502 14-12-2003 08:41:01 6.5 C 5.17 g/m*3 6.5 C 0 km/h
1503 14-12-2003 08:53:00 6.6 C 5.13 g/m*3 6.6 C 0 km/h
1504 14-12-2003 09:05:00 6.8 C 5.12 g/m*3 6.8 C 0 km/h
1505 14-12-2003 09:17:00 6.9 C 5.16 g/m*3 6.9 C 0 km/h
1506 14-12-2003 09:29:00 7 C 5.04 g/m*3 7 C 0 km/h
1507 14-12-2003 09:41:00 7 C 4.96 g/m*3 7 C 0 km/h
1508 14-12-2003 09:53:00 7.1 C 4.84 g/m*3 7.1 C 0 km/h
1509 14-12-2003 10:06:00 7.1 C 4.76 g/m*3 7.1 C 0 km/h
1510 14-12-2003 10:18:01 7.3 C 4.74 g/m*3 7.3 C 0 km/h
1511 14-12-2003 10:30:01 7.5 C 4.72 g/m*3 7.5 C 0 km/h
1512 14-12-2003 10:41:00 7.5 C 4.8 g/m*3 7.5 C 0 km/h
1513 14-12-2003 10:53:00 7.3 C 4.82 g/m*3 7.3 C 0 km/h
1514 14-12-2003 11:05:00 6.9 C 5.08 g/m*3 6.9 C 0 km/h
1515 14-12-2003 11:17:00 6.9 C 5.08 g/m*3 6.9 C 0 km/h
1516 14-12-2003 11:29:00 7.1 C 4.99 g/m*3 7.1 C 0 km/h
1517 14-12-2003 11:41:00 7 C 4.88 g/m*3 7 C 0 km/h
1518 14-12-2003 11:53:00 6.8 C 5.05 g/m*3 6.8 C 0 km/h
1519 14-12-2003 12:05:01 7.1 C 5.07 g/m*3 7.1 C 0 km/h
1520 14-12-2003 12:17:01 7.4 C 4.93 g/m*3 7.4 C 0 km/h
1521 14-12-2003 12:29:01 7.3 C 4.82 g/m*3 7.3 C 0 km/h
1522 14-12-2003 12:41:00 7.4 C 4.85 g/m*3 7.4 C 0 km/h
1523 14-12-2003 12:53:00 7.4 C 4.85 g/m*3 7.4 C 0 km/h
1524 14-12-2003 13:06:00 7.5 C 4.8 g/m*3 7.5 C 0 km/h
1525 14-12-2003 13:18:01 7.6 C 4.83 g/m*3 7.6 C 0 km/h
Sensor: Nr:Datum:Temp:Abs-Feuchte:Windchill:Wind:
Aussen-T/F 1526 14-12-2003 13:30:01 7.6 C 4.75 g/m*3 7.6 C 0 km/h
1527 14-12-2003 13:41:00 7.8 C 4.65 g/m*3 7.8 C 0 km/h
1528 14-12-2003 13:53:00 7.8 C 4.57 g/m*3 7.8 C 0 km/h
1529 14-12-2003 14:05:00 7.7 C 4.54 g/m*3 7.7 C 0 km/h
1530 14-12-2003 14:17:00 7.8 C 4.57 g/m*3 7.8 C 0 km/h
1531 14-12-2003 14:29:00 7.8 C 4.65 g/m*3 7.8 C 0 km/h
1532 14-12-2003 14:41:01 7.8 C 4.65 g/m*3 7.8 C 0 km/h
1533 14-12-2003 14:53:00 7.8 C 4.57 g/m*3 7.8 C 0 km/h
1534 14-12-2003 14:53:01 7.8 C 4.57 g/m*3 7.8 C 0 km/h
1535 14-12-2003 15:05:00 7.8 C 4.57 g/m*3 7.8 C 0 km/h
1536 14-12-2003 15:17:00 7.7 C 4.62 g/m*3 7.7 C 0 km/h
1537 14-12-2003 15:29:00 7.6 C 4.59 g/m*3 7.6 C 0 km/h
1538 14-12-2003 15:41:00 7.6 C 4.67 g/m*3 7.6 C 0 km/h
1539 14-12-2003 15:53:00 7.4 C 4.61 g/m*3 7.4 C 0 km/h
1540 14-12-2003 16:06:00 7.1 C 4.52 g/m*3 7.1 C 0 km/h
1541 14-12-2003 16:18:01 7.3 C 4.58 g/m*3 7.3 C 0 km/h
1542 14-12-2003 16:30:01 6.9 C 4.54 g/m*3 6.9 C 0 km/h
1543 14-12-2003 16:41:01 6.7 C 4.64 g/m*3 6.7 C 0 km/h
1544 14-12-2003 16:53:01 6.6 C 4.6 g/m*3 6.6 C 0 km/h
1545 14-12-2003 17:05:00 6.3 C 4.59 g/m*3 6.3 C 0 km/h
1546 14-12-2003 17:17:00 6.2 C 4.63 g/m*3 6.2 C 0 km/h
1547 14-12-2003 17:29:00 6 C 4.57 g/m*3 6 C 0 km/h
1548 14-12-2003 17:41:00 6 C 4.57 g/m*3 6 C 0 km/h
1549 14-12-2003 17:53:00 6 C 4.5 g/m*3 6 C 0 km/h
1550 14-12-2003 18:06:01 5.9 C 4.69 g/m*3 5.9 C 0 km/h
Sensor: Nr:Datum:Temp:Abs-Feuchte:Windchill:Wind:
Aussen-T/F 1551 14-12-2003 18:18:01 5.9 C 4.76 g/m*3 5.9 C 0 km/h
1552 14-12-2003 18:30:01 5.9 C 4.76 g/m*3 5.9 C 0 km/h
1553 14-12-2003 18:41:00 6.2 C 4.71 g/m*3 6.2 C 0 km/h
1554 14-12-2003 18:53:00 5.9 C 4.76 g/m*3 5.9 C 0 km/h
1555 14-12-2003 19:05:01 5.9 C 4.83 g/m*3 5.9 C 0 km/h
1556 14-12-2003 19:17:01 6 C 4.79 g/m*3 6 C 0 km/h
1557 14-12-2003 19:29:01 6.1 C 4.89 g/m*3 6.1 C 0 km/h
1558 14-12-2003 19:41:00 6.1 C 4.89 g/m*3 6.1 C 0 km/h
1559 14-12-2003 19:53:00 6.1 C 4.89 g/m*3 6.1 C 0 km/h
1560 14-12-2003 20:06:01 6.3 C 4.81 g/m*3 6.3 C 0 km/h
1561 14-12-2003 20:17:00 6.5 C 4.8 g/m*3 6.5 C 0 km/h
1562 14-12-2003 20:18:01 6.5 C 4.8 g/m*3 6.5 C 0 km/h
1563 14-12-2003 20:29:00 6.8 C 4.82 g/m*3 6.8 C 0 km/h
1564 14-12-2003 20:41:01 6.7 C 4.86 g/m*3 6.7 C 0 km/h
1565 14-12-2003 20:53:01 6.8 C 4.82 g/m*3 6.8 C 0 km/h
1566 14-12-2003 21:05:00 6.7 C 4.86 g/m*3 6.7 C 0 km/h
1567 14-12-2003 21:17:00 6.6 C 4.76 g/m*3 6.6 C 0 km/h
1568 14-12-2003 21:29:00 6.3 C 4.74 g/m*3 6.3 C 0 km/h
1569 14-12-2003 21:41:01 6.2 C 4.78 g/m*3 6.2 C 0 km/h
1570 14-12-2003 21:53:01 5.9 C 4.9 g/m*3 5.9 C 0 km/h
1571 14-12-2003 22:05:00 5.8 C 4.87 g/m*3 5.8 C 0 km/h
1572 14-12-2003 22:17:00 5.6 C 4.81 g/m*3 5.6 C 0 km/h
1573 14-12-2003 22:29:00 5.6 C 4.81 g/m*3 5.6 C 0 km/h
1574 14-12-2003 22:41:00 5.6 C 4.81 g/m*3 5.6 C 0 km/h
1575 14-12-2003 22:53:00 5.6 C 4.81 g/m*3 5.6 C 0 km/h
Sensor: Nr:Datum:Temp:Abs-Feuchte:Windchill:Wind:
Aussen-T/F 1576 14-12-2003 23:06:01 6.3 C 4.74 g/m*3 6.3 C 0 km/h
1577 14-12-2003 23:18:01 6.4 C 4.69 g/m*3 6.4 C 0 km/h
1578 14-12-2003 23:30:01 6.3 C 4.66 g/m*3 6.3 C 0 km/h
1579 14-12-2003 23:41:01 6.3 C 4.66 g/m*3 6.3 C 0 km/h
1580 14-12-2003 23:53:01 6.7 C 4.71 g/m*3 6.7 C 0 km/h
1581 15-12-2003 00:05:00 6.6 C 4.68 g/m*3 6.6 C 0 km/h
1582 15-12-2003 00:17:01 5.8 C 5.09 g/m*3 5.8 C 0 km/h
1583 15-12-2003 00:29:01 5.5 C 5.27 g/m*3 5.5 C 0 km/h
1584 15-12-2003 00:41:00 5.1 C 5.27 g/m*3 5.1 C 0 km/h
1585 15-12-2003 00:53:01 4.9 C 5.27 g/m*3 4.9 C 0 km/h
1586 15-12-2003 01:05:00 4.9 C 5.13 g/m*3 4.9 C 0 km/h
1587 15-12-2003 01:17:00 5 C 5.1 g/m*3 5 C 0 km/h
1588 15-12-2003 01:17:01 5 C 5.1 g/m*3 5 C 0 km/h
1589 15-12-2003 01:29:01 5 C 5.03 g/m*3 5 C 0 km/h
1590 15-12-2003 01:41:01 4.8 C 5.03 g/m*3 4.8 C 0 km/h
1591 15-12-2003 01:53:01 2.9 C 4.67 g/m*3 2.9 C 0 km/h
1592 15-12-2003 02:05:00 2.8 C 4.81 g/m*3 2.8 C 0 km/h
1593 15-12-2003 02:17:00 2.9 C 4.9 g/m*3 2.9 C 0 km/h
1594 15-12-2003 02:29:00 3.2 C 4.94 g/m*3 3.2 C 0 km/h
1595 15-12-2003 02:41:00 3.3 C 4.91 g/m*3 3.3 C 0 km/h
1596 15-12-2003 02:53:00 3.2 C 4.82 g/m*3 3.2 C 0 km/h
1597 15-12-2003 03:06:01 3.1 C 4.73 g/m*3 3.1 C 0 km/h
1598 15-12-2003 03:18:01 2.8 C 4.75 g/m*3 2.8 C 0 km/h
1599 15-12-2003 03:30:01 2.6 C 4.69 g/m*3 2.6 C 0 km/h
1600 15-12-2003 03:41:01 2.4 C 4.62 g/m*3 2.4 C 0 km/h
Sensor: Nr:Datum:Temp:Abs-Feuchte:Windchill:Wind:
Aussen-T/F 1601 15-12-2003 03:53:01 2.1 C 4.42 g/m*3 2.1 C 0 km/h
1602 15-12-2003 04:05:00 1.6 C 4.49 g/m*3 1.6 C 0 km/h
1603 15-12-2003 04:17:00 1.2 C 4.21 g/m*3 1.2 C 0 km/h
1604 15-12-2003 04:29:00 1.1 C 4.23 g/m*3 1.1 C 0 km/h
1605 15-12-2003 04:41:01 1.5 C 4.3 g/m*3 1.5 C 0 km/h
1606 15-12-2003 04:53:01 2 C 4.28 g/m*3 2 C 0 km/h
1607 15-12-2003 05:05:00 1.8 C 4.28 g/m*3 1.8 C 0 km/h
1608 15-12-2003 05:17:00 2.1 C 4.31 g/m*3 2.1 C 0 km/h
1609 15-12-2003 05:29:00 2.3 C 4.2 g/m*3 2.3 C 0 km/h
1610 15-12-2003 05:41:00 2.2 C 4.06 g/m*3 2.2 C 0 km/h
1611 15-12-2003 05:53:00 2.2 C 4 g/m*3 2.2 C 0 km/h
1612 15-12-2003 06:06:01 2 C 3.83 g/m*3 2 C 0 km/h
1613 15-12-2003 06:18:01 1.9 C 3.86 g/m*3 1.9 C 0 km/h
1614 15-12-2003 06:30:01 1.8 C 3.89 g/m*3 1.8 C 0 km/h
1615 15-12-2003 06:41:01 2.1 C 3.92 g/m*3 2.1 C 0 km/h
1616 15-12-2003 06:53:01 2.4 C 3.88 g/m*3 2.4 C 0 km/h
1617 15-12-2003 07:05:00 2.4 C 3.88 g/m*3 2.4 C 0 km/h
1618 15-12-2003 07:17:00 2.4 C 3.77 g/m*3 2.4 C 0 km/h
1619 15-12-2003 07:29:00 2.2 C 3.66 g/m*3 2.2 C 0 km/h
1620 15-12-2003 07:41:00 2.1 C 3.64 g/m*3 2.1 C 0 km/h
1621 15-12-2003 07:53:00 2 C 3.61 g/m*3 2 C 0 km/h
1622 15-12-2003 08:06:01 2.1 C 3.64 g/m*3 2.1 C 0 km/h
1623 15-12-2003 08:18:01 2.2 C 3.6 g/m*3 2.2 C 0 km/h
1624 15-12-2003 08:30:01 2.2 C 3.6 g/m*3 2.2 C 0 km/h
1625 15-12-2003 08:41:00 2.1 C 3.58 g/m*3 2.1 C 0 km/h
Sensor: Nr:Datum:Temp:Abs-Feuchte:Windchill:Wind:
Aussen-T/F 1626 15-12-2003 08:53:01 2.1 C 3.64 g/m*3 2.1 C 0 km/h
1627 15-12-2003 09:05:00 2.4 C 3.71 g/m*3 2.4 C 0 km/h
1628 15-12-2003 09:17:00 2.6 C 3.7 g/m*3 2.6 C 0 km/h
1629 15-12-2003 09:29:00 2.4 C 3.71 g/m*3 2.4 C 0 km/h
1630 15-12-2003 09:41:00 2.2 C 3.72 g/m*3 2.2 C 0 km/h
1631 15-12-2003 09:53:00 2.6 C 3.7 g/m*3 2.6 C 0 km/h
1632 15-12-2003 10:06:01 2.8 C 3.7 g/m*3 2.8 C 0 km/h
1633 15-12-2003 10:18:01 2.9 C 3.66 g/m*3 2.9 C 0 km/h
1634 15-12-2003 10:30:01 3 C 3.63 g/m*3 3 C 0 km/h
1635 15-12-2003 10:41:01 2.9 C 3.66 g/m*3 2.9 C 0 km/h
1636 15-12-2003 10:53:01 3.1 C 3.59 g/m*3 3.1 C 0 km/h
1637 15-12-2003 11:05:00 3.1 C 3.53 g/m*3 3.1 C 0 km/h
1638 15-12-2003 11:17:00 3.2 C 3.56 g/m*3 3.2 C 0 km/h
1639 15-12-2003 11:29:00 3.4 C 3.54 g/m*3 3.4 C 0 km/h
1640 15-12-2003 11:41:00 3.6 C 3.59 g/m*3 3.6 C 0 km/h
1641 15-12-2003 11:53:00 3.7 C 3.61 g/m*3 3.7 C 0 km/h
1642 15-12-2003 12:06:00 4.2 C 3.61 g/m*3 4.2 C 0 km/h
1643 15-12-2003 12:18:00 4.3 C 3.5 g/m*3 4.3 C 0 km/h
1644 15-12-2003 12:30:00 4.4 C 3.53 g/m*3 4.4 C 0 km/h
1645 15-12-2003 12:41:00 4.4 C 3.46 g/m*3 4.4 C 0 km/h
1646 15-12-2003 12:53:01 4.5 C 3.55 g/m*3 4.5 C 0 km/h
1647 15-12-2003 13:05:00 4.6 C 3.64 g/m*3 4.6 C 0 km/h
1648 15-12-2003 13:17:00 4.7 C 3.66 g/m*3 4.7 C 0 km/h
1649 15-12-2003 13:29:00 4.7 C 3.6 g/m*3 4.7 C 0 km/h
1650 15-12-2003 13:41:01 4.8 C 3.62 g/m*3 4.8 C 0 km/h
Sensor: Nr:Datum:Temp:Abs-Feuchte:Windchill:Wind:
Aussen-T/F 1651 15-12-2003 13:53:01 4.9 C 3.58 g/m*3 4.9 C 0 km/h
1652 15-12-2003 14:05:00 5 C 3.47 g/m*3 5 C 0 km/h
1653 15-12-2003 14:17:00 4.9 C 3.51 g/m*3 4.9 C 0 km/h
1654 15-12-2003 14:29:00 4.9 C 3.51 g/m*3 4.9 C 0 km/h
1655 15-12-2003 14:41:00 4.9 C 3.44 g/m*3 4.9 C 0 km/h
1656 15-12-2003 14:53:00 4.8 C 3.49 g/m*3 4.8 C 0 km/h
1657 15-12-2003 15:06:00 4.7 C 3.46 g/m*3 4.7 C 0 km/h
1658 15-12-2003 15:18:01 4.7 C 3.4 g/m*3 4.7 C 0 km/h
1659 15-12-2003 15:30:01 4.3 C 3.37 g/m*3 4.3 C 0 km/h
1660 15-12-2003 15:41:01 3.4 C 3.91 g/m*3 3.4 C 0 km/h
1661 15-12-2003 15:53:01 2.9 C 4.25 g/m*3 2.9 C 0 km/h
1662 15-12-2003 16:05:00 2.6 C 4.4 g/m*3 2.6 C 0 km/h
1663 15-12-2003 16:17:00 2.3 C 4.37 g/m*3 2.3 C 0 km/h
1664 15-12-2003 16:29:00 2.1 C 4.53 g/m*3 2.1 C 0 km/h
1665 15-12-2003 16:41:00 2.1 C 4.59 g/m*3 2.1 C 0 km/h
1666 15-12-2003 16:53:00 2.5 C 4.54 g/m*3 2.5 C 0 km/h
1667 15-12-2003 17:06:00 2.8 C 4.4 g/m*3 2.8 C 0 km/h
1668 15-12-2003 17:18:01 3.2 C 4.34 g/m*3 3.2 C 0 km/h
1669 15-12-2003 17:30:01 3 C 4.4 g/m*3 3 C 0 km/h
1670 15-12-2003 17:41:00 2.7 C 4.43 g/m*3 2.7 C 0 km/h
1671 15-12-2003 17:53:01 2.6 C 4.4 g/m*3 2.6 C 0 km/h
1672 15-12-2003 18:05:00 2.2 C 4.34 g/m*3 2.2 C 0 km/h
1673 15-12-2003 18:17:00 2.5 C 4.37 g/m*3 2.5 C 0 km/h
1674 15-12-2003 18:29:00 2.4 C 4.28 g/m*3 2.4 C 0 km/h
1675 15-12-2003 18:41:01 2.5 C 4.25 g/m*3 2.5 C 0 km/h
Sensor: Nr:Datum:Temp:Abs-Feuchte:Windchill:Wind:
Aussen-T/F 1676 15-12-2003 18:53:01 2.6 C 4.28 g/m*3 2.6 C 0 km/h
1677 15-12-2003 19:05:00 2.5 C 4.2 g/m*3 2.5 C 0 km/h
1678 15-12-2003 19:17:00 2.6 C 4.22 g/m*3 2.6 C 0 km/h
1679 15-12-2003 19:29:01 2.5 C 4.2 g/m*3 2.5 C 0 km/h
1680 15-12-2003 19:41:00 2.7 C 4.14 g/m*3 2.7 C 0 km/h
1681 15-12-2003 19:53:00 2.8 C 4.05 g/m*3 2.8 C 0 km/h
1682 15-12-2003 20:06:01 2.7 C 4.08 g/m*3 2.7 C 0 km/h
1683 15-12-2003 20:18:01 2.3 C 4.03 g/m*3 2.3 C 0 km/h
1684 15-12-2003 20:30:01 2.7 C 4.14 g/m*3 2.7 C 0 km/h
1685 15-12-2003 20:41:01 2.5 C 4.08 g/m*3 2.5 C 0 km/h
1686 15-12-2003 20:53:01 2.7 C 4.14 g/m*3 2.7 C 0 km/h
1687 15-12-2003 21:05:00 2.7 C 4.08 g/m*3 2.7 C 0 km/h
1688 15-12-2003 21:17:00 2.6 C 4.05 g/m*3 2.6 C 0 km/h
1689 15-12-2003 21:29:00 2.7 C 4.08 g/m*3 2.7 C 0 km/h
1690 15-12-2003 21:41:01 2.5 C 4.08 g/m*3 2.5 C 0 km/h
1691 15-12-2003 21:53:01 2.4 C 4.17 g/m*3 2.4 C 0 km/h
1692 15-12-2003 22:05:01 2.5 C 4.08 g/m*3 2.5 C 0 km/h
1693 15-12-2003 22:17:01 2.4 C 4.05 g/m*3 2.4 C 0 km/h
1694 15-12-2003 22:29:01 2.4 C 4.05 g/m*3 2.4 C 0 km/h
1695 15-12-2003 22:41:00 2.2 C 4.06 g/m*3 2.2 C 0 km/h
1696 15-12-2003 22:53:00 2.1 C 4.03 g/m*3 2.1 C 0 km/h
1697 15-12-2003 23:05:00 2 C 4 g/m*3 2 C 0 km/h
1698 15-12-2003 23:17:00 1.9 C 4.08 g/m*3 1.9 C 0 km/h
1699 15-12-2003 23:29:00 2.3 C 4.08 g/m*3 2.3 C 0 km/h
1700 15-12-2003 23:41:01 2.2 C 4 g/m*3 2.2 C 0 km/h
Sensor: Nr:Datum:Temp:Abs-Feuchte:Windchill:Wind:
Aussen-T/F 1701 15-12-2003 23:53:01 2 C 4 g/m*3 2 C 0 km/h
1702 16-12-2003 00:05:00 2 C 4.06 g/m*3 2 C 0 km/h
1703 16-12-2003 00:17:00 2 C 4.11 g/m*3 2 C 0 km/h
1704 16-12-2003 00:29:01 1.8 C 4.06 g/m*3 1.8 C 0 km/h
1705 16-12-2003 00:41:00 1.4 C 4 g/m*3 1.4 C 0 km/h
1706 16-12-2003 00:53:00 1.5 C 4.08 g/m*3 1.5 C 0 km/h
1707 16-12-2003 01:06:00 1.6 C 4.06 g/m*3 1.6 C 0 km/h
1708 16-12-2003 01:18:01 1.8 C 4.06 g/m*3 1.8 C 0 km/h
1709 16-12-2003 01:30:01 1.8 C 4.11 g/m*3 1.8 C 0 km/h
1710 16-12-2003 01:41:01 2 C 4.06 g/m*3 2 C 0 km/h
1711 16-12-2003 01:53:01 2.4 C 4.05 g/m*3 2.4 C 0 km/h
1712 16-12-2003 02:05:00 2.2 C 4.06 g/m*3 2.2 C 0 km/h
1713 16-12-2003 02:17:00 2.1 C 4.08 g/m*3 2.1 C 0 km/h
1714 16-12-2003 02:29:00 2 C 4.06 g/m*3 2 C 0 km/h
1715 16-12-2003 02:41:01 2.2 C 4.06 g/m*3 2.2 C 0 km/h
1716 16-12-2003 02:53:01 2.4 C 4.05 g/m*3 2.4 C 0 km/h
1717 16-12-2003 03:05:00 1.9 C 3.97 g/m*3 1.9 C 0 km/h
1718 16-12-2003 03:17:00 2.1 C 4.03 g/m*3 2.1 C 0 km/h
1719 16-12-2003 03:29:00 2.4 C 4.11 g/m*3 2.4 C 0 km/h
1720 16-12-2003 03:41:00 2.8 C 4.11 g/m*3 2.8 C 0 km/h
1721 16-12-2003 03:53:00 3 C 4.04 g/m*3 3 C 0 km/h
1722 16-12-2003 04:06:01 3 C 4.04 g/m*3 3 C 0 km/h
1723 16-12-2003 04:18:01 2.9 C 4.13 g/m*3 2.9 C 0 km/h
1724 16-12-2003 04:30:01 3.1 C 4.13 g/m*3 3.1 C 0 km/h
1725 16-12-2003 04:41:01 3 C 4.16 g/m*3 3 C 0 km/h
Sensor: Nr:Datum:Temp:Abs-Feuchte:Windchill:Wind:
Aussen-T/F 1726 16-12-2003 04:53:01 2.7 C 4.14 g/m*3 2.7 C 0 km/h
1727 16-12-2003 05:05:00 2.6 C 4.17 g/m*3 2.6 C 0 km/h
1728 16-12-2003 05:17:00 2.8 C 4.16 g/m*3 2.8 C 0 km/h
1729 16-12-2003 05:29:00 2.7 C 4.2 g/m*3 2.7 C 0 km/h
1730 16-12-2003 05:41:00 2.7 C 4.2 g/m*3 2.7 C 0 km/h
1731 16-12-2003 05:53:00 3.1 C 4.19 g/m*3 3.1 C 0 km/h
1732 16-12-2003 06:06:00 3 C 4.22 g/m*3 3 C 0 km/h
1733 16-12-2003 06:18:00 2.6 C 4.17 g/m*3 2.6 C 0 km/h
1734 16-12-2003 06:30:01 2.6 C 4.22 g/m*3 2.6 C 0 km/h
1735 16-12-2003 06:41:01 3.1 C 4.25 g/m*3 3.1 C 0 km/h
1736 16-12-2003 06:53:01 3.1 C 4.25 g/m*3 3.1 C 0 km/h
1737 16-12-2003 07:05:00 2.9 C 4.25 g/m*3 2.9 C 0 km/h
1738 16-12-2003 07:17:00 2.8 C 4.28 g/m*3 2.8 C 0 km/h
1739 16-12-2003 07:29:00 2.9 C 4.31 g/m*3 2.9 C 0 km/h
1740 16-12-2003 07:41:01 3.1 C 4.31 g/m*3 3.1 C 0 km/h
1741 16-12-2003 07:53:01 3.2 C 4.28 g/m*3 3.2 C 0 km/h
1742 16-12-2003 08:05:00 3.2 C 4.34 g/m*3 3.2 C 0 km/h
1743 16-12-2003 08:17:00 3.2 C 4.34 g/m*3 3.2 C 0 km/h
1744 16-12-2003 08:29:00 3.2 C 4.28 g/m*3 3.2 C 0 km/h
1745 16-12-2003 08:41:00 3.3 C 4.37 g/m*3 3.3 C 0 km/h
1746 16-12-2003 08:53:00 3.2 C 4.28 g/m*3 3.2 C 0 km/h
1747 16-12-2003 09:06:01 3.1 C 4.31 g/m*3 3.1 C 0 km/h
1748 16-12-2003 09:18:01 3.6 C 4.39 g/m*3 3.6 C 0 km/h
1749 16-12-2003 09:30:01 3.7 C 4.36 g/m*3 3.7 C 0 km/h
1750 16-12-2003 09:41:01 3.8 C 4.39 g/m*3 3.8 C 0 km/h
Sensor: Nr:Datum:Temp:Abs-Feuchte:Windchill:Wind:
Aussen-T/F 1751 16-12-2003 09:53:01 4 C 4.32 g/m*3 4 C 0 km/h
1752 16-12-2003 10:05:00 4.2 C 4.38 g/m*3 4.2 C 0 km/h
1753 16-12-2003 10:17:00 4.3 C 4.41 g/m*3 4.3 C 0 km/h
1754 16-12-2003 10:29:00 4.5 C 4.54 g/m*3 4.5 C 0 km/h
1755 16-12-2003 10:41:00 4.6 C 4.5 g/m*3 4.6 C 0 km/h
1756 16-12-2003 10:53:00 4.7 C 4.53 g/m*3 4.7 C 0 km/h
1757 16-12-2003 11:06:00 4.9 C 4.66 g/m*3 4.9 C 0 km/h
1758 16-12-2003 11:18:01 5.1 C 4.58 g/m*3 5.1 C 0 km/h
1759 16-12-2003 11:30:01 5.1 C 4.51 g/m*3 5.1 C 0 km/h
1760 16-12-2003 11:41:00 5.3 C 4.57 g/m*3 5.3 C 0 km/h
1761 16-12-2003 11:53:01 5.4 C 4.54 g/m*3 5.4 C 0 km/h
1762 16-12-2003 12:05:00 5.4 C 4.54 g/m*3 5.4 C 0 km/h
1763 16-12-2003 12:17:00 5.5 C 4.57 g/m*3 5.5 C 0 km/h
1764 16-12-2003 12:29:00 5.5 C 4.64 g/m*3 5.5 C 0 km/h
1765 16-12-2003 12:41:00 5.6 C 4.67 g/m*3 5.6 C 0 km/h
1766 16-12-2003 12:53:00 5.8 C 4.66 g/m*3 5.8 C 0 km/h
1767 16-12-2003 13:06:00 5.8 C 4.58 g/m*3 5.8 C 0 km/h
1768 16-12-2003 13:18:00 5.7 C 4.55 g/m*3 5.7 C 0 km/h
1769 16-12-2003 13:30:01 5.8 C 4.51 g/m*3 5.8 C 0 km/h
1770 16-12-2003 13:41:00 5.7 C 4.48 g/m*3 5.7 C 0 km/h
1771 16-12-2003 13:53:01 5.7 C 4.55 g/m*3 5.7 C 0 km/h
1772 16-12-2003 14:05:00 5.7 C 4.55 g/m*3 5.7 C 0 km/h
1773 16-12-2003 14:17:00 5.8 C 4.51 g/m*3 5.8 C 0 km/h
1774 16-12-2003 14:29:00 5.8 C 4.51 g/m*3 5.8 C 0 km/h
1775 16-12-2003 14:41:00 5.9 C 4.47 g/m*3 5.9 C 0 km/h
Sensor: Nr:Datum:Temp:Abs-Feuchte:Windchill:Wind:
Aussen-T/F 1776 16-12-2003 14:53:00 5.8 C 4.44 g/m*3 5.8 C 0 km/h
1777 16-12-2003 15:06:01 5.7 C 4.48 g/m*3 5.7 C 0 km/h
1778 16-12-2003 15:18:01 5.4 C 4.54 g/m*3 5.4 C 0 km/h
1779 16-12-2003 15:30:01 5.2 C 4.61 g/m*3 5.2 C 0 km/h
1780 16-12-2003 15:41:01 5.1 C 4.72 g/m*3 5.1 C 0 km/h
1781 16-12-2003 15:53:01 5 C 4.76 g/m*3 5 C 0 km/h
1782 16-12-2003 16:05:00 4.8 C 4.9 g/m*3 4.8 C 0 km/h
1783 16-12-2003 16:17:00 4.8 C 4.83 g/m*3 4.8 C 0 km/h
1784 16-12-2003 16:29:00 4.6 C 4.9 g/m*3 4.6 C 0 km/h
1785 16-12-2003 16:41:00 4.6 C 4.96 g/m*3 4.6 C 0 km/h
1786 16-12-2003 16:53:00 4.6 C 4.83 g/m*3 4.6 C 0 km/h
1787 16-12-2003 17:06:01 4.5 C 4.93 g/m*3 4.5 C 0 km/h
1788 16-12-2003 17:18:01 4.4 C 4.9 g/m*3 4.4 C 0 km/h
1789 16-12-2003 17:30:01 4.4 C 4.9 g/m*3 4.4 C 0 km/h
1790 16-12-2003 17:41:01 4.4 C 4.9 g/m*3 4.4 C 0 km/h
1791 16-12-2003 17:53:01 4.5 C 4.93 g/m*3 4.5 C 0 km/h
1792 16-12-2003 18:05:00 4.5 C 4.93 g/m*3 4.5 C 0 km/h
1793 16-12-2003 18:17:00 4.5 C 4.86 g/m*3 4.5 C 0 km/h
1794 16-12-2003 18:29:00 4.4 C 4.83 g/m*3 4.4 C 0 km/h
1795 16-12-2003 18:41:01 4.2 C 4.83 g/m*3 4.2 C 0 km/h
1796 16-12-2003 18:53:01 3.9 C 4.74 g/m*3 3.9 C 0 km/h
1797 16-12-2003 19:05:00 3.6 C 4.7 g/m*3 3.6 C 0 km/h
1798 16-12-2003 19:17:00 3.3 C 4.73 g/m*3 3.3 C 0 km/h
1799 16-12-2003 19:29:00 3.3 C 4.79 g/m*3 3.3 C 0 km/h
1800 16-12-2003 19:41:00 3.5 C 4.86 g/m*3 3.5 C 0 km/h
Sensor: Nr:Datum:Temp:Abs-Feuchte:Windchill:Wind:
Aussen-T/F 1801 16-12-2003 19:53:00 3.6 C 4.77 g/m*3 3.6 C 0 km/h
1802 16-12-2003 20:06:01 3.7 C 4.8 g/m*3 3.7 C 0 km/h
1803 16-12-2003 20:18:01 3.9 C 4.8 g/m*3 3.9 C 0 km/h
1804 16-12-2003 20:30:01 3.9 C 4.8 g/m*3 3.9 C 0 km/h
1805 16-12-2003 20:41:00 3.8 C 4.77 g/m*3 3.8 C 0 km/h
1806 16-12-2003 20:53:00 4.1 C 4.74 g/m*3 4.1 C 0 km/h
1807 16-12-2003 21:05:00 4.2 C 4.7 g/m*3 4.2 C 0 km/h
1808 16-12-2003 21:17:00 4.1 C 4.67 g/m*3 4.1 C 0 km/h
1809 16-12-2003 21:29:00 4.1 C 4.67 g/m*3 4.1 C 0 km/h
1810 16-12-2003 21:42:02 4.2 C 4.7 g/m*3 4.2 C 0 km/h
1811 16-12-2003 21:54:02 4.2 C 4.64 g/m*3 4.2 C 0 km/h
1812 16-12-2003 22:06:02 4.1 C 4.61 g/m*3 4.1 C 0 km/h
1813 16-12-2003 22:18:02 4.2 C 4.64 g/m*3 4.2 C 0 km/h
1814 16-12-2003 22:30:02 4.2 C 4.64 g/m*3 4.2 C 0 km/h
1815 16-12-2003 22:42:02 4.1 C 4.61 g/m*3 4.1 C 0 km/h
1816 16-12-2003 22:54:02 4.2 C 4.64 g/m*3 4.2 C 0 km/h
1817 16-12-2003 23:06:02 4.3 C 4.61 g/m*3 4.3 C 0 km/h
1818 16-12-2003 23:18:02 4.3 C 4.61 g/m*3 4.3 C 0 km/h
1819 16-12-2003 23:30:02 4.2 C 4.57 g/m*3 4.2 C 0 km/h
1820 16-12-2003 23:42:02 4.1 C 4.61 g/m*3 4.1 C 0 km/h
1821 16-12-2003 23:54:02 4.1 C 4.61 g/m*3 4.1 C 0 km/h
1822 17-12-2003 00:06:02 4.1 C 4.61 g/m*3 4.1 C 0 km/h
1823 17-12-2003 00:18:02 4.1 C 4.61 g/m*3 4.1 C 0 km/h
1824 17-12-2003 00:30:02 4 C 4.58 g/m*3 4 C 0 km/h
1825 17-12-2003 00:42:02 4.1 C 4.61 g/m*3 4.1 C 0 km/h
Sensor: Nr:Datum:Temp:Abs-Feuchte:Windchill:Wind:
Aussen-T/F 1826 17-12-2003 00:54:02 4 C 4.64 g/m*3 4 C 0 km/h
1827 17-12-2003 01:06:02 3.8 C 4.64 g/m*3 3.8 C 0 km/h
1828 17-12-2003 01:18:02 3.7 C 4.61 g/m*3 3.7 C 0 km/h
1829 17-12-2003 01:30:02 3.6 C 4.64 g/m*3 3.6 C 0 km/h
1830 17-12-2003 01:42:02 3.6 C 4.64 g/m*3 3.6 C 0 km/h
1831 17-12-2003 01:54:02 3.4 C 4.64 g/m*3 3.4 C 0 km/h
1832 17-12-2003 02:06:02 3.2 C 4.64 g/m*3 3.2 C 0 km/h
1833 17-12-2003 02:18:02 3.2 C 4.64 g/m*3 3.2 C 0 km/h
1834 17-12-2003 02:30:02 3.2 C 4.64 g/m*3 3.2 C 0 km/h
1835 17-12-2003 02:42:02 3.1 C 4.61 g/m*3 3.1 C 0 km/h
1836 17-12-2003 02:54:02 3.1 C 4.67 g/m*3 3.1 C 0 km/h
1837 17-12-2003 03:06:02 3.1 C 4.67 g/m*3 3.1 C 0 km/h
1838 17-12-2003 03:18:02 3.1 C 4.67 g/m*3 3.1 C 0 km/h
1839 17-12-2003 03:30:02 3.1 C 4.67 g/m*3 3.1 C 0 km/h
1840 17-12-2003 03:42:02 3.1 C 4.61 g/m*3 3.1 C 0 km/h
1841 17-12-2003 03:54:02 3.1 C 4.61 g/m*3 3.1 C 0 km/h
1842 17-12-2003 04:06:02 3 C 4.58 g/m*3 3 C 0 km/h
1843 17-12-2003 04:18:02 3 C 4.64 g/m*3 3 C 0 km/h
1844 17-12-2003 04:30:02 3 C 4.64 g/m*3 3 C 0 km/h
1845 17-12-2003 04:42:02 3 C 4.64 g/m*3 3 C 0 km/h
1846 17-12-2003 04:54:02 3.1 C 4.67 g/m*3 3.1 C 0 km/h
1847 17-12-2003 05:06:02 3 C 4.64 g/m*3 3 C 0 km/h
1848 17-12-2003 05:18:02 2.8 C 4.63 g/m*3 2.8 C 0 km/h
1849 17-12-2003 05:30:02 2.7 C 4.6 g/m*3 2.7 C 0 km/h
1850 17-12-2003 05:42:02 2.6 C 4.57 g/m*3 2.6 C 0 km/h
Sensor: Nr:Datum:Temp:Abs-Feuchte:Windchill:Wind:
Aussen-T/F 1851 17-12-2003 05:54:02 2.6 C 4.63 g/m*3 2.6 C 0 km/h
1852 17-12-2003 06:06:02 2.5 C 4.6 g/m*3 2.5 C 0 km/h
1853 17-12-2003 06:18:02 2.5 C 4.66 g/m*3 2.5 C 0 km/h
1854 17-12-2003 06:30:02 2.5 C 4.66 g/m*3 2.5 C 0 km/h
1855 17-12-2003 06:42:02 2.6 C 4.69 g/m*3 2.6 C 0 km/h
1856 17-12-2003 06:54:02 2.6 C 4.69 g/m*3 2.6 C 0 km/h
1857 17-12-2003 07:06:02 2.6 C 4.69 g/m*3 2.6 C 0 km/h
1858 17-12-2003 07:18:02 2.6 C 4.69 g/m*3 2.6 C 0 km/h
1859 17-12-2003 07:30:02 2.6 C 4.69 g/m*3 2.6 C 0 km/h
1860 17-12-2003 07:42:00 2.6 C 4.69 g/m*3 2.6 C 0 km/h
1861 17-12-2003 07:54:00 2.5 C 4.66 g/m*3 2.5 C 0 km/h
1862 17-12-2003 08:06:58 2.5 C 4.66 g/m*3 2.5 C 0 km/h
1863 17-12-2003 08:18:58 2.4 C 4.62 g/m*3 2.4 C 0 km/h
1864 17-12-2003 08:30:58 2.5 C 4.66 g/m*3 2.5 C 0 km/h
1865 17-12-2003 08:42:01 2.4 C 4.62 g/m*3 2.4 C 0 km/h
1866 17-12-2003 08:54:01 2.5 C 4.66 g/m*3 2.5 C 0 km/h
1867 17-12-2003 09:06:01 2.5 C 4.66 g/m*3 2.5 C 0 km/h
1868 17-12-2003 09:18:01 2.6 C 4.69 g/m*3 2.6 C 0 km/h
1869 17-12-2003 09:30:01 2.7 C 4.72 g/m*3 2.7 C 0 km/h
1870 17-12-2003 09:42:00 2.7 C 4.72 g/m*3 2.7 C 0 km/h
1871 17-12-2003 09:54:00 2.9 C 4.78 g/m*3 2.9 C 0 km/h
1872 17-12-2003 10:06:58 3.1 C 4.79 g/m*3 3.1 C 0 km/h
1873 17-12-2003 10:18:58 3.2 C 4.76 g/m*3 3.2 C 0 km/h
1874 17-12-2003 10:30:58 3.5 C 4.86 g/m*3 3.5 C 0 km/h
1875 17-12-2003 10:42:01 3.7 C 4.92 g/m*3 3.7 C 0 km/h
Sensor: Nr:Datum:Temp:Abs-Feuchte:Windchill:Wind:
Aussen-T/F 1876 17-12-2003 10:54:01 4 C 4.9 g/m*3 4 C 0 km/h
1877 17-12-2003 11:06:01 4.1 C 4.8 g/m*3 4.1 C 0 km/h
1878 17-12-2003 11:18:01 4.3 C 4.8 g/m*3 4.3 C 0 km/h
1879 17-12-2003 11:30:01 4.5 C 4.8 g/m*3 4.5 C 0 km/h
1880 17-12-2003 11:42:00 4.6 C 4.76 g/m*3 4.6 C 0 km/h
1881 17-12-2003 11:54:00 4.4 C 4.77 g/m*3 4.4 C 0 km/h
1882 17-12-2003 12:06:59 4.4 C 4.83 g/m*3 4.4 C 0 km/h
1883 17-12-2003 12:18:59 4.6 C 4.9 g/m*3 4.6 C 0 km/h
1884 17-12-2003 12:30:59 4.9 C 4.93 g/m*3 4.9 C 0 km/h
1885 17-12-2003 12:42:00 5.5 C 4.99 g/m*3 5.5 C 0 km/h
1886 17-12-2003 12:54:00 6.1 C 5.04 g/m*3 6.1 C 0 km/h
1887 17-12-2003 13:06:00 6.5 C 5.1 g/m*3 6.5 C 0 km/h
1888 17-12-2003 13:18:00 6.6 C 5.13 g/m*3 6.6 C 0 km/h
1889 17-12-2003 13:30:00 6.5 C 5.02 g/m*3 6.5 C 0 km/h
1890 17-12-2003 13:42:01 6.5 C 5.02 g/m*3 6.5 C 0 km/h
1891 17-12-2003 13:54:01 6.6 C 5.06 g/m*3 6.6 C 0 km/h
1892 17-12-2003 14:06:01 6.4 C 4.84 g/m*3 6.4 C 0 km/h
1893 17-12-2003 14:18:01 6.4 C 4.92 g/m*3 6.4 C 0 km/h
1894 17-12-2003 14:30:01 6.4 C 4.92 g/m*3 6.4 C 0 km/h
1895 17-12-2003 14:42:01 6.3 C 4.96 g/m*3 6.3 C 0 km/h
1896 17-12-2003 14:54:01 6.3 C 5.03 g/m*3 6.3 C 0 km/h
1897 17-12-2003 15:06:01 6.2 C 5.15 g/m*3 6.2 C 0 km/h
1898 17-12-2003 15:18:01 6.2 C 5.22 g/m*3 6.2 C 0 km/h
1899 17-12-2003 15:30:01 6.2 C 5.07 g/m*3 6.2 C 0 km/h
1900 17-12-2003 15:42:00 6 C 5.08 g/m*3 6 C 0 km/h
Sensor: Nr:Datum:Temp:Abs-Feuchte:Windchill:Wind:
Aussen-T/F 1901 17-12-2003 15:54:00 5.6 C 5.09 g/m*3 5.6 C 0 km/h
1902 17-12-2003 16:06:58 5.3 C 4.92 g/m*3 5.3 C 0 km/h
1903 17-12-2003 16:18:58 5 C 4.82 g/m*3 5 C 0 km/h
1904 17-12-2003 16:30:58 4.7 C 4.73 g/m*3 4.7 C 0 km/h
1905 17-12-2003 16:42:01 4.4 C 4.57 g/m*3 4.4 C 0 km/h
1906 17-12-2003 16:54:01 4.3 C 4.61 g/m*3 4.3 C 0 km/h
1907 17-12-2003 17:06:01 4.2 C 4.57 g/m*3 4.2 C 0 km/h
1908 17-12-2003 17:18:01 4.1 C 4.61 g/m*3 4.1 C 0 km/h
1909 17-12-2003 17:30:01 4 C 4.64 g/m*3 4 C 0 km/h
1910 17-12-2003 17:42:00 3.9 C 4.67 g/m*3 3.9 C 0 km/h
1911 17-12-2003 17:54:00 4 C 4.64 g/m*3 4 C 0 km/h
1912 17-12-2003 18:06:58 4 C 4.7 g/m*3 4 C 0 km/h
1913 17-12-2003 18:18:58 4 C 4.7 g/m*3 4 C 0 km/h
1914 17-12-2003 18:30:58 4 C 4.7 g/m*3 4 C 0 km/h
1915 17-12-2003 18:42:01 4 C 4.7 g/m*3 4 C 0 km/h
1916 17-12-2003 18:54:01 3.9 C 4.74 g/m*3 3.9 C 0 km/h
1917 17-12-2003 19:06:01 3.9 C 4.74 g/m*3 3.9 C 0 km/h
1918 17-12-2003 19:18:01 3.8 C 4.71 g/m*3 3.8 C 0 km/h
1919 17-12-2003 19:30:01 3.8 C 4.71 g/m*3 3.8 C 0 km/h
1920 17-12-2003 19:42:00 3.7 C 4.67 g/m*3 3.7 C 0 km/h
1921 17-12-2003 19:54:00 3.7 C 4.74 g/m*3 3.7 C 0 km/h
1922 17-12-2003 20:06:59 3.6 C 4.7 g/m*3 3.6 C 0 km/h
1923 17-12-2003 20:18:59 3.5 C 4.67 g/m*3 3.5 C 0 km/h
1924 17-12-2003 20:30:59 3.4 C 4.7 g/m*3 3.4 C 0 km/h
1925 17-12-2003 20:42:01 3.4 C 4.64 g/m*3 3.4 C 0 km/h
Sensor: Nr:Datum:Temp:Abs-Feuchte:Windchill:Wind:
Aussen-T/F 1926 17-12-2003 20:54:01 3.3 C 4.61 g/m*3 3.3 C 0 km/h
1927 17-12-2003 21:06:01 3.3 C 4.61 g/m*3 3.3 C 0 km/h
1928 17-12-2003 21:18:01 3.2 C 4.58 g/m*3 3.2 C 0 km/h
1929 17-12-2003 21:30:01 3.1 C 4.55 g/m*3 3.1 C 0 km/h
1930 17-12-2003 21:42:00 3 C 4.52 g/m*3 3 C 0 km/h
1931 17-12-2003 21:54:00 2.8 C 4.52 g/m*3 2.8 C 0 km/h
1932 17-12-2003 22:07:00 2.6 C 4.46 g/m*3 2.6 C 0 km/h
1933 17-12-2003 22:19:00 2.6 C 4.46 g/m*3 2.6 C 0 km/h
1934 17-12-2003 22:31:00 2.6 C 4.51 g/m*3 2.6 C 0 km/h
1935 17-12-2003 22:43:00 2.5 C 4.43 g/m*3 2.5 C 0 km/h
1936 17-12-2003 22:55:00 2.4 C 4.4 g/m*3 2.4 C 0 km/h
1937 17-12-2003 23:07:00 2.3 C 4.37 g/m*3 2.3 C 0 km/h
1938 17-12-2003 23:19:00 2 C 4.28 g/m*3 2 C 0 km/h
1939 17-12-2003 23:31:00 1.6 C 4.22 g/m*3 1.6 C 0 km/h
1940 17-12-2003 23:43:00 1.3 C 4.19 g/m*3 1.3 C 0 km/h
1941 17-12-2003 23:55:00 1.1 C 4.13 g/m*3 1.1 C 0 km/h
1942 18-12-2003 00:07:00 0.9 C 4.12 g/m*3 0.9 C 0 km/h
1943 18-12-2003 00:19:00 0.7 C 4.07 g/m*3 0.7 C 0 km/h
1944 18-12-2003 00:31:00 0.6 C 4.09 g/m*3 0.6 C 0 km/h
1945 18-12-2003 00:43:00 0.4 C 4.03 g/m*3 0.4 C 0 km/h
1946 18-12-2003 00:55:00 0.3 C 4.06 g/m*3 0.3 C 0 km/h
1947 18-12-2003 01:07:00 0.2 C 4.03 g/m*3 0.2 C 0 km/h
1948 18-12-2003 01:19:00 0.1 C 4 g/m*3 0.1 C 0 km/h
1949 18-12-2003 01:31:00 -0.1 C 3.95 g/m*3 -0.1 C 0 km/h
1950 18-12-2003 01:43:00 -0.3 C 3.89 g/m*3 -0.3 C 0 km/h
Sensor: Nr:Datum:Temp:Abs-Feuchte:Windchill:Wind:
Aussen-T/F 1951 18-12-2003 01:55:00 -0.2 C 3.92 g/m*3 -0.2 C 0 km/h
1952 18-12-2003 02:07:00 -0.6 C 3.81 g/m*3 -0.6 C 0 km/h
1953 18-12-2003 02:19:00 -0.4 C 3.91 g/m*3 -0.4 C 0 km/h
1954 18-12-2003 02:31:00 -0.6 C 3.86 g/m*3 -0.6 C 0 km/h
1955 18-12-2003 02:43:00 -0.8 C 3.8 g/m*3 -0.8 C 0 km/h
1956 18-12-2003 02:55:00 -0.9 C 3.82 g/m*3 -0.9 C 0 km/h
1957 18-12-2003 03:07:00 -1 C 3.8 g/m*3 -1 C 0 km/h
1958 18-12-2003 03:19:00 -0.9 C 3.82 g/m*3 -0.9 C 0 km/h
1959 18-12-2003 03:31:00 -1 C 3.84 g/m*3 -1 C 0 km/h
1960 18-12-2003 03:43:00 -1.1 C 3.77 g/m*3 -1.1 C 0 km/h
1961 18-12-2003 03:55:00 -1.1 C 3.82 g/m*3 -1.1 C 0 km/h
1962 18-12-2003 04:07:00 -1.2 C 3.79 g/m*3 -1.2 C 0 km/h
1963 18-12-2003 04:19:00 -1.4 C 3.69 g/m*3 -1.4 C 0 km/h
1964 18-12-2003 04:31:00 -1.5 C 3.67 g/m*3 -1.5 C 0 km/h
1965 18-12-2003 04:43:00 -1.4 C 3.74 g/m*3 -1.4 C 0 km/h
1966 18-12-2003 04:55:00 -1.6 C 3.68 g/m*3 -1.6 C 0 km/h
1967 18-12-2003 05:07:00 -1.6 C 3.68 g/m*3 -1.6 C 0 km/h
1968 18-12-2003 05:19:00 -1.6 C 3.68 g/m*3 -1.6 C 0 km/h
1969 18-12-2003 05:31:00 -1.7 C 3.66 g/m*3 -1.7 C 0 km/h
1970 18-12-2003 05:43:00 -1.7 C 3.66 g/m*3 -1.7 C 0 km/h
1971 18-12-2003 05:55:00 -1.8 C 3.63 g/m*3 -1.8 C 0 km/h
1972 18-12-2003 06:07:00 -2 C 3.58 g/m*3 -2 C 0 km/h
1973 18-12-2003 06:19:00 -2.1 C 3.56 g/m*3 -2.1 C 0 km/h
1974 18-12-2003 06:31:00 -2.1 C 3.56 g/m*3 -2.1 C 0 km/h
1975 18-12-2003 06:43:00 -2.3 C 3.51 g/m*3 -2.3 C 0 km/h
Sensor: Nr:Datum:Temp:Abs-Feuchte:Windchill:Wind:
Aussen-T/F 1976 18-12-2003 06:55:00 -2 C 3.58 g/m*3 -2 C 0 km/h
1977 18-12-2003 07:07:00 -2 C 3.63 g/m*3 -2 C 0 km/h
1978 18-12-2003 07:19:00 -1.9 C 3.65 g/m*3 -1.9 C 0 km/h
1979 18-12-2003 07:31:00 -1.8 C 3.68 g/m*3 -1.8 C 0 km/h
1980 18-12-2003 07:43:00 -1.9 C 3.69 g/m*3 -1.9 C 0 km/h
1981 18-12-2003 07:55:00 -1.9 C 3.69 g/m*3 -1.9 C 0 km/h
1982 18-12-2003 08:07:00 -1.9 C 3.69 g/m*3 -1.9 C 0 km/h
1983 18-12-2003 08:19:00 -1.8 C 3.72 g/m*3 -1.8 C 0 km/h
1984 18-12-2003 08:31:00 -1.8 C 3.72 g/m*3 -1.8 C 0 km/h
1985 18-12-2003 08:43:00 -1.8 C 3.76 g/m*3 -1.8 C 0 km/h
1986 18-12-2003 08:55:00 -1.7 C 3.79 g/m*3 -1.7 C 0 km/h
1987 18-12-2003 09:07:00 -1.7 C 3.79 g/m*3 -1.7 C 0 km/h
1988 18-12-2003 09:19:00 -1.7 C 3.79 g/m*3 -1.7 C 0 km/h
1989 18-12-2003 09:31:00 -1.7 C 3.79 g/m*3 -1.7 C 0 km/h
1990 18-12-2003 09:43:00 -1.7 C 3.79 g/m*3 -1.7 C 0 km/h
1991 18-12-2003 09:55:00 -1.6 C 3.81 g/m*3 -1.6 C 0 km/h
1992 18-12-2003 10:07:59 -1.7 C 3.79 g/m*3 -1.7 C 0 km/h
1993 18-12-2003 10:19:59 -1.7 C 3.79 g/m*3 -1.7 C 0 km/h
1994 18-12-2003 10:31:01 -1.6 C 3.81 g/m*3 -1.6 C 0 km/h
1995 18-12-2003 10:43:01 -1.5 C 3.84 g/m*3 -1.5 C 0 km/h
1996 18-12-2003 10:55:01 -1.2 C 3.92 g/m*3 -1.2 C 0 km/h
1997 18-12-2003 11:07:02 -1.3 C 3.85 g/m*3 -1.3 C 0 km/h
1998 18-12-2003 11:19:02 -1.4 C 3.78 g/m*3 -1.4 C 0 km/h
1999 18-12-2003 11:31:02 -1.5 C 3.75 g/m*3 -1.5 C 0 km/h
2000 18-12-2003 11:43:00 -1.4 C 3.78 g/m*3 -1.4 C 0 km/h
Sensor: Nr:Datum:Temp:Abs-Feuchte:Windchill:Wind:
Aussen-T/F 2001 18-12-2003 11:55:00 -1.4 C 3.78 g/m*3 -1.4 C 0 km/h
2002 18-12-2003 12:07:59 -1.3 C 3.81 g/m*3 -1.3 C 0 km/h
2003 18-12-2003 12:19:59 -1.3 C 3.81 g/m*3 -1.3 C 0 km/h
2004 18-12-2003 12:31:01 -1.2 C 3.83 g/m*3 -1.2 C 0 km/h
2005 18-12-2003 12:43:01 -1 C 3.89 g/m*3 -1 C 0 km/h
2006 18-12-2003 12:55:01 -0.7 C 4.02 g/m*3 -0.7 C 0 km/h
2007 18-12-2003 13:07:01 -0.2 C 4.21 g/m*3 -0.2 C 0 km/h
2008 18-12-2003 13:19:01 -0.1 C 4.23 g/m*3 -0.1 C 0 km/h
2009 18-12-2003 13:31:01 0.3 C 4.4 g/m*3 0.3 C 0 km/h
2010 18-12-2003 13:43:00 0.2 C 4.37 g/m*3 0.2 C 0 km/h
2011 18-12-2003 13:55:00 0.3 C 4.4 g/m*3 0.3 C 0 km/h
2012 18-12-2003 14:07:59 0.4 C 4.43 g/m*3 0.4 C 0 km/h
2013 18-12-2003 14:19:59 0.6 C 4.49 g/m*3 0.6 C 0 km/h
2014 18-12-2003 14:31:01 0.8 C 4.56 g/m*3 0.8 C 0 km/h
2015 18-12-2003 14:43:01 1.1 C 4.6 g/m*3 1.1 C 0 km/h
2016 18-12-2003 14:55:01 1.5 C 4.67 g/m*3 1.5 C 0 km/h
2017 18-12-2003 15:07:00 1.4 C 4.53 g/m*3 1.4 C 0 km/h
2018 18-12-2003 15:19:00 1.5 C 4.51 g/m*3 1.5 C 0 km/h
2019 18-12-2003 15:31:00 1.5 C 4.4 g/m*3 1.5 C 0 km/h
2020 18-12-2003 15:43:01 1.4 C 4.32 g/m*3 1.4 C 0 km/h
2021 18-12-2003 15:55:01 1.3 C 4.29 g/m*3 1.3 C 0 km/h
2022 18-12-2003 16:07:01 1.3 C 4.24 g/m*3 1.3 C 0 km/h
2023 18-12-2003 16:19:01 1 C 4.15 g/m*3 1 C 0 km/h
2024 18-12-2003 16:31:01 0.8 C 4.1 g/m*3 0.8 C 0 km/h
2025 18-12-2003 16:43:00 0.9 C 4.12 g/m*3 0.9 C 0 km/h
Sensor: Nr:Datum:Temp:Abs-Feuchte:Windchill:Wind:
Aussen-T/F 2026 18-12-2003 16:55:00 1.2 C 4.05 g/m*3 1.2 C 0 km/h
2027 18-12-2003 17:07:58 0.9 C 4.02 g/m*3 0.9 C 0 km/h
2028 18-12-2003 17:19:58 0.5 C 3.96 g/m*3 0.5 C 0 km/h
2029 18-12-2003 17:31:01 0.2 C 3.93 g/m*3 0.2 C 0 km/h
2030 18-12-2003 17:43:01 0.2 C 3.98 g/m*3 0.2 C 0 km/h
2031 18-12-2003 17:55:01 0.1 C 3.95 g/m*3 0.1 C 0 km/h
2032 18-12-2003 18:07:36 -0.1 C 3.9 g/m*3 -0.1 C 0 km/h
2033 18-12-2003 18:19:01 -0.1 C 3.95 g/m*3 -0.1 C 0 km/h
2034 18-12-2003 18:31:01 0 C 3.97 g/m*3 0 C 0 km/h
2035 18-12-2003 18:43:00 -0.1 C 3.95 g/m*3 -0.1 C 0 km/h
2036 18-12-2003 18:55:00 -0.2 C 3.92 g/m*3 -0.2 C 0 km/h
2037 18-12-2003 19:07:59 -0.4 C 3.86 g/m*3 -0.4 C 0 km/h
2038 18-12-2003 19:19:59 -0.4 C 3.91 g/m*3 -0.4 C 0 km/h
2039 18-12-2003 19:31:01 -0.5 C 3.88 g/m*3 -0.5 C 0 km/h
2040 18-12-2003 19:43:01 -0.5 C 3.88 g/m*3 -0.5 C 0 km/h
2041 18-12-2003 19:55:01 -0.6 C 3.86 g/m*3 -0.6 C 0 km/h
2042 18-12-2003 20:07:23 -0.5 C 3.88 g/m*3 -0.5 C 0 km/h
2043 18-12-2003 20:19:23 -0.5 C 3.88 g/m*3 -0.5 C 0 km/h
2044 18-12-2003 20:31:01 -0.4 C 3.91 g/m*3 -0.4 C 0 km/h
2045 18-12-2003 20:43:00 -0.7 C 3.83 g/m*3 -0.7 C 0 km/h
2046 18-12-2003 20:55:00 -0.7 C 3.83 g/m*3 -0.7 C 0 km/h
2047 18-12-2003 21:07:58 -0.7 C 3.88 g/m*3 -0.7 C 0 km/h
2048 18-12-2003 21:19:58 -0.6 C 3.9 g/m*3 -0.6 C 0 km/h
2049 18-12-2003 21:32:00 -0.8 C 3.85 g/m*3 -0.8 C 0 km/h
2050 18-12-2003 21:44:00 -0.9 C 3.82 g/m*3 -0.9 C 0 km/h
Sensor: Nr:Datum:Temp:Abs-Feuchte:Windchill:Wind:
Aussen-T/F 2051 18-12-2003 21:56:00 -0.9 C 3.82 g/m*3 -0.9 C 0 km/h
2052 18-12-2003 22:08:00 -0.8 C 3.85 g/m*3 -0.8 C 0 km/h
2053 18-12-2003 22:20:00 -0.9 C 3.87 g/m*3 -0.9 C 0 km/h
2054 18-12-2003 22:32:00 -0.7 C 3.92 g/m*3 -0.7 C 0 km/h
2055 18-12-2003 22:44:00 -0.4 C 4.05 g/m*3 -0.4 C 0 km/h
2056 18-12-2003 22:56:00 -0.2 C 4.11 g/m*3 -0.2 C 0 km/h
2057 18-12-2003 23:08:00 0 C 4.17 g/m*3 0 C 0 km/h
2058 18-12-2003 23:20:00 0.1 C 4.2 g/m*3 0.1 C 0 km/h
2059 18-12-2003 23:32:00 -0.1 C 4.04 g/m*3 -0.1 C 0 km/h
2060 18-12-2003 23:44:00 -0.3 C 3.99 g/m*3 -0.3 C 0 km/h
2061 18-12-2003 23:56:00 -0.4 C 3.96 g/m*3 -0.4 C 0 km/h
2062 19-12-2003 00:08:00 -0.3 C 3.99 g/m*3 -0.3 C 0 km/h
2063 19-12-2003 00:20:00 -0.3 C 3.99 g/m*3 -0.3 C 0 km/h
2064 19-12-2003 00:32:00 -0.1 C 4.09 g/m*3 -0.1 C 0 km/h
2065 19-12-2003 00:44:00 -0.1 C 4.04 g/m*3 -0.1 C 0 km/h
2066 19-12-2003 00:56:00 -0.3 C 3.99 g/m*3 -0.3 C 0 km/h
2067 19-12-2003 01:08:00 -0.5 C 3.93 g/m*3 -0.5 C 0 km/h
2068 19-12-2003 01:20:00 -0.7 C 3.88 g/m*3 -0.7 C 0 km/h
2069 19-12-2003 01:32:00 -0.9 C 3.82 g/m*3 -0.9 C 0 km/h
2070 19-12-2003 01:44:00 -0.9 C 3.82 g/m*3 -0.9 C 0 km/h
2071 19-12-2003 01:56:00 -0.4 C 4.01 g/m*3 -0.4 C 0 km/h
2072 19-12-2003 02:08:00 -0.1 C 4.09 g/m*3 -0.1 C 0 km/h
2073 19-12-2003 02:20:00 0.1 C 4.15 g/m*3 0.1 C 0 km/h
2074 19-12-2003 02:32:00 0.2 C 4.13 g/m*3 0.2 C 0 km/h
2075 19-12-2003 02:44:00 0.3 C 4.16 g/m*3 0.3 C 0 km/h
Sensor: Nr:Datum:Temp:Abs-Feuchte:Windchill:Wind:
Aussen-T/F 2076 19-12-2003 02:56:00 0.3 C 4.11 g/m*3 0.3 C 0 km/h
2077 19-12-2003 03:08:00 0.3 C 4.11 g/m*3 0.3 C 0 km/h
2078 19-12-2003 03:20:00 0.2 C 4.08 g/m*3 0.2 C 0 km/h
2079 19-12-2003 03:32:00 0 C 4.02 g/m*3 0 C 0 km/h
2080 19-12-2003 03:44:00 -0.3 C 3.89 g/m*3 -0.3 C 0 km/h
2081 19-12-2003 03:56:00 -0.5 C 3.88 g/m*3 -0.5 C 0 km/h
2082 19-12-2003 04:08:00 -0.5 C 3.93 g/m*3 -0.5 C 0 km/h
2083 19-12-2003 04:20:00 -0.7 C 3.88 g/m*3 -0.7 C 0 km/h
2084 19-12-2003 04:32:00 -0.7 C 3.92 g/m*3 -0.7 C 0 km/h
2085 19-12-2003 04:44:00 -0.7 C 3.92 g/m*3 -0.7 C 0 km/h
2086 19-12-2003 04:56:00 -0.7 C 3.92 g/m*3 -0.7 C 0 km/h
2087 19-12-2003 05:08:00 -0.9 C 3.87 g/m*3 -0.9 C 0 km/h
2088 19-12-2003 05:20:00 -0.9 C 3.87 g/m*3 -0.9 C 0 km/h
2089 19-12-2003 05:32:00 -0.8 C 3.94 g/m*3 -0.8 C 0 km/h
2090 19-12-2003 05:44:00 -0.5 C 4.07 g/m*3 -0.5 C 0 km/h
2091 19-12-2003 05:56:00 -0.4 C 4.1 g/m*3 -0.4 C 0 km/h
2092 19-12-2003 06:08:00 -0.7 C 3.97 g/m*3 -0.7 C 0 km/h
2093 19-12-2003 06:20:00 -0.9 C 3.91 g/m*3 -0.9 C 0 km/h
2094 19-12-2003 06:32:00 -1 C 3.89 g/m*3 -1 C 0 km/h
2095 19-12-2003 06:44:00 -1 C 3.89 g/m*3 -1 C 0 km/h
2096 19-12-2003 06:56:00 -1.2 C 3.83 g/m*3 -1.2 C 0 km/h
2097 19-12-2003 07:08:00 -1.3 C 3.81 g/m*3 -1.3 C 0 km/h
2098 19-12-2003 07:20:00 -1.3 C 3.81 g/m*3 -1.3 C 0 km/h
2099 19-12-2003 07:32:00 -1.4 C 3.78 g/m*3 -1.4 C 0 km/h
2100 19-12-2003 07:44:00 -1.5 C 3.75 g/m*3 -1.5 C 0 km/h
Sensor: Nr:Datum:Temp:Abs-Feuchte:Windchill:Wind:
Aussen-T/F 2101 19-12-2003 07:56:00 -1.6 C 3.73 g/m*3 -1.6 C 0 km/h
2102 19-12-2003 08:08:00 -1.3 C 3.85 g/m*3 -1.3 C 0 km/h
2103 19-12-2003 08:20:00 -1.2 C 3.88 g/m*3 -1.2 C 0 km/h
2104 19-12-2003 08:32:00 -1.3 C 3.85 g/m*3 -1.3 C 0 km/h
2105 19-12-2003 08:44:00 -1.4 C 3.82 g/m*3 -1.4 C 0 km/h
2106 19-12-2003 08:56:00 -1.3 C 3.85 g/m*3 -1.3 C 0 km/h
2107 19-12-2003 09:08:00 -0.9 C 3.96 g/m*3 -0.9 C 0 km/h
2108 19-12-2003 09:20:00 -0.8 C 4.03 g/m*3 -0.8 C 0 km/h
2109 19-12-2003 09:32:00 -0.6 C 4.04 g/m*3 -0.6 C 0 km/h
2110 19-12-2003 09:44:00 -0.5 C 4.07 g/m*3 -0.5 C 0 km/h
2111 19-12-2003 09:56:00 0 C 4.26 g/m*3 0 C 0 km/h
2112 19-12-2003 10:08:59 0.1 C 4.29 g/m*3 0.1 C 0 km/h
2113 19-12-2003 10:20:59 0.5 C 4.36 g/m*3 0.5 C 0 km/h
2114 19-12-2003 10:32:01 0.7 C 4.37 g/m*3 0.7 C 0 km/h
2115 19-12-2003 10:44:01 0.9 C 4.38 g/m*3 0.9 C 0 km/h
2116 19-12-2003 10:56:01 1.2 C 4.37 g/m*3 1.2 C 0 km/h
2117 19-12-2003 11:08:00 1.3 C 4.34 g/m*3 1.3 C 0 km/h
2118 19-12-2003 11:20:00 1.3 C 4.29 g/m*3 1.3 C 0 km/h
2119 19-12-2003 11:32:01 1.7 C 4.41 g/m*3 1.7 C 0 km/h
2120 19-12-2003 11:44:01 2 C 4.39 g/m*3 2 C 0 km/h
2121 19-12-2003 11:56:01 2.2 C 4.45 g/m*3 2.2 C 0 km/h
2122 19-12-2003 12:08:01 2.5 C 4.54 g/m*3 2.5 C 0 km/h
2123 19-12-2003 12:20:01 2.3 C 4.37 g/m*3 2.3 C 0 km/h
2124 19-12-2003 12:32:00 2.4 C 4.45 g/m*3 2.4 C 0 km/h
2125 19-12-2003 12:44:00 2.3 C 4.48 g/m*3 2.3 C 0 km/h
Sensor: Nr:Datum:Temp:Abs-Feuchte:Windchill:Wind:
Aussen-T/F 2126 19-12-2003 12:56:00 2.1 C 4.42 g/m*3 2.1 C 0 km/h
2127 19-12-2003 13:08:00 2.4 C 4.62 g/m*3 2.4 C 0 km/h
2128 19-12-2003 13:20:00 3.4 C 4.89 g/m*3 3.4 C 0 km/h
2129 19-12-2003 13:32:01 3.7 C 4.92 g/m*3 3.7 C 0 km/h
2130 19-12-2003 13:44:01 3.8 C 4.89 g/m*3 3.8 C 0 km/h
2131 19-12-2003 13:56:01 3.6 C 4.83 g/m*3 3.6 C 0 km/h
2132 19-12-2003 14:08:01 3.7 C 4.86 g/m*3 3.7 C 0 km/h
2133 19-12-2003 14:20:01 3.9 C 4.93 g/m*3 3.9 C 0 km/h
2134 19-12-2003 14:32:01 4 C 4.83 g/m*3 4 C 0 km/h
2135 19-12-2003 14:44:01 4.2 C 4.9 g/m*3 4.2 C 0 km/h
2136 19-12-2003 14:56:01 4.5 C 4.86 g/m*3 4.5 C 0 km/h
2137 19-12-2003 15:08:01 5 C 4.96 g/m*3 5 C 0 km/h
2138 19-12-2003 15:20:01 5.6 C 5.02 g/m*3 5.6 C 0 km/h
2139 19-12-2003 15:32:00 5.6 C 4.95 g/m*3 5.6 C 0 km/h
2140 19-12-2003 15:44:00 5.8 C 5.01 g/m*3 5.8 C 0 km/h
2141 19-12-2003 15:56:00 5.9 C 4.98 g/m*3 5.9 C 0 km/h
2142 19-12-2003 16:08:59 5.8 C 4.94 g/m*3 5.8 C 0 km/h
2143 19-12-2003 16:20:59 5.9 C 5.05 g/m*3 5.9 C 0 km/h
2144 19-12-2003 16:32:01 6 C 5.01 g/m*3 6 C 0 km/h
2145 19-12-2003 16:44:01 5.9 C 5.05 g/m*3 5.9 C 0 km/h
2146 19-12-2003 16:56:01 5.9 C 5.05 g/m*3 5.9 C 0 km/h
2147 19-12-2003 17:08:38 5.8 C 5.16 g/m*3 5.8 C 0 km/h
2148 19-12-2003 17:20:50 5.8 C 5.09 g/m*3 5.8 C 0 km/h
2149 19-12-2003 17:32:00 5.7 C 5.05 g/m*3 5.7 C 0 km/h
2150 19-12-2003 17:44:00 5.4 C 5.02 g/m*3 5.4 C 0 km/h
Sensor: Nr:Datum:Temp:Abs-Feuchte:Windchill:Wind:
Aussen-T/F 2151 19-12-2003 17:56:00 5.4 C 5.09 g/m*3 5.4 C 0 km/h
2152 19-12-2003 18:08:59 5.4 C 5.09 g/m*3 5.4 C 0 km/h
2153 19-12-2003 18:20:59 5.4 C 5.09 g/m*3 5.4 C 0 km/h
2154 19-12-2003 18:32:01 5.3 C 5.06 g/m*3 5.3 C 0 km/h
2155 19-12-2003 18:44:01 5.2 C 5.1 g/m*3 5.2 C 0 km/h
2156 19-12-2003 18:56:01 5 C 5.03 g/m*3 5 C 0 km/h
2157 19-12-2003 19:08:01 4.6 C 5.1 g/m*3 4.6 C 0 km/h
2158 19-12-2003 19:20:01 4.5 C 5.13 g/m*3 4.5 C 0 km/h
2159 19-12-2003 19:32:00 4.5 C 5.13 g/m*3 4.5 C 0 km/h
2160 19-12-2003 19:44:00 4.6 C 5.23 g/m*3 4.6 C 0 km/h
2161 19-12-2003 19:56:00 4.6 C 5.16 g/m*3 4.6 C 0 km/h
2162 19-12-2003 20:08:59 4.7 C 5.2 g/m*3 4.7 C 0 km/h
2163 19-12-2003 20:20:59 4.6 C 5.16 g/m*3 4.6 C 0 km/h
2164 19-12-2003 20:32:00 4.6 C 5.16 g/m*3 4.6 C 0 km/h
2165 19-12-2003 20:44:00 4.7 C 5.2 g/m*3 4.7 C 0 km/h
2166 19-12-2003 20:56:00 4.7 C 5.2 g/m*3 4.7 C 0 km/h
2167 19-12-2003 21:08:00 4.7 C 5.2 g/m*3 4.7 C 0 km/h
2168 19-12-2003 21:20:00 4.7 C 5.2 g/m*3 4.7 C 0 km/h
2169 19-12-2003 21:32:01 4.7 C 5.2 g/m*3 4.7 C 0 km/h
2170 19-12-2003 21:44:01 4.7 C 5.2 g/m*3 4.7 C 0 km/h
2171 19-12-2003 21:56:01 4.7 C 5.2 g/m*3 4.7 C 0 km/h
2172 19-12-2003 22:08:01 4.6 C 5.16 g/m*3 4.6 C 0 km/h
2173 19-12-2003 22:20:01 4.6 C 5.16 g/m*3 4.6 C 0 km/h
2174 19-12-2003 22:32:01 4.6 C 5.23 g/m*3 4.6 C 0 km/h
2175 19-12-2003 22:44:01 4.6 C 5.23 g/m*3 4.6 C 0 km/h
Sensor: Nr:Datum:Temp:Abs-Feuchte:Windchill:Wind:
Aussen-T/F 2176 19-12-2003 22:56:01 4.4 C 5.16 g/m*3 4.4 C 0 km/h
2177 19-12-2003 23:09:00 4.4 C 5.16 g/m*3 4.4 C 0 km/h
2178 19-12-2003 23:21:00 4.5 C 5.19 g/m*3 4.5 C 0 km/h
2179 19-12-2003 23:33:00 4.5 C 5.26 g/m*3 4.5 C 0 km/h
2180 19-12-2003 23:45:00 4.5 C 5.26 g/m*3 4.5 C 0 km/h
2181 19-12-2003 23:57:00 5.1 C 5.61 g/m*3 5.1 C 0 km/h
2182 20-12-2003 00:09:00 5.3 C 5.54 g/m*3 5.3 C 0 km/h
2183 20-12-2003 00:21:00 6.5 C 6.07 g/m*3 6.5 C 0 km/h
2184 20-12-2003 00:33:00 6.7 C 5.93 g/m*3 6.7 C 0 km/h
2185 20-12-2003 00:45:00 6.9 C 6.08 g/m*3 6.9 C 0 km/h
2186 20-12-2003 00:57:00 7.3 C 6.16 g/m*3 7.3 C 0 km/h
2187 20-12-2003 01:09:00 7.3 C 6.16 g/m*3 7.3 C 0 km/h
2188 20-12-2003 01:21:00 7.3 C 6.16 g/m*3 7.3 C 0 km/h
2189 20-12-2003 01:33:00 7.3 C 6.08 g/m*3 7.3 C 0 km/h
2190 20-12-2003 01:45:00 7.2 C 5.97 g/m*3 7.2 C 0 km/h
2191 20-12-2003 01:57:00 7.1 C 5.93 g/m*3 7.1 C 0 km/h
2192 20-12-2003 02:09:00 7 C 5.89 g/m*3 7 C 0 km/h
2193 20-12-2003 02:21:00 6.9 C 5.93 g/m*3 6.9 C 0 km/h
2194 20-12-2003 02:33:00 7.1 C 5.93 g/m*3 7.1 C 0 km/h
2195 20-12-2003 02:45:00 7.1 C 5.93 g/m*3 7.1 C 0 km/h
2196 20-12-2003 02:57:00 7 C 5.89 g/m*3 7 C 0 km/h
2197 20-12-2003 03:09:00 7.1 C 5.85 g/m*3 7.1 C 0 km/h
2198 20-12-2003 03:21:00 7 C 5.89 g/m*3 7 C 0 km/h
2199 20-12-2003 03:33:00 7 C 5.89 g/m*3 7 C 0 km/h
2200 20-12-2003 03:45:00 7 C 5.81 g/m*3 7 C 0 km/h
Sensor: Nr:Datum:Temp:Abs-Feuchte:Windchill:Wind:
Aussen-T/F 2201 20-12-2003 03:57:00 6.9 C 5.93 g/m*3 6.9 C 0 km/h
2202 20-12-2003 04:09:00 7.1 C 5.93 g/m*3 7.1 C 0 km/h
2203 20-12-2003 04:21:00 7.1 C 6.01 g/m*3 7.1 C 0 km/h
2204 20-12-2003 04:33:00 7.2 C 6.04 g/m*3 7.2 C 0 km/h
2205 20-12-2003 04:45:00 7.3 C 6.08 g/m*3 7.3 C 0 km/h
2206 20-12-2003 04:57:00 7.3 C 6.08 g/m*3 7.3 C 0 km/h
2207 20-12-2003 05:09:00 7.4 C 6.04 g/m*3 7.4 C 0 km/h
2208 20-12-2003 05:21:00 7.6 C 6.12 g/m*3 7.6 C 0 km/h
2209 20-12-2003 05:33:00 7.6 C 6.12 g/m*3 7.6 C 0 km/h
2210 20-12-2003 05:45:00 7.5 C 6.08 g/m*3 7.5 C 0 km/h
2211 20-12-2003 05:57:00 7.5 C 6.08 g/m*3 7.5 C 0 km/h
2212 20-12-2003 06:09:00 7.6 C 6.2 g/m*3 7.6 C 0 km/h
2213 20-12-2003 06:21:00 7.7 C 6.24 g/m*3 7.7 C 0 km/h
2214 20-12-2003 06:33:00 7.7 C 6.24 g/m*3 7.7 C 0 km/h
2215 20-12-2003 06:45:00 7.6 C 6.28 g/m*3 7.6 C 0 km/h
2216 20-12-2003 06:57:00 7.5 C 6.24 g/m*3 7.5 C 0 km/h
2217 20-12-2003 07:09:00 7.5 C 6.32 g/m*3 7.5 C 0 km/h
2218 20-12-2003 07:21:00 7.5 C 6.32 g/m*3 7.5 C 0 km/h
2219 20-12-2003 07:33:00 7.5 C 6.4 g/m*3 7.5 C 0 km/h
2220 20-12-2003 07:45:00 7.4 C 6.36 g/m*3 7.4 C 0 km/h
2221 20-12-2003 07:57:00 7.4 C 6.44 g/m*3 7.4 C 0 km/h
2222 20-12-2003 08:09:00 7.6 C 6.53 g/m*3 7.6 C 0 km/h
2223 20-12-2003 08:21:00 7.5 C 6.4 g/m*3 7.5 C 0 km/h
2224 20-12-2003 08:33:00 7.5 C 6.4 g/m*3 7.5 C 0 km/h
2225 20-12-2003 08:45:00 7.3 C 6.32 g/m*3 7.3 C 0 km/h
Sensor: Nr:Datum:Temp:Abs-Feuchte:Windchill:Wind:
Aussen-T/F 2226 20-12-2003 08:57:00 7.4 C 6.44 g/m*3 7.4 C 0 km/h
2227 20-12-2003 09:09:00 7.3 C 6.32 g/m*3 7.3 C 0 km/h
2228 20-12-2003 09:21:00 7.3 C 6.32 g/m*3 7.3 C 0 km/h
2229 20-12-2003 09:33:00 7.6 C 6.53 g/m*3 7.6 C 0 km/h
2230 20-12-2003 09:45:00 8 C 6.61 g/m*3 8 C 0 km/h
2231 20-12-2003 09:57:00 8.2 C 6.62 g/m*3 8.2 C 0 km/h
2232 20-12-2003 10:09:58 8.4 C 6.7 g/m*3 8.4 C 0 km/h
2233 20-12-2003 10:21:58 8.6 C 6.7 g/m*3 8.6 C 0 km/h
2234 20-12-2003 10:33:01 8.9 C 6.83 g/m*3 8.9 C 0 km/h
2235 20-12-2003 10:45:01 9.2 C 6.7 g/m*3 9.2 C 0 km/h
2236 20-12-2003 10:57:01 9.5 C 6.64 g/m*3 9.5 C 0 km/h
2237 20-12-2003 11:09:01 9.6 C 6.6 g/m*3 9.6 C 0 km/h
2238 20-12-2003 11:21:01 9.7 C 6.55 g/m*3 9.7 C 0 km/h
2239 20-12-2003 11:33:00 9.8 C 6.49 g/m*3 9.8 C 0 km/h
2240 20-12-2003 11:45:00 9.9 C 6.54 g/m*3 9.9 C 0 km/h
2241 20-12-2003 11:57:00 10 C 6.39 g/m*3 10 C 0 km/h
2242 20-12-2003 12:09:59 10.1 C 6.43 g/m*3 10.1 C 0 km/h
2243 20-12-2003 12:21:59 10 C 6.39 g/m*3 10 C 0 km/h
2244 20-12-2003 12:33:01 9.9 C 6.44 g/m*3 9.9 C 0 km/h
2245 20-12-2003 12:45:01 9.8 C 6.4 g/m*3 9.8 C 0 km/h
2246 20-12-2003 12:57:01 10 C 6.39 g/m*3 10 C 0 km/h
2247 20-12-2003 13:09:01 10.1 C 6.34 g/m*3 10.1 C 0 km/h
2248 20-12-2003 13:21:01 10.1 C 6.34 g/m*3 10.1 C 0 km/h
2249 20-12-2003 13:33:00 10.1 C 6.24 g/m*3 10.1 C 0 km/h
2250 20-12-2003 13:45:00 10.1 C 6.15 g/m*3 10.1 C 0 km/h
Sensor: Nr:Datum:Temp:Abs-Feuchte:Windchill:Wind:
Aussen-T/F 2251 20-12-2003 13:57:00 10.1 C 6.15 g/m*3 10.1 C 0 km/h
2252 20-12-2003 14:09:59 10.1 C 6.24 g/m*3 10.1 C 0 km/h
2253 20-12-2003 14:21:59 10 C 6.2 g/m*3 10 C 0 km/h
2254 20-12-2003 14:33:01 9.8 C 6.31 g/m*3 9.8 C 0 km/h
2255 20-12-2003 14:45:01 9.7 C 6.27 g/m*3 9.7 C 0 km/h
2256 20-12-2003 14:57:01 9.7 C 6.36 g/m*3 9.7 C 0 km/h
2257 20-12-2003 15:09:01 9.8 C 6.4 g/m*3 9.8 C 0 km/h
2258 20-12-2003 15:21:01 9.8 C 6.4 g/m*3 9.8 C 0 km/h
2259 20-12-2003 15:33:01 9.7 C 6.36 g/m*3 9.7 C 0 km/h
2260 20-12-2003 15:45:01 9.6 C 6.32 g/m*3 9.6 C 0 km/h
2261 20-12-2003 15:57:01 9.6 C 6.32 g/m*3 9.6 C 0 km/h
2262 20-12-2003 16:09:01 9.6 C 6.32 g/m*3 9.6 C 0 km/h
2263 20-12-2003 16:21:01 9.5 C 6.37 g/m*3 9.5 C 0 km/h
2264 20-12-2003 16:33:00 9.5 C 6.37 g/m*3 9.5 C 0 km/h
2265 20-12-2003 16:45:00 9.6 C 6.32 g/m*3 9.6 C 0 km/h
2266 20-12-2003 16:45:59 9.6 C 6.32 g/m*3 9.6 C 0 km/h
2267 20-12-2003 16:57:59 10.1 C 6.24 g/m*3 10.1 C 0 km/h
2268 20-12-2003 17:09:59 10.1 C 6.05 g/m*3 10.1 C 0 km/h
2269 20-12-2003 17:21:59 10.2 C 6 g/m*3 10.2 C 0 km/h
2270 20-12-2003 17:33:01 10.1 C 6.05 g/m*3 10.1 C 0 km/h
2271 20-12-2003 17:45:01 10 C 6.11 g/m*3 10 C 0 km/h
2272 20-12-2003 17:57:01 9.7 C 6.27 g/m*3 9.7 C 0 km/h
2273 20-12-2003 18:09:02 9.6 C 6.32 g/m*3 9.6 C 0 km/h
2274 20-12-2003 18:21:02 9.3 C 6.29 g/m*3 9.3 C 0 km/h
2275 20-12-2003 18:33:00 9.5 C 6.37 g/m*3 9.5 C 0 km/h
Sensor: Nr:Datum:Temp:Abs-Feuchte:Windchill:Wind:
Aussen-T/F 2276 20-12-2003 18:45:00 9.6 C 6.32 g/m*3 9.6 C 0 km/h
2277 20-12-2003 18:57:00 9.6 C 6.32 g/m*3 9.6 C 0 km/h
2278 20-12-2003 19:09:48 9.6 C 6.32 g/m*3 9.6 C 0 km/h
2279 20-12-2003 19:21:59 9.5 C 6.37 g/m*3 9.5 C 0 km/h
2280 20-12-2003 19:33:01 9.7 C 6.45 g/m*3 9.7 C 0 km/h
2281 20-12-2003 19:45:01 10 C 6.39 g/m*3 10 C 0 km/h
2282 20-12-2003 19:57:01 10 C 6.39 g/m*3 10 C 0 km/h
2283 20-12-2003 20:09:01 10 C 6.48 g/m*3 10 C 0 km/h
2284 20-12-2003 20:21:01 10.1 C 6.52 g/m*3 10.1 C 0 km/h
2285 20-12-2003 20:32:59 10.1 C 6.62 g/m*3 10.1 C 0 km/h
2286 20-12-2003 20:44:59 9.9 C 6.82 g/m*3 9.9 C 0 km/h
2287 20-12-2003 20:56:59 9.9 C 6.82 g/m*3 9.9 C 0 km/h
2288 20-12-2003 21:09:58 9.9 C 6.82 g/m*3 9.9 C 0 km/h
2289 20-12-2003 21:21:58 9.9 C 6.82 g/m*3 9.9 C 0 km/h
2290 20-12-2003 21:33:13 10.1 C 6.81 g/m*3 10.1 C 0 km/h
2291 20-12-2003 21:45:13 10.3 C 6.99 g/m*3 10.3 C 0 km/h
2292 20-12-2003 21:57:13 10.2 C 6.95 g/m*3 10.2 C 0 km/h
2293 20-12-2003 22:09:01 10.4 C 7.04 g/m*3 10.4 C 0 km/h
2294 20-12-2003 22:21:01 10.4 C 7.04 g/m*3 10.4 C 0 km/h
2295 20-12-2003 22:33:01 10 C 7.14 g/m*3 10 C 0 km/h
2296 20-12-2003 22:45:01 10 C 7.14 g/m*3 10 C 0 km/h
2297 20-12-2003 22:57:01 10 C 7.14 g/m*3 10 C 0 km/h
2298 20-12-2003 23:09:01 9.8 C 7.52 g/m*3 9.8 C 0 km/h
2299 20-12-2003 23:21:01 9.7 C 7.56 g/m*3 9.7 C 0 km/h
2300 20-12-2003 23:33:00 9.8 C 7.7 g/m*3 9.8 C 0 km/h
Sensor: Nr:Datum:Temp:Abs-Feuchte:Windchill:Wind:
Aussen-T/F 2301 20-12-2003 23:45:00 10 C 7.61 g/m*3 10 C 0 km/h
2302 20-12-2003 23:57:00 10.2 C 7.52 g/m*3 10.2 C 0 km/h
2303 21-12-2003 00:09:59 10 C 7.61 g/m*3 10 C 0 km/h
2304 21-12-2003 00:21:59 9.9 C 7.75 g/m*3 9.9 C 0 km/h
2305 21-12-2003 00:33:01 9.7 C 7.84 g/m*3 9.7 C 0 km/h
2306 21-12-2003 00:45:01 9.8 C 7.98 g/m*3 9.8 C 0 km/h
2307 21-12-2003 00:57:01 9.7 C 7.93 g/m*3 9.7 C 0 km/h
2308 21-12-2003 01:09:01 9.6 C 7.88 g/m*3 9.6 C 0 km/h
2309 21-12-2003 01:21:01 9.6 C 7.6 g/m*3 9.6 C 0 km/h
2310 21-12-2003 01:33:01 9.7 C 7.56 g/m*3 9.7 C 0 km/h
2311 21-12-2003 01:45:01 9.9 C 7.56 g/m*3 9.9 C 0 km/h
2312 21-12-2003 01:57:01 9.8 C 7.33 g/m*3 9.8 C 0 km/h
2313 21-12-2003 02:09:00 9.9 C 7.19 g/m*3 9.9 C 0 km/h
2314 21-12-2003 02:21:00 9.8 C 7.05 g/m*3 9.8 C 0 km/h
2315 21-12-2003 02:33:00 9.7 C 7.1 g/m*3 9.7 C 0 km/h
2316 21-12-2003 02:45:00 9.7 C 7.1 g/m*3 9.7 C 0 km/h
2317 21-12-2003 02:57:00 9.7 C 7.1 g/m*3 9.7 C 0 km/h
2318 21-12-2003 03:09:00 9.7 C 7.1 g/m*3 9.7 C 0 km/h
2319 21-12-2003 03:21:00 9.2 C 6.97 g/m*3 9.2 C 0 km/h
2320 21-12-2003 03:33:01 9 C 6.88 g/m*3 9 C 0 km/h
2321 21-12-2003 03:45:01 9 C 6.96 g/m*3 9 C 0 km/h
2322 21-12-2003 03:57:01 8.8 C 6.96 g/m*3 8.8 C 0 km/h
2323 21-12-2003 04:09:00 8.8 C 6.96 g/m*3 8.8 C 0 km/h
2324 21-12-2003 04:21:00 8.5 C 6.92 g/m*3 8.5 C 0 km/h
2325 21-12-2003 04:33:00 8.6 C 6.62 g/m*3 8.6 C 0 km/h
Sensor: Nr:Datum:Temp:Abs-Feuchte:Windchill:Wind:
Aussen-T/F 2326 21-12-2003 04:45:00 8.6 C 6.53 g/m*3 8.6 C 0 km/h
2327 21-12-2003 04:57:00 8.6 C 6.53 g/m*3 8.6 C 0 km/h
2328 21-12-2003 05:10:01 8.6 C 6.53 g/m*3 8.6 C 0 km/h
2329 21-12-2003 05:22:01 8.2 C 5.53 g/m*3 8.2 C 0 km/h
2330 21-12-2003 05:33:01 8.2 C 5.53 g/m*3 8.2 C 0 km/h
2331 21-12-2003 05:45:01 8.2 C 5.53 g/m*3 8.2 C 0 km/h
2332 21-12-2003 05:57:01 8.2 C 5.53 g/m*3 8.2 C 0 km/h
2333 21-12-2003 06:09:00 6.6 C 5.28 g/m*3 6.6 C 0 km/h
2334 21-12-2003 06:21:00 6.6 C 5.28 g/m*3 6.6 C 0 km/h
2335 21-12-2003 06:33:01 6.6 C 5.28 g/m*3 6.6 C 0 km/h
2336 21-12-2003 06:45:01 6.6 C 5.28 g/m*3 6.6 C 0 km/h
2337 21-12-2003 06:57:01 6.6 C 5.28 g/m*3 6.6 C 0 km/h
2338 21-12-2003 07:09:00 6.6 C 5.28 g/m*3 6.6 C 0 km/h
2339 21-12-2003 07:21:00 6.6 C 5.28 g/m*3 6.6 C 0 km/h
2340 21-12-2003 07:33:00 6.6 C 5.28 g/m*3 6.6 C 0 km/h
2341 21-12-2003 07:45:00 6.6 C 5.28 g/m*3 6.6 C 0 km/h
2342 21-12-2003 07:57:00 6.6 C 5.28 g/m*3 6.6 C 0 km/h
2343 21-12-2003 08:10:00 6.6 C 5.28 g/m*3 6.6 C 0 km/h
2344 21-12-2003 08:22:01 6.6 C 5.28 g/m*3 6.6 C 0 km/h
2345 21-12-2003 08:33:00 6.6 C 5.28 g/m*3 6.6 C 0 km/h
2346 21-12-2003 08:45:01 5.1 C 4.24 g/m*3 5.1 C 0 km/h
2347 21-12-2003 08:57:01 5.1 C 4.24 g/m*3 5.1 C 0 km/h
2348 21-12-2003 09:09:32 4 C 4.26 g/m*3 4 C 0 km/h
2349 21-12-2003 09:21:00 3.4 C 4.28 g/m*3 3.4 C 0 km/h
2350 21-12-2003 09:33:00 3.4 C 4.21 g/m*3 3.4 C 0 km/h
Sensor: Nr:Datum:Temp:Abs-Feuchte:Windchill:Wind:
Aussen-T/F 2351 21-12-2003 09:45:00 3.4 C 4.21 g/m*3 3.4 C 0 km/h
2352 21-12-2003 09:57:00 3.4 C 4.21 g/m*3 3.4 C 0 km/h
2353 21-12-2003 10:10:00 4.5 C 4.14 g/m*3 4.5 C 0 km/h
2354 21-12-2003 10:22:01 4.8 C 4.16 g/m*3 4.8 C 0 km/h
2355 21-12-2003 10:33:01 4.7 C 4.46 g/m*3 4.7 C 0 km/h
2356 21-12-2003 10:45:01 4.9 C 4.32 g/m*3 4.9 C 0 km/h
2357 21-12-2003 10:57:01 5.1 C 4.17 g/m*3 5.1 C 0 km/h
2358 21-12-2003 11:09:00 5.3 C 4.16 g/m*3 5.3 C 0 km/h
2359 21-12-2003 11:21:00 5.3 C 4.16 g/m*3 5.3 C 0 km/h
2360 21-12-2003 11:33:00 5.4 C 4.26 g/m*3 5.4 C 0 km/h
2361 21-12-2003 11:45:00 5.5 C 4.35 g/m*3 5.5 C 0 km/h
2362 21-12-2003 11:57:00 5.5 C 4.42 g/m*3 5.5 C 0 km/h
2363 21-12-2003 12:10:01 5.6 C 4.52 g/m*3 5.6 C 0 km/h
2364 21-12-2003 12:22:01 5.6 C 4.67 g/m*3 5.6 C 0 km/h
2365 21-12-2003 12:33:00 5.6 C 4.67 g/m*3 5.6 C 0 km/h
2366 21-12-2003 12:45:01 5.6 C 4.67 g/m*3 5.6 C 0 km/h
2367 21-12-2003 12:57:01 5.5 C 4.78 g/m*3 5.5 C 0 km/h
2368 21-12-2003 13:09:55 5.4 C 4.81 g/m*3 5.4 C 0 km/h
2369 21-12-2003 13:21:55 5.4 C 4.81 g/m*3 5.4 C 0 km/h
2370 21-12-2003 13:33:00 5.5 C 4.85 g/m*3 5.5 C 0 km/h
2371 21-12-2003 13:45:00 5.5 C 4.78 g/m*3 5.5 C 0 km/h
2372 21-12-2003 13:46:00 5.5 C 4.78 g/m*3 5.5 C 0 km/h
2373 21-12-2003 13:58:01 5.4 C 4.81 g/m*3 5.4 C 0 km/h
2374 21-12-2003 14:10:01 5.4 C 4.88 g/m*3 5.4 C 0 km/h
2375 21-12-2003 14:22:01 5.4 C 4.88 g/m*3 5.4 C 0 km/h
Sensor: Nr:Datum:Temp:Abs-Feuchte:Windchill:Wind:
Aussen-T/F 2376 21-12-2003 14:33:01 5.2 C 4.89 g/m*3 5.2 C 0 km/h
2377 21-12-2003 14:45:01 5.2 C 4.96 g/m*3 5.2 C 0 km/h
2378 21-12-2003 14:57:01 5.1 C 4.99 g/m*3 5.1 C 0 km/h
2379 21-12-2003 15:09:00 5.3 C 4.99 g/m*3 5.3 C 0 km/h
2380 21-12-2003 15:09:01 5.3 C 4.99 g/m*3 5.3 C 0 km/h
2381 21-12-2003 15:21:01 5.4 C 4.95 g/m*3 5.4 C 0 km/h
2382 21-12-2003 15:33:01 5.2 C 5.03 g/m*3 5.2 C 0 km/h
2383 21-12-2003 15:45:01 5.1 C 5.13 g/m*3 5.1 C 0 km/h
2384 21-12-2003 15:57:01 4.8 C 5.23 g/m*3 4.8 C 0 km/h
2385 21-12-2003 16:09:00 4.7 C 5.2 g/m*3 4.7 C 0 km/h
2386 21-12-2003 16:21:00 4.7 C 5.2 g/m*3 4.7 C 0 km/h
2387 21-12-2003 16:33:00 4.7 C 5.13 g/m*3 4.7 C 0 km/h
2388 21-12-2003 16:45:00 4.8 C 4.96 g/m*3 4.8 C 0 km/h
2389 21-12-2003 16:57:00 4.7 C 5 g/m*3 4.7 C 0 km/h
2390 21-12-2003 17:10:01 4.5 C 5.06 g/m*3 4.5 C 0 km/h
2391 21-12-2003 17:22:01 4.3 C 5.12 g/m*3 4.3 C 0 km/h
2392 21-12-2003 17:33:00 4.4 C 5.09 g/m*3 4.4 C 0 km/h
2393 21-12-2003 17:45:01 4.6 C 5.03 g/m*3 4.6 C 0 km/h
2394 21-12-2003 17:57:01 4.8 C 4.96 g/m*3 4.8 C 0 km/h
2395 21-12-2003 18:09:00 5.1 C 4.79 g/m*3 5.1 C 0 km/h
2396 21-12-2003 18:21:00 4.9 C 4.93 g/m*3 4.9 C 0 km/h
2397 21-12-2003 18:33:01 4.8 C 4.83 g/m*3 4.8 C 0 km/h
2398 21-12-2003 18:45:01 4.8 C 4.83 g/m*3 4.8 C 0 km/h
2399 21-12-2003 18:57:01 4.9 C 4.86 g/m*3 4.9 C 0 km/h
2400 21-12-2003 19:09:00 5 C 4.76 g/m*3 5 C 0 km/h
Sensor: Nr:Datum:Temp:Abs-Feuchte:Windchill:Wind:
Aussen-T/F 2401 21-12-2003 19:21:00 5 C 4.76 g/m*3 5 C 0 km/h
2402 21-12-2003 19:33:00 5.1 C 4.72 g/m*3 5.1 C 0 km/h
2403 21-12-2003 19:45:00 5.2 C 4.68 g/m*3 5.2 C 0 km/h
2404 21-12-2003 19:57:00 5.1 C 4.65 g/m*3 5.1 C 0 km/h
2405 21-12-2003 20:10:01 5.1 C 4.65 g/m*3 5.1 C 0 km/h
2406 21-12-2003 20:22:01 5 C 4.55 g/m*3 5 C 0 km/h
2407 21-12-2003 20:33:00 4.8 C 4.63 g/m*3 4.8 C 0 km/h
2408 21-12-2003 20:45:01 4.7 C 4.6 g/m*3 4.7 C 0 km/h
2409 21-12-2003 20:57:01 4.4 C 4.64 g/m*3 4.4 C 0 km/h
2410 21-12-2003 21:09:00 4.2 C 4.64 g/m*3 4.2 C 0 km/h
2411 21-12-2003 21:21:00 4.5 C 4.67 g/m*3 4.5 C 0 km/h
2412 21-12-2003 21:33:00 4.6 C 4.63 g/m*3 4.6 C 0 km/h
2413 21-12-2003 21:45:00 4.7 C 4.6 g/m*3 4.7 C 0 km/h
2414 21-12-2003 21:57:00 4.6 C 4.57 g/m*3 4.6 C 0 km/h
2415 21-12-2003 22:10:00 4.3 C 4.54 g/m*3 4.3 C 0 km/h
2416 21-12-2003 22:22:01 4.3 C 4.61 g/m*3 4.3 C 0 km/h
2417 21-12-2003 22:33:00 4.3 C 4.61 g/m*3 4.3 C 0 km/h
2418 21-12-2003 22:45:01 4.2 C 4.57 g/m*3 4.2 C 0 km/h
2419 21-12-2003 22:57:01 3.9 C 4.61 g/m*3 3.9 C 0 km/h
2420 21-12-2003 23:09:00 3.9 C 4.61 g/m*3 3.9 C 0 km/h
2421 21-12-2003 23:21:00 3.7 C 4.55 g/m*3 3.7 C 0 km/h
2422 21-12-2003 23:33:01 4 C 4.58 g/m*3 4 C 0 km/h
2423 21-12-2003 23:45:01 4.3 C 4.54 g/m*3 4.3 C 0 km/h
2424 21-12-2003 23:57:01 4.4 C 4.51 g/m*3 4.4 C 0 km/h
2425 22-12-2003 00:09:00 4.2 C 4.51 g/m*3 4.2 C 0 km/h
Sensor: Nr:Datum:Temp:Abs-Feuchte:Windchill:Wind:
Aussen-T/F 2426 22-12-2003 00:21:00 4.3 C 4.48 g/m*3 4.3 C 0 km/h
2427 22-12-2003 00:33:00 4.4 C 4.44 g/m*3 4.4 C 0 km/h
2428 22-12-2003 00:45:00 4.5 C 4.4 g/m*3 4.5 C 0 km/h
2429 22-12-2003 00:45:01 4.5 C 4.4 g/m*3 4.5 C 0 km/h
2430 22-12-2003 00:57:00 4.3 C 4.35 g/m*3 4.3 C 0 km/h
2431 22-12-2003 01:09:00 4.3 C 4.28 g/m*3 4.3 C 0 km/h
2432 22-12-2003 01:21:00 4.3 C 4.28 g/m*3 4.3 C 0 km/h
2433 22-12-2003 01:33:00 4.2 C 4.25 g/m*3 4.2 C 0 km/h
2434 22-12-2003 01:45:00 4.1 C 4.16 g/m*3 4.1 C 0 km/h
2435 22-12-2003 01:57:00 4.3 C 4.22 g/m*3 4.3 C 0 km/h
2436 22-12-2003 02:10:01 4.2 C 4.25 g/m*3 4.2 C 0 km/h
2437 22-12-2003 02:22:01 3.9 C 4.23 g/m*3 3.9 C 0 km/h
2438 22-12-2003 02:33:01 3.9 C 4.23 g/m*3 3.9 C 0 km/h
2439 22-12-2003 02:45:01 4 C 4.13 g/m*3 4 C 0 km/h
2440 22-12-2003 02:57:01 4 C 4.07 g/m*3 4 C 0 km/h
2441 22-12-2003 03:09:00 4.1 C 4.1 g/m*3 4.1 C 0 km/h
2442 22-12-2003 03:21:00 4 C 4.07 g/m*3 4 C 0 km/h
2443 22-12-2003 03:33:00 4 C 4.07 g/m*3 4 C 0 km/h
2444 22-12-2003 03:45:00 4 C 4.07 g/m*3 4 C 0 km/h
2445 22-12-2003 03:57:00 4 C 4.07 g/m*3 4 C 0 km/h
2446 22-12-2003 04:10:00 3.9 C 4.11 g/m*3 3.9 C 0 km/h
2447 22-12-2003 04:22:00 3.7 C 4.11 g/m*3 3.7 C 0 km/h
2448 22-12-2003 04:33:01 3.6 C 4.15 g/m*3 3.6 C 0 km/h
2449 22-12-2003 04:45:01 3.5 C 4.18 g/m*3 3.5 C 0 km/h
2450 22-12-2003 04:57:01 2 C 4.17 g/m*3 2 C 0 km/h
Sensor: Nr:Datum:Temp:Abs-Feuchte:Windchill:Wind:
Aussen-T/F 2451 22-12-2003 05:09:00 1 C 4.2 g/m*3 1 C 0 km/h
2452 22-12-2003 05:21:00 0.7 C 4.32 g/m*3 0.7 C 0 km/h
2453 22-12-2003 05:33:01 0.8 C 4.4 g/m*3 0.8 C 0 km/h
2454 22-12-2003 05:45:01 0.9 C 4.48 g/m*3 0.9 C 0 km/h
2455 22-12-2003 05:57:01 1.1 C 4.55 g/m*3 1.1 C 0 km/h
2456 22-12-2003 06:09:00 1 C 4.52 g/m*3 1 C 0 km/h
2457 22-12-2003 06:21:00 1 C 4.52 g/m*3 1 C 0 km/h
2458 22-12-2003 06:33:00 1 C 4.52 g/m*3 1 C 0 km/h
2459 22-12-2003 06:45:00 1.2 C 4.58 g/m*3 1.2 C 0 km/h
2460 22-12-2003 06:57:00 1.2 C 4.63 g/m*3 1.2 C 0 km/h
2461 22-12-2003 07:10:00 1.2 C 4.63 g/m*3 1.2 C 0 km/h
2462 22-12-2003 07:21:01 1.2 C 4.63 g/m*3 1.2 C 0 km/h
2463 22-12-2003 07:22:01 1.2 C 4.63 g/m*3 1.2 C 0 km/h
2464 22-12-2003 07:33:01 1.3 C 4.66 g/m*3 1.3 C 0 km/h
2465 22-12-2003 07:45:01 1.4 C 4.69 g/m*3 1.4 C 0 km/h
2466 22-12-2003 07:57:01 1.4 C 4.69 g/m*3 1.4 C 0 km/h
2467 22-12-2003 08:09:00 1.5 C 4.67 g/m*3 1.5 C 0 km/h
2468 22-12-2003 08:21:00 1.6 C 4.65 g/m*3 1.6 C 0 km/h
2469 22-12-2003 08:34:00 1.6 C 4.6 g/m*3 1.6 C 0 km/h
2470 22-12-2003 08:46:00 1.7 C 4.57 g/m*3 1.7 C 0 km/h
2471 22-12-2003 08:58:01 1.9 C 4.53 g/m*3 1.9 C 0 km/h
2472 22-12-2003 09:10:01 2 C 4.39 g/m*3 2 C 0 km/h
2473 22-12-2003 09:22:01 1.8 C 4.22 g/m*3 1.8 C 0 km/h
2474 22-12-2003 09:33:01 1.7 C 4.19 g/m*3 1.7 C 0 km/h
2475 22-12-2003 09:45:01 1.8 C 4.22 g/m*3 1.8 C 0 km/h
Sensor: Nr:Datum:Temp:Abs-Feuchte:Windchill:Wind:
Aussen-T/F 2476 22-12-2003 09:57:01 1.9 C 4.19 g/m*3 1.9 C 0 km/h
2477 22-12-2003 10:09:00 2.1 C 4.14 g/m*3 2.1 C 0 km/h
2478 22-12-2003 10:21:00 2.2 C 4.11 g/m*3 2.2 C 0 km/h
2479 22-12-2003 10:33:00 2 C 4 g/m*3 2 C 0 km/h
2480 22-12-2003 10:45:00 2 C 4.06 g/m*3 2 C 0 km/h
2481 22-12-2003 10:57:00 2.1 C 4.03 g/m*3 2.1 C 0 km/h
2482 22-12-2003 11:33:00 1.7 C 3.92 g/m*3 1.7 C 0 km/h
2483 22-12-2003 11:45:01 1.7 C 3.97 g/m*3 1.7 C 0 km/h
2484 22-12-2003 11:57:01 1.8 C 3.89 g/m*3 1.8 C 0 km/h
2485 22-12-2003 12:09:31 1.7 C 3.87 g/m*3 1.7 C 0 km/h
2486 22-12-2003 12:21:31 2 C 3.78 g/m*3 2 C 0 km/h
2487 22-12-2003 12:33:00 2 C 3.67 g/m*3 2 C 0 km/h
2488 22-12-2003 12:45:00 2 C 3.61 g/m*3 2 C 0 km/h
2489 22-12-2003 12:57:00 2 C 3.61 g/m*3 2 C 0 km/h
2490 22-12-2003 13:09:26 2.1 C 3.58 g/m*3 2.1 C 0 km/h
2491 22-12-2003 13:21:26 2.1 C 3.52 g/m*3 2.1 C 0 km/h
2492 22-12-2003 13:48:17 2.4 C 3.48 g/m*3 2.4 C 0 km/h
2493 22-12-2003 14:00:00 2.4 C 3.48 g/m*3 2.4 C 0 km/h
2494 22-12-2003 14:12:00 2.5 C 3.45 g/m*3 2.5 C 0 km/h
2495 22-12-2003 14:24:00 2.7 C 3.44 g/m*3 2.7 C 0 km/h
2496 22-12-2003 14:36:00 2.8 C 3.4 g/m*3 2.8 C 0 km/h
2497 22-12-2003 14:48:00 2.6 C 3.41 g/m*3 2.6 C 0 km/h
2498 22-12-2003 15:00:00 2.6 C 3.36 g/m*3 2.6 C 0 km/h
2499 22-12-2003 15:13:01 2.5 C 3.28 g/m*3 2.5 C 0 km/h
2500 22-12-2003 15:25:01 2.3 C 3.18 g/m*3 2.3 C 0 km/h
Sensor: Nr:Datum:Temp:Abs-Feuchte:Windchill:Wind:
Aussen-T/F 2501 22-12-2003 15:36:01 2 C 3.11 g/m*3 2 C 0 km/h
2502 22-12-2003 15:48:01 1.8 C 3.12 g/m*3 1.8 C 0 km/h
2503 22-12-2003 16:00:01 1.8 C 3.07 g/m*3 1.8 C 0 km/h
2504 22-12-2003 16:12:00 1.6 C 3.08 g/m*3 1.6 C 0 km/h
2505 22-12-2003 16:24:00 1.6 C 3.08 g/m*3 1.6 C 0 km/h
2506 22-12-2003 16:36:00 1.4 C 3.04 g/m*3 1.4 C 0 km/h
2507 22-12-2003 16:48:00 1.2 C 3.1 g/m*3 1.2 C 0 km/h
2508 22-12-2003 17:00:00 1.1 C 3.24 g/m*3 1.1 C 0 km/h
2509 22-12-2003 17:13:01 0.9 C 3.4 g/m*3 0.9 C 0 km/h
2510 22-12-2003 17:25:01 0.6 C 3.43 g/m*3 0.6 C 0 km/h
2511 22-12-2003 17:36:00 0.6 C 3.43 g/m*3 0.6 C 0 km/h
2512 22-12-2003 17:48:01 0.6 C 3.43 g/m*3 0.6 C 0 km/h
2513 22-12-2003 18:00:01 0.8 C 3.43 g/m*3 0.8 C 0 km/h
2514 22-12-2003 18:12:00 0.6 C 3.43 g/m*3 0.6 C 0 km/h
2515 22-12-2003 18:24:00 0.7 C 3.46 g/m*3 0.7 C 0 km/h
2516 22-12-2003 18:36:00 0.7 C 3.51 g/m*3 0.7 C 0 km/h
2517 22-12-2003 18:48:00 0.5 C 3.51 g/m*3 0.5 C 0 km/h
2518 22-12-2003 19:00:00 0.8 C 3.53 g/m*3 0.8 C 0 km/h
2519 22-12-2003 19:13:00 0.7 C 3.56 g/m*3 0.7 C 0 km/h
2520 22-12-2003 19:25:00 0.6 C 3.59 g/m*3 0.6 C 0 km/h
2521 22-12-2003 19:36:01 0.4 C 3.59 g/m*3 0.4 C 0 km/h
2522 22-12-2003 19:48:01 0.2 C 3.59 g/m*3 0.2 C 0 km/h
2523 22-12-2003 20:00:01 0.3 C 3.61 g/m*3 0.3 C 0 km/h
2524 22-12-2003 20:12:00 0.3 C 3.66 g/m*3 0.3 C 0 km/h
2525 22-12-2003 20:24:00 0.3 C 3.66 g/m*3 0.3 C 0 km/h
Sensor: Nr:Datum:Temp:Abs-Feuchte:Windchill:Wind:
Aussen-T/F 2526 22-12-2003 20:36:01 0.1 C 3.61 g/m*3 0.1 C 0 km/h
2527 22-12-2003 20:48:01 0 C 3.63 g/m*3 0 C 0 km/h
2528 22-12-2003 21:00:01 -0.1 C 3.61 g/m*3 -0.1 C 0 km/h
2529 22-12-2003 21:12:00 -0.3 C 3.61 g/m*3 -0.3 C 0 km/h
2530 22-12-2003 21:24:00 -0.4 C 3.63 g/m*3 -0.4 C 0 km/h
2531 22-12-2003 21:36:00 -0.2 C 3.68 g/m*3 -0.2 C 0 km/h
2532 22-12-2003 21:48:00 -0.6 C 3.53 g/m*3 -0.6 C 0 km/h
2533 22-12-2003 22:00:00 -1 C 3.48 g/m*3 -1 C 0 km/h
2534 22-12-2003 22:13:01 -1.2 C 3.48 g/m*3 -1.2 C 0 km/h
2535 22-12-2003 22:25:01 -1.3 C 3.5 g/m*3 -1.3 C 0 km/h
2536 22-12-2003 22:36:01 -1.4 C 3.52 g/m*3 -1.4 C 0 km/h
2537 22-12-2003 22:48:01 -1.4 C 3.52 g/m*3 -1.4 C 0 km/h
2538 22-12-2003 23:00:01 -1.3 C 3.54 g/m*3 -1.3 C 0 km/h
2539 22-12-2003 23:12:00 -1.3 C 3.5 g/m*3 -1.3 C 0 km/h
2540 22-12-2003 23:24:00 -1.4 C 3.47 g/m*3 -1.4 C 0 km/h
2541 22-12-2003 23:36:00 -1.6 C 3.42 g/m*3 -1.6 C 0 km/h
2542 22-12-2003 23:48:00 -1.8 C 3.38 g/m*3 -1.8 C 0 km/h
2543 23-12-2003 00:00:00 -1.9 C 3.4 g/m*3 -1.9 C 0 km/h
2544 23-12-2003 00:13:01 -2 C 3.37 g/m*3 -2 C 0 km/h
2545 23-12-2003 00:25:01 -1.9 C 3.44 g/m*3 -1.9 C 0 km/h
2546 23-12-2003 00:36:00 -2 C 3.41 g/m*3 -2 C 0 km/h
2547 23-12-2003 00:36:01 -2 C 3.41 g/m*3 -2 C 0 km/h
2548 23-12-2003 00:48:00 -2.1 C 3.39 g/m*3 -2.1 C 0 km/h
2549 23-12-2003 01:00:00 -2.3 C 3.34 g/m*3 -2.3 C 0 km/h
2550 23-12-2003 01:12:00 -2.3 C 3.38 g/m*3 -2.3 C 0 km/h
Sensor: Nr:Datum:Temp:Abs-Feuchte:Windchill:Wind:
Aussen-T/F 2551 23-12-2003 01:24:00 -2.2 C 3.41 g/m*3 -2.2 C 0 km/h
2552 23-12-2003 01:36:01 -2.3 C 3.34 g/m*3 -2.3 C 0 km/h
2553 23-12-2003 01:48:01 -2.4 C 3.32 g/m*3 -2.4 C 0 km/h
2554 23-12-2003 02:00:01 -2.4 C 3.32 g/m*3 -2.4 C 0 km/h
2555 23-12-2003 02:12:00 -2.5 C 3.3 g/m*3 -2.5 C 0 km/h
2556 23-12-2003 02:24:00 -2.4 C 3.32 g/m*3 -2.4 C 0 km/h
2557 23-12-2003 02:36:00 -2.3 C 3.34 g/m*3 -2.3 C 0 km/h
2558 23-12-2003 02:48:00 -1.9 C 3.35 g/m*3 -1.9 C 0 km/h
2559 23-12-2003 03:00:00 -2.1 C 3.31 g/m*3 -2.1 C 0 km/h
2560 23-12-2003 03:13:01 -2.1 C 3.31 g/m*3 -2.1 C 0 km/h
2561 23-12-2003 03:25:01 -2.1 C 3.26 g/m*3 -2.1 C 0 km/h
2562 23-12-2003 03:36:01 -2.3 C 3.26 g/m*3 -2.3 C 0 km/h
2563 23-12-2003 03:48:01 -2.5 C 3.21 g/m*3 -2.5 C 0 km/h
2564 23-12-2003 04:00:01 -2.5 C 3.21 g/m*3 -2.5 C 0 km/h
2565 23-12-2003 04:12:00 -2.6 C 3.19 g/m*3 -2.6 C 0 km/h
2566 23-12-2003 04:24:00 -2.6 C 3.19 g/m*3 -2.6 C 0 km/h
2567 23-12-2003 04:36:00 -2.4 C 3.24 g/m*3 -2.4 C 0 km/h
2568 23-12-2003 04:48:00 -2.4 C 3.2 g/m*3 -2.4 C 0 km/h
2569 23-12-2003 05:00:00 -2.4 C 3.2 g/m*3 -2.4 C 0 km/h
2570 23-12-2003 05:13:01 -2.4 C 3.2 g/m*3 -2.4 C 0 km/h
2571 23-12-2003 05:25:01 -2.2 C 3.2 g/m*3 -2.2 C 0 km/h
2572 23-12-2003 05:36:01 -2 C 3.2 g/m*3 -2 C 0 km/h
2573 23-12-2003 05:48:01 -2 C 3.2 g/m*3 -2 C 0 km/h
2574 23-12-2003 06:00:01 -1.9 C 3.23 g/m*3 -1.9 C 0 km/h
2575 23-12-2003 06:12:00 -1.9 C 3.31 g/m*3 -1.9 C 0 km/h
Sensor: Nr:Datum:Temp:Abs-Feuchte:Windchill:Wind:
Aussen-T/F 2576 23-12-2003 06:24:00 -1.8 C 3.33 g/m*3 -1.8 C 0 km/h
2577 23-12-2003 06:36:01 -1.7 C 3.36 g/m*3 -1.7 C 0 km/h
2578 23-12-2003 06:48:01 -1.7 C 3.36 g/m*3 -1.7 C 0 km/h
2579 23-12-2003 07:00:01 -1.7 C 3.36 g/m*3 -1.7 C 0 km/h
2580 23-12-2003 07:12:00 -1.8 C 3.33 g/m*3 -1.8 C 0 km/h
2581 23-12-2003 07:24:00 -1.7 C 3.4 g/m*3 -1.7 C 0 km/h
2582 23-12-2003 07:36:00 -1.4 C 3.43 g/m*3 -1.4 C 0 km/h
2583 23-12-2003 07:48:00 -1.4 C 3.43 g/m*3 -1.4 C 0 km/h
2584 23-12-2003 08:00:00 -1.5 C 3.41 g/m*3 -1.5 C 0 km/h
2585 23-12-2003 08:13:00 -1.4 C 3.43 g/m*3 -1.4 C 0 km/h
2586 23-12-2003 08:25:00 -1 C 3.53 g/m*3 -1 C 0 km/h
2587 23-12-2003 08:36:01 -0.7 C 3.6 g/m*3 -0.7 C 0 km/h
2588 23-12-2003 08:48:01 -0.7 C 3.55 g/m*3 -0.7 C 0 km/h
2589 23-12-2003 09:00:01 -0.6 C 3.58 g/m*3 -0.6 C 0 km/h
2590 23-12-2003 09:12:00 -0.5 C 3.6 g/m*3 -0.5 C 0 km/h
2591 23-12-2003 09:24:00 -0.4 C 3.63 g/m*3 -0.4 C 0 km/h
2592 23-12-2003 09:36:01 -0.4 C 3.68 g/m*3 -0.4 C 0 km/h
2593 23-12-2003 09:48:01 0 C 3.78 g/m*3 0 C 0 km/h
2594 23-12-2003 10:00:01 0.3 C 3.81 g/m*3 0.3 C 0 km/h
2595 23-12-2003 10:12:00 0.6 C 3.84 g/m*3 0.6 C 0 km/h
2596 23-12-2003 10:24:00 0.7 C 3.86 g/m*3 0.7 C 0 km/h
2597 23-12-2003 10:36:01 0.6 C 3.79 g/m*3 0.6 C 0 km/h
2598 23-12-2003 10:48:01 0.6 C 3.79 g/m*3 0.6 C 0 km/h
2599 23-12-2003 11:00:01 0.7 C 3.81 g/m*3 0.7 C 0 km/h
2600 23-12-2003 11:12:00 0.9 C 3.81 g/m*3 0.9 C 0 km/h
Sensor: Nr:Datum:Temp:Abs-Feuchte:Windchill:Wind:
Aussen-T/F 2601 23-12-2003 11:24:00 1.2 C 3.79 g/m*3 1.2 C 0 km/h
2602 23-12-2003 11:36:00 1.5 C 3.76 g/m*3 1.5 C 0 km/h
2603 23-12-2003 11:48:16 1.6 C 3.68 g/m*3 1.6 C 0 km/h
2604 23-12-2003 12:00:16 1.9 C 3.7 g/m*3 1.9 C 0 km/h
2605 23-12-2003 12:13:01 2 C 3.61 g/m*3 2 C 0 km/h
2606 23-12-2003 12:25:01 2.1 C 3.64 g/m*3 2.1 C 0 km/h
2607 23-12-2003 12:36:00 2 C 3.67 g/m*3 2 C 0 km/h
2608 23-12-2003 12:48:01 1.9 C 3.7 g/m*3 1.9 C 0 km/h
2609 23-12-2003 13:00:01 1.9 C 3.7 g/m*3 1.9 C 0 km/h
2610 23-12-2003 13:12:00 1.6 C 3.62 g/m*3 1.6 C 0 km/h
2611 23-12-2003 13:24:00 1.7 C 3.59 g/m*3 1.7 C 0 km/h
2612 23-12-2003 13:36:01 1.6 C 3.57 g/m*3 1.6 C 0 km/h
2613 23-12-2003 13:48:01 1.8 C 3.62 g/m*3 1.8 C 0 km/h
2614 23-12-2003 14:00:01 1.8 C 3.62 g/m*3 1.8 C 0 km/h
2615 23-12-2003 14:12:00 1.8 C 3.56 g/m*3 1.8 C 0 km/h
2616 23-12-2003 14:24:00 1.8 C 3.51 g/m*3 1.8 C 0 km/h
2617 23-12-2003 14:36:00 1.7 C 3.48 g/m*3 1.7 C 0 km/h
2618 23-12-2003 14:48:00 1.7 C 3.48 g/m*3 1.7 C 0 km/h
2619 23-12-2003 15:00:00 1.8 C 3.51 g/m*3 1.8 C 0 km/h
2620 23-12-2003 15:13:00 1.8 C 3.56 g/m*3 1.8 C 0 km/h
2621 23-12-2003 15:25:01 1.8 C 3.56 g/m*3 1.8 C 0 km/h
2622 23-12-2003 15:36:01 1.8 C 3.56 g/m*3 1.8 C 0 km/h
2623 23-12-2003 15:48:01 1.8 C 3.56 g/m*3 1.8 C 0 km/h
2624 23-12-2003 16:00:01 1.8 C 3.51 g/m*3 1.8 C 0 km/h
2625 23-12-2003 16:12:00 1.6 C 3.51 g/m*3 1.6 C 0 km/h
Sensor: Nr:Datum:Temp:Abs-Feuchte:Windchill:Wind:
Aussen-T/F 2626 23-12-2003 16:24:00 1.5 C 3.54 g/m*3 1.5 C 0 km/h
2627 23-12-2003 16:36:01 1.4 C 3.57 g/m*3 1.4 C 0 km/h
2628 23-12-2003 16:48:01 1.1 C 3.66 g/m*3 1.1 C 0 km/h
2629 23-12-2003 17:00:01 0.9 C 3.71 g/m*3 0.9 C 0 km/h
2630 23-12-2003 17:12:00 0.9 C 3.76 g/m*3 0.9 C 0 km/h
2631 23-12-2003 17:24:00 1 C 3.74 g/m*3 1 C 0 km/h
2632 23-12-2003 17:36:00 0.9 C 3.81 g/m*3 0.9 C 0 km/h
2633 23-12-2003 17:48:00 0.8 C 3.89 g/m*3 0.8 C 0 km/h
2634 23-12-2003 18:00:00 0.7 C 3.97 g/m*3 0.7 C 0 km/h
2635 23-12-2003 18:13:01 0.7 C 4.02 g/m*3 0.7 C 0 km/h
2636 23-12-2003 18:25:01 0.7 C 4.02 g/m*3 0.7 C 0 km/h
2637 23-12-2003 18:36:05 0.9 C 4.02 g/m*3 0.9 C 0 km/h
2638 23-12-2003 21:45:53 1.4 C 3.89 g/m*3 1.4 C 0 km/h
2639 23-12-2003 21:50:01 1.4 C 3.89 g/m*3 1.4 C 0 km/h
2640 23-12-2003 22:30:01 1.4 C 3.89 g/m*3 1.4 C 0 km/h
2641 23-12-2003 22:42:00 1.5 C 3.92 g/m*3 1.5 C 0 km/h
2642 23-12-2003 22:54:00 1.6 C 3.95 g/m*3 1.6 C 0 km/h
2643 23-12-2003 23:06:59 1.5 C 3.92 g/m*3 1.5 C 0 km/h
2644 23-12-2003 23:18:59 1.5 C 3.92 g/m*3 1.5 C 0 km/h
2645 23-12-2003 23:30:59 1.6 C 3.95 g/m*3 1.6 C 0 km/h
2646 23-12-2003 23:43:01 1.6 C 3.95 g/m*3 1.6 C 0 km/h
2647 23-12-2003 23:55:01 1.6 C 3.89 g/m*3 1.6 C 0 km/h
2648 24-12-2003 00:07:01 1.5 C 3.92 g/m*3 1.5 C 0 km/h
2649 24-12-2003 00:19:01 1.4 C 3.95 g/m*3 1.4 C 0 km/h
2650 24-12-2003 00:31:01 1.3 C 3.97 g/m*3 1.3 C 0 km/h
Sensor: Nr:Datum:Temp:Abs-Feuchte:Windchill:Wind:
Aussen-T/F 2651 24-12-2003 00:43:01 1.3 C 3.97 g/m*3 1.3 C 0 km/h
2652 24-12-2003 00:55:01 1.3 C 3.92 g/m*3 1.3 C 0 km/h
2653 24-12-2003 01:07:01 1.4 C 3.95 g/m*3 1.4 C 0 km/h
2654 24-12-2003 01:19:01 1.5 C 3.92 g/m*3 1.5 C 0 km/h
2655 24-12-2003 01:31:01 1.5 C 3.92 g/m*3 1.5 C 0 km/h
2656 24-12-2003 01:43:01 1.5 C 3.92 g/m*3 1.5 C 0 km/h
2657 24-12-2003 01:55:01 1.5 C 3.92 g/m*3 1.5 C 0 km/h
2658 24-12-2003 02:07:01 1.4 C 3.95 g/m*3 1.4 C 0 km/h
2659 24-12-2003 02:19:01 1.5 C 3.97 g/m*3 1.5 C 0 km/h
2660 24-12-2003 02:31:01 1.5 C 3.92 g/m*3 1.5 C 0 km/h
2661 24-12-2003 02:43:01 1.5 C 3.92 g/m*3 1.5 C 0 km/h
2662 24-12-2003 02:55:01 1.4 C 3.89 g/m*3 1.4 C 0 km/h
2663 24-12-2003 03:07:01 1.4 C 3.95 g/m*3 1.4 C 0 km/h
2664 24-12-2003 03:19:01 1.3 C 3.92 g/m*3 1.3 C 0 km/h
2665 24-12-2003 03:31:01 1.2 C 3.95 g/m*3 1.2 C 0 km/h
2666 24-12-2003 03:43:01 1.1 C 3.92 g/m*3 1.1 C 0 km/h
2667 24-12-2003 03:55:01 0.9 C 3.92 g/m*3 0.9 C 0 km/h
2668 24-12-2003 04:07:01 0.8 C 3.89 g/m*3 0.8 C 0 km/h
2669 24-12-2003 04:19:01 0.9 C 3.92 g/m*3 0.9 C 0 km/h
2670 24-12-2003 04:31:01 1.1 C 3.97 g/m*3 1.1 C 0 km/h
2671 24-12-2003 04:43:01 1.2 C 3.95 g/m*3 1.2 C 0 km/h
2672 24-12-2003 04:55:01 1.4 C 3.95 g/m*3 1.4 C 0 km/h
2673 24-12-2003 05:07:01 1.4 C 3.95 g/m*3 1.4 C 0 km/h
2674 24-12-2003 05:19:01 1.4 C 3.95 g/m*3 1.4 C 0 km/h
2675 24-12-2003 05:31:01 1.5 C 3.92 g/m*3 1.5 C 0 km/h
Sensor: Nr:Datum:Temp:Abs-Feuchte:Windchill:Wind:
Aussen-T/F 2676 24-12-2003 05:43:01 1.5 C 3.92 g/m*3 1.5 C 0 km/h
2677 24-12-2003 05:55:01 1.6 C 3.95 g/m*3 1.6 C 0 km/h
2678 24-12-2003 05:55:32 1.6 C 3.95 g/m*3 1.6 C 0 km/h
2679 24-12-2003 06:07:32 1.6 C 3.95 g/m*3 1.6 C 0 km/h
2680 24-12-2003 06:19:32 1.6 C 3.95 g/m*3 1.6 C 0 km/h
2681 24-12-2003 06:31:32 1.6 C 3.89 g/m*3 1.6 C 0 km/h
2682 24-12-2003 06:43:32 1.5 C 3.92 g/m*3 1.5 C 0 km/h
2683 24-12-2003 06:55:32 1.5 C 3.92 g/m*3 1.5 C 0 km/h
2684 24-12-2003 07:07:32 1.4 C 3.89 g/m*3 1.4 C 0 km/h
2685 24-12-2003 07:19:32 1.2 C 3.84 g/m*3 1.2 C 0 km/h
2686 24-12-2003 07:31:32 0.8 C 3.79 g/m*3 0.8 C 0 km/h
2687 24-12-2003 07:31:35 0.8 C 3.79 g/m*3 0.8 C 0 km/h
2688 24-12-2003 07:43:35 0.4 C 3.74 g/m*3 0.4 C 0 km/h
2689 24-12-2003 07:55:35 0.3 C 3.76 g/m*3 0.3 C 0 km/h
2690 24-12-2003 08:07:35 0.2 C 3.73 g/m*3 0.2 C 0 km/h
2691 24-12-2003 08:19:35 0.1 C 3.71 g/m*3 0.1 C 0 km/h
2692 24-12-2003 08:31:35 0.1 C 3.71 g/m*3 0.1 C 0 km/h
2693 24-12-2003 08:43:35 0.1 C 3.71 g/m*3 0.1 C 0 km/h
2694 24-12-2003 08:55:35 0 C 3.68 g/m*3 0 C 0 km/h
2695 24-12-2003 09:07:35 -0.2 C 3.63 g/m*3 -0.2 C 0 km/h
2696 24-12-2003 09:19:35 -0.3 C 3.61 g/m*3 -0.3 C 0 km/h
2697 24-12-2003 09:31:35 -0.1 C 3.66 g/m*3 -0.1 C 0 km/h
2698 24-12-2003 09:43:35 -0.1 C 3.61 g/m*3 -0.1 C 0 km/h
2699 24-12-2003 09:55:35 -0.2 C 3.58 g/m*3 -0.2 C 0 km/h
2700 24-12-2003 10:07:35 -0.2 C 3.63 g/m*3 -0.2 C 0 km/h
Sensor: Nr:Datum:Temp:Abs-Feuchte:Windchill:Wind:
Aussen-T/F 2701 24-12-2003 10:19:35 -0.3 C 3.65 g/m*3 -0.3 C 0 km/h
2702 24-12-2003 10:31:35 -0.4 C 3.68 g/m*3 -0.4 C 0 km/h
2703 24-12-2003 10:43:35 -0.4 C 3.72 g/m*3 -0.4 C 0 km/h
2704 24-12-2003 10:55:35 -0.3 C 3.75 g/m*3 -0.3 C 0 km/h
2705 24-12-2003 11:07:35 -0.3 C 3.75 g/m*3 -0.3 C 0 km/h
2706 24-12-2003 11:19:35 -0.2 C 3.78 g/m*3 -0.2 C 0 km/h
2707 24-12-2003 11:31:35 0 C 3.78 g/m*3 0 C 0 km/h
2708 24-12-2003 11:43:35 0.1 C 3.76 g/m*3 0.1 C 0 km/h
2709 24-12-2003 11:55:35 0.3 C 3.81 g/m*3 0.3 C 0 km/h
2710 24-12-2003 12:07:58 0.5 C 3.81 g/m*3 0.5 C 0 km/h
2711 24-12-2003 12:19:01 0.8 C 3.89 g/m*3 0.8 C 0 km/h
2712 24-12-2003 12:31:01 1.4 C 3.89 g/m*3 1.4 C 0 km/h
2713 24-12-2003 12:43:01 2.1 C 3.92 g/m*3 2.1 C 0 km/h
2714 24-12-2003 12:55:01 2.3 C 3.86 g/m*3 2.3 C 0 km/h
2715 24-12-2003 13:07:00 2.8 C 3.7 g/m*3 2.8 C 0 km/h
2716 24-12-2003 13:19:00 3.2 C 3.56 g/m*3 3.2 C 0 km/h
2717 24-12-2003 13:31:00 3.2 C 3.62 g/m*3 3.2 C 0 km/h
2718 24-12-2003 13:43:01 3.2 C 3.62 g/m*3 3.2 C 0 km/h
2719 24-12-2003 13:55:01 3 C 3.69 g/m*3 3 C 0 km/h
2720 24-12-2003 14:07:01 2.9 C 3.78 g/m*3 2.9 C 0 km/h
2721 24-12-2003 14:19:01 3.1 C 3.71 g/m*3 3.1 C 0 km/h
2722 24-12-2003 14:31:01 3.5 C 3.81 g/m*3 3.5 C 0 km/h
2723 24-12-2003 14:43:00 3.7 C 3.86 g/m*3 3.7 C 0 km/h
2724 24-12-2003 14:55:00 3.8 C 3.76 g/m*3 3.8 C 0 km/h
2725 24-12-2003 14:55:58 3.8 C 3.76 g/m*3 3.8 C 0 km/h
Sensor: Nr:Datum:Temp:Abs-Feuchte:Windchill:Wind:
Aussen-T/F 2726 24-12-2003 15:07:58 3.8 C 3.64 g/m*3 3.8 C 0 km/h
2727 24-12-2003 15:07:59 3.8 C 3.64 g/m*3 3.8 C 0 km/h
2728 24-12-2003 15:19:59 3.2 C 3.74 g/m*3 3.2 C 0 km/h
2729 24-12-2003 15:31:01 2.4 C 3.77 g/m*3 2.4 C 0 km/h
2730 24-12-2003 15:43:01 2.2 C 3.72 g/m*3 2.2 C 0 km/h
2731 24-12-2003 15:43:49 2.2 C 3.72 g/m*3 2.2 C 0 km/h
2732 24-12-2003 15:55:49 1.8 C 3.84 g/m*3 1.8 C 0 km/h
2733 24-12-2003 16:07:39 1.4 C 3.73 g/m*3 1.4 C 0 km/h
2734 24-12-2003 16:19:39 1.3 C 3.71 g/m*3 1.3 C 0 km/h
2735 24-12-2003 16:31:01 1.4 C 3.68 g/m*3 1.4 C 0 km/h
2736 24-12-2003 16:43:01 1.6 C 3.62 g/m*3 1.6 C 0 km/h
2737 24-12-2003 16:55:01 1.6 C 3.51 g/m*3 1.6 C 0 km/h
2738 24-12-2003 17:07:02 1.5 C 3.65 g/m*3 1.5 C 0 km/h
2739 24-12-2003 17:19:02 1.5 C 3.65 g/m*3 1.5 C 0 km/h
2740 24-12-2003 17:31:02 1.5 C 3.65 g/m*3 1.5 C 0 km/h
2741 24-12-2003 17:43:00 1.4 C 3.63 g/m*3 1.4 C 0 km/h
2742 24-12-2003 17:55:00 1.3 C 3.6 g/m*3 1.3 C 0 km/h
2743 24-12-2003 18:07:59 1.3 C 3.66 g/m*3 1.3 C 0 km/h
2744 24-12-2003 18:19:59 1.2 C 3.58 g/m*3 1.2 C 0 km/h
2745 24-12-2003 18:31:01 1.2 C 3.63 g/m*3 1.2 C 0 km/h
2746 24-12-2003 18:43:01 1.2 C 3.63 g/m*3 1.2 C 0 km/h
2747 24-12-2003 18:55:01 1.2 C 3.63 g/m*3 1.2 C 0 km/h
2748 24-12-2003 19:07:00 1.2 C 3.58 g/m*3 1.2 C 0 km/h
2749 24-12-2003 19:19:00 1.2 C 3.53 g/m*3 1.2 C 0 km/h
2750 24-12-2003 19:31:00 1.1 C 3.55 g/m*3 1.1 C 0 km/h
Sensor: Nr:Datum:Temp:Abs-Feuchte:Windchill:Wind:
Aussen-T/F 2751 24-12-2003 19:43:01 1 C 3.53 g/m*3 1 C 0 km/h
2752 24-12-2003 19:55:01 1.1 C 3.55 g/m*3 1.1 C 0 km/h
2753 24-12-2003 20:07:01 1.3 C 3.6 g/m*3 1.3 C 0 km/h
2754 24-12-2003 20:19:01 1.5 C 3.65 g/m*3 1.5 C 0 km/h
2755 24-12-2003 20:31:01 1.6 C 3.68 g/m*3 1.6 C 0 km/h
2756 24-12-2003 20:43:01 1.7 C 3.65 g/m*3 1.7 C 0 km/h
2757 24-12-2003 20:55:01 1.7 C 3.65 g/m*3 1.7 C 0 km/h
2758 24-12-2003 21:07:01 1.8 C 3.67 g/m*3 1.8 C 0 km/h
2759 24-12-2003 21:19:01 1.8 C 3.67 g/m*3 1.8 C 0 km/h
2760 24-12-2003 21:31:01 2 C 3.5 g/m*3 2 C 0 km/h
2761 24-12-2003 21:43:00 2.3 C 3.35 g/m*3 2.3 C 0 km/h
2762 24-12-2003 21:55:00 2.4 C 3.43 g/m*3 2.4 C 0 km/h
2763 24-12-2003 22:07:01 2.4 C 3.37 g/m*3 2.4 C 0 km/h
2764 24-12-2003 22:07:59 2.4 C 3.37 g/m*3 2.4 C 0 km/h
2765 24-12-2003 22:19:01 2.4 C 3.31 g/m*3 2.4 C 0 km/h
2766 24-12-2003 22:31:01 2.4 C 3.31 g/m*3 2.4 C 0 km/h
2767 24-12-2003 22:43:01 2.5 C 3.28 g/m*3 2.5 C 0 km/h
2768 24-12-2003 22:55:01 2.4 C 3.31 g/m*3 2.4 C 0 km/h
2769 24-12-2003 23:07:00 2.5 C 3.28 g/m*3 2.5 C 0 km/h
2770 24-12-2003 23:19:00 2.6 C 3.24 g/m*3 2.6 C 0 km/h
2771 24-12-2003 23:31:00 2.6 C 3.3 g/m*3 2.6 C 0 km/h
2772 24-12-2003 23:43:01 2.6 C 3.3 g/m*3 2.6 C 0 km/h
2773 24-12-2003 23:55:01 2.7 C 3.26 g/m*3 2.7 C 0 km/h
2774 25-12-2003 00:07:01 2.8 C 3.23 g/m*3 2.8 C 0 km/h
2775 25-12-2003 00:19:01 3 C 3.15 g/m*3 3 C 0 km/h
Sensor: Nr:Datum:Temp:Abs-Feuchte:Windchill:Wind:
Aussen-T/F 2776 25-12-2003 00:31:01 3 C 3.15 g/m*3 3 C 0 km/h
2777 25-12-2003 00:43:01 2.9 C 3.19 g/m*3 2.9 C 0 km/h
2778 25-12-2003 00:55:01 2.8 C 3.23 g/m*3 2.8 C 0 km/h
2779 25-12-2003 01:07:01 2.8 C 3.28 g/m*3 2.8 C 0 km/h
2780 25-12-2003 01:19:01 2.8 C 3.28 g/m*3 2.8 C 0 km/h
2781 25-12-2003 01:31:01 2.8 C 3.34 g/m*3 2.8 C 0 km/h
2782 25-12-2003 01:43:00 2.8 C 3.28 g/m*3 2.8 C 0 km/h
2783 25-12-2003 01:55:00 2.9 C 3.31 g/m*3 2.9 C 0 km/h
2784 25-12-2003 02:07:59 2.9 C 3.31 g/m*3 2.9 C 0 km/h
2785 25-12-2003 02:19:59 3 C 3.33 g/m*3 3 C 0 km/h
2786 25-12-2003 02:31:01 3 C 3.33 g/m*3 3 C 0 km/h
2787 25-12-2003 02:43:01 3 C 3.33 g/m*3 3 C 0 km/h
2788 25-12-2003 02:55:01 3.1 C 3.35 g/m*3 3.1 C 0 km/h
2789 25-12-2003 03:07:00 3 C 3.33 g/m*3 3 C 0 km/h
2790 25-12-2003 03:19:00 3 C 3.33 g/m*3 3 C 0 km/h
2791 25-12-2003 03:31:00 3.1 C 3.35 g/m*3 3.1 C 0 km/h
2792 25-12-2003 03:43:00 3.2 C 3.31 g/m*3 3.2 C 0 km/h
2793 25-12-2003 03:55:00 3.1 C 3.29 g/m*3 3.1 C 0 km/h
2794 25-12-2003 04:08:00 3.1 C 3.29 g/m*3 3.1 C 0 km/h
2795 25-12-2003 04:20:00 3.1 C 3.29 g/m*3 3.1 C 0 km/h
2796 25-12-2003 04:31:01 3.1 C 3.35 g/m*3 3.1 C 0 km/h
2797 25-12-2003 04:43:01 3.1 C 3.35 g/m*3 3.1 C 0 km/h
2798 25-12-2003 04:55:01 3 C 3.33 g/m*3 3 C 0 km/h
2799 25-12-2003 05:07:00 3 C 3.33 g/m*3 3 C 0 km/h
2800 25-12-2003 05:19:00 3 C 3.39 g/m*3 3 C 0 km/h
Sensor: Nr:Datum:Temp:Abs-Feuchte:Windchill:Wind:
Aussen-T/F 2801 25-12-2003 05:31:00 3 C 3.39 g/m*3 3 C 0 km/h
2802 25-12-2003 05:43:01 3 C 3.45 g/m*3 3 C 0 km/h
2803 25-12-2003 05:55:01 3 C 3.51 g/m*3 3 C 0 km/h
2804 25-12-2003 06:07:00 3 C 3.57 g/m*3 3 C 0 km/h
2805 25-12-2003 06:19:00 2.8 C 3.7 g/m*3 2.8 C 0 km/h
2806 25-12-2003 06:31:00 2.7 C 3.73 g/m*3 2.7 C 0 km/h
2807 25-12-2003 06:43:00 2.8 C 3.75 g/m*3 2.8 C 0 km/h
2808 25-12-2003 06:55:00 2.7 C 3.79 g/m*3 2.7 C 0 km/h
2809 25-12-2003 07:08:00 2.7 C 3.79 g/m*3 2.7 C 0 km/h
2810 25-12-2003 07:20:01 2.8 C 3.81 g/m*3 2.8 C 0 km/h
2811 25-12-2003 07:31:01 2.7 C 3.79 g/m*3 2.7 C 0 km/h
2812 25-12-2003 07:43:01 2.8 C 3.87 g/m*3 2.8 C 0 km/h
2813 25-12-2003 07:55:01 2.8 C 3.99 g/m*3 2.8 C 0 km/h
2814 25-12-2003 08:07:00 2.8 C 4.05 g/m*3 2.8 C 0 km/h
2815 25-12-2003 08:19:00 2.7 C 4.08 g/m*3 2.7 C 0 km/h
2816 25-12-2003 08:31:00 2.7 C 4.08 g/m*3 2.7 C 0 km/h
2817 25-12-2003 08:43:00 2.6 C 4.11 g/m*3 2.6 C 0 km/h
2818 25-12-2003 08:55:00 2.6 C 4.17 g/m*3 2.6 C 0 km/h
2819 25-12-2003 09:08:00 2.7 C 4.2 g/m*3 2.7 C 0 km/h
2820 25-12-2003 09:20:01 2.7 C 4.2 g/m*3 2.7 C 0 km/h
2821 25-12-2003 09:31:00 2.7 C 4.2 g/m*3 2.7 C 0 km/h
2822 25-12-2003 09:43:01 2.7 C 4.2 g/m*3 2.7 C 0 km/h
2823 25-12-2003 09:55:01 2.7 C 4.25 g/m*3 2.7 C 0 km/h
2824 25-12-2003 10:07:00 2.8 C 4.28 g/m*3 2.8 C 0 km/h
2825 25-12-2003 10:19:00 2.9 C 4.31 g/m*3 2.9 C 0 km/h
Sensor: Nr:Datum:Temp:Abs-Feuchte:Windchill:Wind:
Aussen-T/F 2826 25-12-2003 10:31:00 3 C 4.28 g/m*3 3 C 0 km/h
2827 25-12-2003 10:43:00 3.1 C 4.37 g/m*3 3.1 C 0 km/h
2828 25-12-2003 10:55:00 3 C 4.34 g/m*3 3 C 0 km/h
2829 25-12-2003 11:08:00 3 C 4.34 g/m*3 3 C 0 km/h
2830 25-12-2003 11:20:01 3.1 C 4.43 g/m*3 3.1 C 0 km/h
2831 25-12-2003 11:31:48 3.1 C 4.43 g/m*3 3.1 C 0 km/h
2832 25-12-2003 11:43:48 3.1 C 4.49 g/m*3 3.1 C 0 km/h
2833 25-12-2003 11:56:00 3.2 C 4.52 g/m*3 3.2 C 0 km/h
2834 25-12-2003 12:08:01 3.3 C 4.55 g/m*3 3.3 C 0 km/h
2835 25-12-2003 12:20:01 3.5 C 4.61 g/m*3 3.5 C 0 km/h
2836 25-12-2003 12:31:00 3.4 C 4.58 g/m*3 3.4 C 0 km/h
2837 25-12-2003 12:43:01 3.5 C 4.61 g/m*3 3.5 C 0 km/h
2838 25-12-2003 12:55:01 3.6 C 4.7 g/m*3 3.6 C 0 km/h
2839 25-12-2003 13:07:00 3.6 C 4.64 g/m*3 3.6 C 0 km/h
2840 25-12-2003 13:19:00 3.6 C 4.7 g/m*3 3.6 C 0 km/h
2841 25-12-2003 13:31:00 3.6 C 4.7 g/m*3 3.6 C 0 km/h
2842 25-12-2003 13:43:00 3.7 C 4.74 g/m*3 3.7 C 0 km/h
2843 25-12-2003 13:55:01 3.7 C 4.74 g/m*3 3.7 C 0 km/h
2844 25-12-2003 14:07:00 3.7 C 4.74 g/m*3 3.7 C 0 km/h
2845 25-12-2003 15:31:20 4 C 4.83 g/m*3 4 C 0 km/h
2846 25-12-2003 15:43:49 4.1 C 4.86 g/m*3 4.1 C 0 km/h
2847 25-12-2003 15:55:00 4.1 C 4.86 g/m*3 4.1 C 0 km/h
2848 25-12-2003 16:04:05 4.1 C 4.86 g/m*3 4.1 C 0 km/h
2849 25-12-2003 16:07:05 4.1 C 4.86 g/m*3 4.1 C 0 km/h
2850 25-12-2003 16:10:06 4.1 C 4.86 g/m*3 4.1 C 0 km/h
Sensor: Nr:Datum:Temp:Abs-Feuchte:Windchill:Wind:
Aussen-T/F 2851 25-12-2003 16:21:08 4.3 C 4.93 g/m*3 4.3 C 0 km/h
2852 25-12-2003 16:24:07 4.1 C 4.86 g/m*3 4.1 C 0 km/h
2853 25-12-2003 16:26:50 4.1 C 4.86 g/m*3 4.1 C 0 km/h
2854 25-12-2003 16:38:50 4.1 C 4.86 g/m*3 4.1 C 0 km/h
2855 25-12-2003 16:51:01 4.2 C 4.96 g/m*3 4.2 C 0 km/h
2856 25-12-2003 17:03:01 4.2 C 4.96 g/m*3 4.2 C 0 km/h
2857 25-12-2003 17:15:01 4.2 C 4.96 g/m*3 4.2 C 0 km/h
2858 25-12-2003 17:27:01 4.3 C 4.99 g/m*3 4.3 C 0 km/h
2859 25-12-2003 17:38:01 4.1 C 4.93 g/m*3 4.1 C 0 km/h
2860 25-12-2003 17:50:01 4 C 4.96 g/m*3 4 C 0 km/h
2861 25-12-2003 18:02:00 4 C 4.96 g/m*3 4 C 0 km/h
2862 25-12-2003 18:14:00 4 C 4.96 g/m*3 4 C 0 km/h
2863 25-12-2003 18:26:00 4 C 4.96 g/m*3 4 C 0 km/h
2864 25-12-2003 18:38:00 4 C 4.96 g/m*3 4 C 0 km/h
2865 25-12-2003 18:50:00 4 C 5.02 g/m*3 4 C 0 km/h
2866 25-12-2003 19:02:00 4.1 C 5.06 g/m*3 4.1 C 0 km/h
2867 25-12-2003 19:14:00 4.1 C 5.06 g/m*3 4.1 C 0 km/h
2868 25-12-2003 19:26:00 4.3 C 5.12 g/m*3 4.3 C 0 km/h
2869 25-12-2003 19:38:46 4.2 C 5.09 g/m*3 4.2 C 0 km/h
2870 25-12-2003 19:50:46 4.2 C 5.09 g/m*3 4.2 C 0 km/h
2871 25-12-2003 20:03:01 4.3 C 5.12 g/m*3 4.3 C 0 km/h
2872 25-12-2003 20:15:01 4.5 C 5.19 g/m*3 4.5 C 0 km/h
2873 25-12-2003 20:27:01 4.6 C 5.23 g/m*3 4.6 C 0 km/h
2874 25-12-2003 20:38:00 4.7 C 5.2 g/m*3 4.7 C 0 km/h
2875 25-12-2003 20:50:01 4.8 C 5.23 g/m*3 4.8 C 0 km/h
Sensor: Nr:Datum:Temp:Abs-Feuchte:Windchill:Wind:
Aussen-T/F 2876 25-12-2003 21:02:00 4.8 C 5.23 g/m*3 4.8 C 0 km/h
2877 25-12-2003 21:14:00 4.9 C 5.27 g/m*3 4.9 C 0 km/h
2878 25-12-2003 21:26:00 5 C 5.23 g/m*3 5 C 0 km/h
2879 25-12-2003 21:38:00 5.1 C 5.27 g/m*3 5.1 C 0 km/h
2880 25-12-2003 21:50:00 5.2 C 5.23 g/m*3 5.2 C 0 km/h
2881 25-12-2003 22:02:01 5.2 C 5.23 g/m*3 5.2 C 0 km/h
2882 25-12-2003 22:14:01 5.3 C 5.27 g/m*3 5.3 C 0 km/h
2883 25-12-2003 22:26:01 5.3 C 5.27 g/m*3 5.3 C 0 km/h
2884 25-12-2003 22:38:01 5.3 C 5.27 g/m*3 5.3 C 0 km/h
2885 25-12-2003 22:50:01 5.3 C 5.34 g/m*3 5.3 C 0 km/h
2886 25-12-2003 23:02:00 5.3 C 5.41 g/m*3 5.3 C 0 km/h
2887 25-12-2003 23:14:00 5.3 C 5.41 g/m*3 5.3 C 0 km/h
2888 25-12-2003 23:26:00 5.3 C 5.41 g/m*3 5.3 C 0 km/h
2889 25-12-2003 23:38:00 5.4 C 5.44 g/m*3 5.4 C 0 km/h
2890 25-12-2003 23:50:00 5.3 C 5.48 g/m*3 5.3 C 0 km/h
2891 26-12-2003 00:03:01 5.4 C 5.44 g/m*3 5.4 C 0 km/h
2892 26-12-2003 00:15:01 5.5 C 5.48 g/m*3 5.5 C 0 km/h
2893 26-12-2003 00:27:01 5.5 C 5.48 g/m*3 5.5 C 0 km/h
2894 26-12-2003 00:38:01 5.5 C 5.41 g/m*3 5.5 C 0 km/h
2895 26-12-2003 00:50:01 5.5 C 5.41 g/m*3 5.5 C 0 km/h
2896 26-12-2003 01:02:00 5.5 C 5.48 g/m*3 5.5 C 0 km/h
2897 26-12-2003 01:14:00 5.5 C 5.41 g/m*3 5.5 C 0 km/h
2898 26-12-2003 01:26:00 5.6 C 5.44 g/m*3 5.6 C 0 km/h
2899 26-12-2003 01:38:01 5.6 C 5.44 g/m*3 5.6 C 0 km/h
2900 26-12-2003 01:50:01 5.6 C 5.44 g/m*3 5.6 C 0 km/h
Sensor: Nr:Datum:Temp:Abs-Feuchte:Windchill:Wind:
Aussen-T/F 2901 26-12-2003 02:02:00 5.6 C 5.44 g/m*3 5.6 C 0 km/h
2902 26-12-2003 02:14:00 5.5 C 5.41 g/m*3 5.5 C 0 km/h
2903 26-12-2003 02:26:00 5.5 C 5.41 g/m*3 5.5 C 0 km/h
2904 26-12-2003 02:38:01 5.5 C 5.41 g/m*3 5.5 C 0 km/h
2905 26-12-2003 02:50:01 5.4 C 5.44 g/m*3 5.4 C 0 km/h
2906 26-12-2003 03:02:00 5.3 C 5.41 g/m*3 5.3 C 0 km/h
2907 26-12-2003 03:14:00 5.4 C 5.44 g/m*3 5.4 C 0 km/h
2908 26-12-2003 03:26:00 5.5 C 5.41 g/m*3 5.5 C 0 km/h
2909 26-12-2003 03:38:00 5.3 C 5.34 g/m*3 5.3 C 0 km/h
2910 26-12-2003 03:50:00 5.2 C 5.3 g/m*3 5.2 C 0 km/h
2911 26-12-2003 04:03:01 5.2 C 5.3 g/m*3 5.2 C 0 km/h
2912 26-12-2003 04:15:01 5.3 C 5.27 g/m*3 5.3 C 0 km/h
2913 26-12-2003 04:27:01 5.1 C 5.27 g/m*3 5.1 C 0 km/h
2914 26-12-2003 04:38:01 5 C 5.3 g/m*3 5 C 0 km/h
2915 26-12-2003 04:50:01 5 C 5.37 g/m*3 5 C 0 km/h
2916 26-12-2003 05:02:00 5 C 5.37 g/m*3 5 C 0 km/h
2917 26-12-2003 05:14:00 5.3 C 5.48 g/m*3 5.3 C 0 km/h
2918 26-12-2003 05:26:00 5.5 C 5.41 g/m*3 5.5 C 0 km/h
2919 26-12-2003 05:38:00 5.6 C 5.3 g/m*3 5.6 C 0 km/h
2920 26-12-2003 05:50:00 5.7 C 5.34 g/m*3 5.7 C 0 km/h
2921 26-12-2003 06:03:01 5.7 C 5.34 g/m*3 5.7 C 0 km/h
2922 26-12-2003 06:15:01 5.7 C 5.34 g/m*3 5.7 C 0 km/h
2923 26-12-2003 06:27:01 5.7 C 5.41 g/m*3 5.7 C 0 km/h
2924 26-12-2003 06:38:01 5.6 C 5.37 g/m*3 5.6 C 0 km/h
2925 26-12-2003 06:50:01 5.5 C 5.41 g/m*3 5.5 C 0 km/h
Sensor: Nr:Datum:Temp:Abs-Feuchte:Windchill:Wind:
Aussen-T/F 2926 26-12-2003 07:02:00 5.5 C 5.41 g/m*3 5.5 C 0 km/h
2927 26-12-2003 07:14:00 5.5 C 5.34 g/m*3 5.5 C 0 km/h
2928 26-12-2003 07:26:00 5.5 C 5.34 g/m*3 5.5 C 0 km/h
2929 26-12-2003 07:38:00 5.5 C 5.34 g/m*3 5.5 C 0 km/h
2930 26-12-2003 07:50:01 5.5 C 5.34 g/m*3 5.5 C 0 km/h
2931 26-12-2003 08:02:00 5.5 C 5.27 g/m*3 5.5 C 0 km/h
2932 26-12-2003 08:14:00 5.5 C 5.27 g/m*3 5.5 C 0 km/h
2933 26-12-2003 08:26:00 5.6 C 5.3 g/m*3 5.6 C 0 km/h
2934 26-12-2003 08:38:00 5.5 C 5.27 g/m*3 5.5 C 0 km/h
2935 26-12-2003 08:50:00 5.5 C 5.27 g/m*3 5.5 C 0 km/h
2936 26-12-2003 09:03:01 5.6 C 5.23 g/m*3 5.6 C 0 km/h
2937 26-12-2003 09:15:01 5.6 C 5.23 g/m*3 5.6 C 0 km/h
2938 26-12-2003 09:27:01 5.7 C 5.27 g/m*3 5.7 C 0 km/h
2939 26-12-2003 09:38:01 5.7 C 5.19 g/m*3 5.7 C 0 km/h
2940 26-12-2003 09:50:01 5.7 C 5.19 g/m*3 5.7 C 0 km/h
2941 26-12-2003 10:02:00 5.7 C 5.19 g/m*3 5.7 C 0 km/h
2942 26-12-2003 10:14:00 5.7 C 5.12 g/m*3 5.7 C 0 km/h
2943 26-12-2003 10:26:00 5.7 C 5.12 g/m*3 5.7 C 0 km/h
2944 26-12-2003 10:38:01 5.8 C 5.16 g/m*3 5.8 C 0 km/h
2945 26-12-2003 10:50:01 5.8 C 5.16 g/m*3 5.8 C 0 km/h
2946 26-12-2003 11:02:00 5.9 C 5.12 g/m*3 5.9 C 0 km/h
2947 26-12-2003 11:14:00 6 C 5.01 g/m*3 6 C 0 km/h
2948 26-12-2003 11:38:12 6 C 5.08 g/m*3 6 C 0 km/h
2949 26-12-2003 11:50:12 6 C 5.08 g/m*3 6 C 0 km/h
2950 26-12-2003 12:02:12 6.2 C 5 g/m*3 6.2 C 0 km/h
Sensor: Nr:Datum:Temp:Abs-Feuchte:Windchill:Wind:
Aussen-T/F 2951 26-12-2003 12:15:00 6.2 C 5 g/m*3 6.2 C 0 km/h
2952 26-12-2003 12:27:00 6.4 C 4.99 g/m*3 6.4 C 0 km/h
2953 26-12-2003 12:38:02 6.4 C 4.99 g/m*3 6.4 C 0 km/h
2954 26-12-2003 12:50:02 6.5 C 5.02 g/m*3 6.5 C 0 km/h
2955 26-12-2003 13:02:00 6.5 C 4.95 g/m*3 6.5 C 0 km/h
2956 26-12-2003 13:14:00 6.7 C 5.01 g/m*3 6.7 C 0 km/h
2957 26-12-2003 13:26:00 6.7 C 5.01 g/m*3 6.7 C 0 km/h
2958 26-12-2003 13:38:00 6.7 C 5.01 g/m*3 6.7 C 0 km/h
2959 26-12-2003 13:50:00 6.7 C 4.94 g/m*3 6.7 C 0 km/h
2960 26-12-2003 14:02:01 6.7 C 4.94 g/m*3 6.7 C 0 km/h
2961 26-12-2003 14:14:01 6.6 C 4.98 g/m*3 6.6 C 0 km/h
2962 26-12-2003 14:26:01 6.8 C 5.05 g/m*3 6.8 C 0 km/h
2963 26-12-2003 14:38:00 6.4 C 4.84 g/m*3 6.4 C 0 km/h
2964 26-12-2003 14:50:00 6.5 C 4.87 g/m*3 6.5 C 0 km/h
2965 26-12-2003 15:02:00 6.4 C 4.92 g/m*3 6.4 C 0 km/h
2966 26-12-2003 15:14:00 6.2 C 4.85 g/m*3 6.2 C 0 km/h
2967 26-12-2003 15:26:00 6.1 C 4.82 g/m*3 6.1 C 0 km/h
2968 26-12-2003 15:38:00 6 C 4.79 g/m*3 6 C 0 km/h
2969 26-12-2003 15:50:00 5.8 C 4.8 g/m*3 5.8 C 0 km/h
2970 26-12-2003 16:03:01 5.6 C 4.74 g/m*3 5.6 C 0 km/h
2971 26-12-2003 16:15:01 5.4 C 4.74 g/m*3 5.4 C 0 km/h
2972 26-12-2003 16:27:01 5.2 C 4.75 g/m*3 5.2 C 0 km/h
2973 26-12-2003 16:38:01 5.1 C 4.65 g/m*3 5.1 C 0 km/h
2974 26-12-2003 16:50:01 4.9 C 4.73 g/m*3 4.9 C 0 km/h
2975 26-12-2003 17:02:00 4.9 C 4.66 g/m*3 4.9 C 0 km/h
Sensor: Nr:Datum:Temp:Abs-Feuchte:Windchill:Wind:
Aussen-T/F 2976 26-12-2003 17:14:00 4.7 C 4.66 g/m*3 4.7 C 0 km/h
2977 26-12-2003 17:26:01 4.4 C 4.7 g/m*3 4.4 C 0 km/h
2978 26-12-2003 17:38:00 4.3 C 4.67 g/m*3 4.3 C 0 km/h
2979 26-12-2003 17:50:00 4.3 C 4.74 g/m*3 4.3 C 0 km/h
2980 26-12-2003 18:03:00 4.1 C 4.67 g/m*3 4.1 C 0 km/h
2981 26-12-2003 18:15:01 4.1 C 4.67 g/m*3 4.1 C 0 km/h
2982 26-12-2003 18:27:01 4 C 4.64 g/m*3 4 C 0 km/h
2983 26-12-2003 18:38:01 4 C 4.7 g/m*3 4 C 0 km/h
2984 26-12-2003 18:50:01 3.9 C 4.8 g/m*3 3.9 C 0 km/h
2985 26-12-2003 19:02:00 3.9 C 4.8 g/m*3 3.9 C 0 km/h
2986 26-12-2003 19:14:00 3.9 C 4.8 g/m*3 3.9 C 0 km/h
2987 26-12-2003 19:26:01 3.9 C 4.74 g/m*3 3.9 C 0 km/h
2988 26-12-2003 19:38:00 4.1 C 4.67 g/m*3 4.1 C 0 km/h
2989 26-12-2003 19:50:00 4.8 C 4.69 g/m*3 4.8 C 0 km/h
2990 26-12-2003 20:03:01 5.8 C 4.73 g/m*3 5.8 C 0 km/h
2991 26-12-2003 20:15:01 6.4 C 4.62 g/m*3 6.4 C 0 km/h
2992 26-12-2003 20:27:01 6.9 C 4.7 g/m*3 6.9 C 0 km/h
2993 26-12-2003 20:38:00 6.8 C 4.74 g/m*3 6.8 C 0 km/h
2994 26-12-2003 20:50:01 6.8 C 4.82 g/m*3 6.8 C 0 km/h
2995 26-12-2003 21:02:00 6.7 C 4.79 g/m*3 6.7 C 0 km/h
2996 26-12-2003 21:14:00 6.7 C 4.86 g/m*3 6.7 C 0 km/h
2997 26-12-2003 21:26:00 6.8 C 4.97 g/m*3 6.8 C 0 km/h
2998 26-12-2003 21:38:01 6.5 C 4.95 g/m*3 6.5 C 0 km/h
2999 26-12-2003 21:50:01 6.5 C 5.02 g/m*3 6.5 C 0 km/h
3000 26-12-2003 22:02:00 6.5 C 5.02 g/m*3 6.5 C 0 km/h
Sensor: Nr:Datum:Temp:Abs-Feuchte:Windchill:Wind:
Aussen-T/F 3001 26-12-2003 22:14:00 6.5 C 5.1 g/m*3 6.5 C 0 km/h
3002 26-12-2003 22:26:00 6.8 C 5.35 g/m*3 6.8 C 0 km/h
3003 26-12-2003 22:38:00 6.7 C 5.32 g/m*3 6.7 C 0 km/h
3004 26-12-2003 22:50:00 6.8 C 5.35 g/m*3 6.8 C 0 km/h
3005 26-12-2003 23:03:01 7 C 5.35 g/m*3 7 C 0 km/h
3006 26-12-2003 23:15:01 7 C 5.35 g/m*3 7 C 0 km/h
3007 26-12-2003 23:27:01 7.3 C 5.45 g/m*3 7.3 C 0 km/h
3008 26-12-2003 23:38:01 7.3 C 5.45 g/m*3 7.3 C 0 km/h
3009 26-12-2003 23:50:01 7.4 C 5.49 g/m*3 7.4 C 0 km/h
3010 27-12-2003 00:02:00 7.4 C 5.41 g/m*3 7.4 C 0 km/h
3011 27-12-2003 00:14:00 7.5 C 5.36 g/m*3 7.5 C 0 km/h
3012 27-12-2003 00:26:00 7.5 C 5.36 g/m*3 7.5 C 0 km/h
3013 27-12-2003 00:38:01 7.5 C 5.36 g/m*3 7.5 C 0 km/h
3014 27-12-2003 00:50:01 7.5 C 5.36 g/m*3 7.5 C 0 km/h
3015 27-12-2003 01:02:00 7.6 C 5.4 g/m*3 7.6 C 0 km/h
3016 27-12-2003 01:14:00 7.6 C 5.4 g/m*3 7.6 C 0 km/h
3017 27-12-2003 01:26:01 7.8 C 5.47 g/m*3 7.8 C 0 km/h
3018 27-12-2003 01:38:00 7.9 C 5.59 g/m*3 7.9 C 0 km/h
3019 27-12-2003 01:50:00 8.1 C 5.49 g/m*3 8.1 C 0 km/h
3020 27-12-2003 02:03:01 8.1 C 5.57 g/m*3 8.1 C 0 km/h
3021 27-12-2003 02:15:01 8.4 C 5.6 g/m*3 8.4 C 0 km/h
3022 27-12-2003 02:27:01 8.4 C 5.6 g/m*3 8.4 C 0 km/h
3023 27-12-2003 02:38:01 8.4 C 5.6 g/m*3 8.4 C 0 km/h
3024 27-12-2003 02:50:01 8.5 C 5.64 g/m*3 8.5 C 0 km/h
3025 27-12-2003 03:02:00 8.4 C 5.68 g/m*3 8.4 C 0 km/h
Sensor: Nr:Datum:Temp:Abs-Feuchte:Windchill:Wind:
Aussen-T/F 3026 27-12-2003 03:14:00 8.4 C 5.6 g/m*3 8.4 C 0 km/h
3027 27-12-2003 03:26:00 8.4 C 5.6 g/m*3 8.4 C 0 km/h
3028 27-12-2003 03:38:01 8.5 C 5.64 g/m*3 8.5 C 0 km/h
3029 27-12-2003 03:50:01 8.6 C 5.67 g/m*3 8.6 C 0 km/h
3030 27-12-2003 04:02:00 8.5 C 5.64 g/m*3 8.5 C 0 km/h
3031 27-12-2003 04:14:00 8.6 C 5.67 g/m*3 8.6 C 0 km/h
3032 27-12-2003 04:26:00 8.6 C 5.59 g/m*3 8.6 C 0 km/h
3033 27-12-2003 04:38:00 8.5 C 5.64 g/m*3 8.5 C 0 km/h
3034 27-12-2003 04:50:00 8.6 C 5.59 g/m*3 8.6 C 0 km/h
3035 27-12-2003 05:03:01 8.7 C 5.62 g/m*3 8.7 C 0 km/h
3036 27-12-2003 05:15:01 8.7 C 5.62 g/m*3 8.7 C 0 km/h
3037 27-12-2003 05:27:01 8.6 C 5.59 g/m*3 8.6 C 0 km/h
3038 27-12-2003 05:38:01 8.7 C 5.53 g/m*3 8.7 C 0 km/h
3039 27-12-2003 05:50:01 8.8 C 5.57 g/m*3 8.8 C 0 km/h
3040 27-12-2003 06:02:00 8.9 C 5.61 g/m*3 8.9 C 0 km/h
3041 27-12-2003 06:14:00 8.8 C 5.48 g/m*3 8.8 C 0 km/h
3042 27-12-2003 06:26:00 8.8 C 5.48 g/m*3 8.8 C 0 km/h
3043 27-12-2003 06:38:00 8.8 C 5.48 g/m*3 8.8 C 0 km/h
3044 27-12-2003 06:50:00 8.8 C 5.48 g/m*3 8.8 C 0 km/h
3045 27-12-2003 07:03:01 8.8 C 5.48 g/m*3 8.8 C 0 km/h
3046 27-12-2003 07:15:01 8.8 C 5.48 g/m*3 8.8 C 0 km/h
3047 27-12-2003 07:27:01 8.8 C 5.48 g/m*3 8.8 C 0 km/h
3048 27-12-2003 07:38:01 8.5 C 5.46 g/m*3 8.5 C 0 km/h
3049 27-12-2003 07:50:01 8.7 C 5.53 g/m*3 8.7 C 0 km/h
3050 27-12-2003 08:02:00 8.8 C 5.57 g/m*3 8.8 C 0 km/h
Sensor: Nr:Datum:Temp:Abs-Feuchte:Windchill:Wind:
Aussen-T/F 3051 27-12-2003 08:14:00 8.8 C 5.57 g/m*3 8.8 C 0 km/h
3052 27-12-2003 08:26:00 8.8 C 5.66 g/m*3 8.8 C 0 km/h
3053 27-12-2003 08:38:01 8.9 C 5.69 g/m*3 8.9 C 0 km/h
3054 27-12-2003 08:50:01 8.7 C 5.71 g/m*3 8.7 C 0 km/h
3055 27-12-2003 09:02:00 8.4 C 5.77 g/m*3 8.4 C 0 km/h
3056 27-12-2003 09:14:00 8.3 C 5.82 g/m*3 8.3 C 0 km/h
3057 27-12-2003 09:26:00 8.1 C 5.82 g/m*3 8.1 C 0 km/h
3058 27-12-2003 09:38:00 7.7 C 5.92 g/m*3 7.7 C 0 km/h
3059 27-12-2003 09:50:00 7.1 C 5.77 g/m*3 7.1 C 0 km/h
3060 27-12-2003 10:03:01 6.6 C 5.74 g/m*3 6.6 C 0 km/h
3061 27-12-2003 10:15:01 6.5 C 5.85 g/m*3 6.5 C 0 km/h
3062 27-12-2003 10:27:01 6.4 C 5.89 g/m*3 6.4 C 0 km/h
3063 27-12-2003 10:38:00 6.4 C 5.89 g/m*3 6.4 C 0 km/h
3064 27-12-2003 10:50:00 6.4 C 5.89 g/m*3 6.4 C 0 km/h
3065 27-12-2003 11:02:00 6.4 C 5.89 g/m*3 6.4 C 0 km/h
3066 27-12-2003 11:14:00 6.6 C 5.89 g/m*3 6.6 C 0 km/h
3067 27-12-2003 11:26:01 6.9 C 5.85 g/m*3 6.9 C 0 km/h
3068 27-12-2003 11:38:00 7 C 5.66 g/m*3 7 C 0 km/h
3069 27-12-2003 11:50:00 7 C 5.42 g/m*3 7 C 0 km/h
3070 27-12-2003 12:03:00 7 C 5.5 g/m*3 7 C 0 km/h
3071 27-12-2003 12:15:01 7 C 5.35 g/m*3 7 C 0 km/h
3072 27-12-2003 12:27:01 7 C 5.27 g/m*3 7 C 0 km/h
3073 27-12-2003 12:38:00 7 C 5.27 g/m*3 7 C 0 km/h
3074 27-12-2003 12:50:00 6.9 C 5.39 g/m*3 6.9 C 0 km/h
3075 27-12-2003 13:02:00 7 C 5.35 g/m*3 7 C 0 km/h
Sensor: Nr:Datum:Temp:Abs-Feuchte:Windchill:Wind:
Aussen-T/F 3076 27-12-2003 13:14:00 7.2 C 5.34 g/m*3 7.2 C 0 km/h
3077 27-12-2003 13:26:00 7.1 C 5.23 g/m*3 7.1 C 0 km/h
3078 27-12-2003 13:38:00 7.1 C 5.23 g/m*3 7.1 C 0 km/h
3079 27-12-2003 13:50:00 7 C 5.19 g/m*3 7 C 0 km/h
3080 27-12-2003 14:03:00 6.8 C 5.2 g/m*3 6.8 C 0 km/h
3081 27-12-2003 14:15:00 6.9 C 5.23 g/m*3 6.9 C 0 km/h
3082 27-12-2003 14:27:01 6.9 C 5.23 g/m*3 6.9 C 0 km/h
3083 27-12-2003 14:38:25 7 C 5.27 g/m*3 7 C 0 km/h
3084 27-12-2003 14:50:25 7 C 5.27 g/m*3 7 C 0 km/h
3085 27-12-2003 14:57:01 7 C 5.27 g/m*3 7 C 0 km/h
3086 27-12-2003 15:09:00 6.9 C 5.31 g/m*3 6.9 C 0 km/h
3087 27-12-2003 15:21:00 6.9 C 5.31 g/m*3 6.9 C 0 km/h
3088 27-12-2003 15:33:00 6.9 C 5.23 g/m*3 6.9 C 0 km/h
3089 27-12-2003 15:45:00 7 C 5.19 g/m*3 7 C 0 km/h
3090 27-12-2003 15:57:01 6.8 C 5.2 g/m*3 6.8 C 0 km/h
3091 27-12-2003 16:09:00 6.7 C 5.17 g/m*3 6.7 C 0 km/h
3092 27-12-2003 16:21:00 6.5 C 5.17 g/m*3 6.5 C 0 km/h
3093 27-12-2003 16:33:00 6.8 C 5.2 g/m*3 6.8 C 0 km/h
3094 27-12-2003 16:45:00 6.3 C 5.4 g/m*3 6.3 C 0 km/h
3095 27-12-2003 16:57:00 6 C 5.52 g/m*3 6 C 0 km/h
3096 27-12-2003 17:10:01 5.9 C 5.34 g/m*3 5.9 C 0 km/h
3097 27-12-2003 17:22:01 6.2 C 5.29 g/m*3 6.2 C 0 km/h
3098 27-12-2003 17:33:01 6.4 C 5.29 g/m*3 6.4 C 0 km/h
3099 27-12-2003 17:45:01 6.1 C 5.19 g/m*3 6.1 C 0 km/h
3100 27-12-2003 17:57:01 5.9 C 5.26 g/m*3 5.9 C 0 km/h
Sensor: Nr:Datum:Temp:Abs-Feuchte:Windchill:Wind:
Aussen-T/F 3101 27-12-2003 18:09:00 5.6 C 5.16 g/m*3 5.6 C 0 km/h
3102 27-12-2003 18:21:00 5.2 C 5.1 g/m*3 5.2 C 0 km/h
3103 27-12-2003 18:33:01 5.2 C 5.1 g/m*3 5.2 C 0 km/h
3104 27-12-2003 18:45:01 5.1 C 4.99 g/m*3 5.1 C 0 km/h
3105 27-12-2003 18:57:01 5.1 C 4.99 g/m*3 5.1 C 0 km/h
3106 27-12-2003 19:09:00 5.2 C 4.96 g/m*3 5.2 C 0 km/h
3107 27-12-2003 19:21:00 5.1 C 4.99 g/m*3 5.1 C 0 km/h
3108 27-12-2003 19:33:00 4.8 C 5.16 g/m*3 4.8 C 0 km/h
3109 27-12-2003 19:45:00 4.9 C 5.2 g/m*3 4.9 C 0 km/h
3110 27-12-2003 19:57:00 4.8 C 5.1 g/m*3 4.8 C 0 km/h
3111 27-12-2003 20:10:01 4.9 C 5.2 g/m*3 4.9 C 0 km/h
3112 27-12-2003 20:22:01 4.8 C 5.16 g/m*3 4.8 C 0 km/h
3113 27-12-2003 20:33:00 5 C 5.1 g/m*3 5 C 0 km/h
3114 27-12-2003 20:45:01 5.3 C 5.06 g/m*3 5.3 C 0 km/h
3115 27-12-2003 20:57:01 5.3 C 4.99 g/m*3 5.3 C 0 km/h
3116 27-12-2003 21:09:00 5.2 C 4.96 g/m*3 5.2 C 0 km/h
3117 27-12-2003 21:21:00 5.4 C 5.02 g/m*3 5.4 C 0 km/h
3118 27-12-2003 21:33:00 5.7 C 5.05 g/m*3 5.7 C 0 km/h
3119 27-12-2003 21:45:01 5.6 C 5.09 g/m*3 5.6 C 0 km/h
3120 27-12-2003 21:57:01 5.7 C 5.12 g/m*3 5.7 C 0 km/h
3121 27-12-2003 22:09:00 5.8 C 5.16 g/m*3 5.8 C 0 km/h
3122 27-12-2003 22:21:00 5.9 C 5.19 g/m*3 5.9 C 0 km/h
3123 27-12-2003 22:33:00 5.7 C 5.19 g/m*3 5.7 C 0 km/h
3124 27-12-2003 22:45:00 5.6 C 5.16 g/m*3 5.6 C 0 km/h
3125 27-12-2003 22:57:00 5.4 C 5.16 g/m*3 5.4 C 0 km/h
Sensor: Nr:Datum:Temp:Abs-Feuchte:Windchill:Wind:
Aussen-T/F 3126 27-12-2003 23:10:01 5.3 C 5.2 g/m*3 5.3 C 0 km/h
3127 27-12-2003 23:22:01 5.3 C 5.2 g/m*3 5.3 C 0 km/h
3128 27-12-2003 23:33:01 5.3 C 5.2 g/m*3 5.3 C 0 km/h
3129 27-12-2003 23:45:01 5.3 C 5.27 g/m*3 5.3 C 0 km/h
3130 27-12-2003 23:57:01 5.3 C 5.27 g/m*3 5.3 C 0 km/h
3131 28-12-2003 00:09:00 5.4 C 5.37 g/m*3 5.4 C 0 km/h
3132 28-12-2003 00:21:01 5.6 C 5.37 g/m*3 5.6 C 0 km/h
3133 28-12-2003 00:33:00 5.4 C 5.37 g/m*3 5.4 C 0 km/h
3134 28-12-2003 00:45:00 5.3 C 5.34 g/m*3 5.3 C 0 km/h
3135 28-12-2003 00:57:00 5.6 C 5.44 g/m*3 5.6 C 0 km/h
3136 28-12-2003 01:10:01 5.6 C 5.44 g/m*3 5.6 C 0 km/h
3137 28-12-2003 01:22:01 5.8 C 5.59 g/m*3 5.8 C 0 km/h
3138 28-12-2003 01:33:01 5.7 C 5.62 g/m*3 5.7 C 0 km/h
3139 28-12-2003 01:45:01 5.9 C 5.77 g/m*3 5.9 C 0 km/h
3140 28-12-2003 01:57:01 5.8 C 5.8 g/m*3 5.8 C 0 km/h
3141 28-12-2003 02:09:00 5.9 C 5.84 g/m*3 5.9 C 0 km/h
3142 28-12-2003 02:21:00 5.9 C 5.84 g/m*3 5.9 C 0 km/h
3143 28-12-2003 02:33:00 5.7 C 5.84 g/m*3 5.7 C 0 km/h
3144 28-12-2003 02:45:00 5.7 C 5.91 g/m*3 5.7 C 0 km/h
3145 28-12-2003 02:57:00 5.6 C 5.87 g/m*3 5.6 C 0 km/h
3146 28-12-2003 03:10:01 5.6 C 5.87 g/m*3 5.6 C 0 km/h
3147 28-12-2003 03:22:01 5.7 C 5.91 g/m*3 5.7 C 0 km/h
3148 28-12-2003 03:33:00 6.3 C 5.92 g/m*3 6.3 C 0 km/h
3149 28-12-2003 03:45:01 7 C 5.89 g/m*3 7 C 0 km/h
3150 28-12-2003 03:57:01 6.9 C 5.85 g/m*3 6.9 C 0 km/h
Sensor: Nr:Datum:Temp:Abs-Feuchte:Windchill:Wind:
Aussen-T/F 3151 28-12-2003 04:09:00 7.2 C 5.73 g/m*3 7.2 C 0 km/h
3152 28-12-2003 04:21:00 7.1 C 5.77 g/m*3 7.1 C 0 km/h
3153 28-12-2003 04:33:00 7.6 C 5.72 g/m*3 7.6 C 0 km/h
3154 28-12-2003 04:45:00 7.7 C 5.76 g/m*3 7.7 C 0 km/h
3155 28-12-2003 04:57:00 7.4 C 5.88 g/m*3 7.4 C 0 km/h
3156 28-12-2003 05:10:01 7.1 C 6.01 g/m*3 7.1 C 0 km/h
3157 28-12-2003 05:22:01 6.9 C 6.16 g/m*3 6.9 C 0 km/h
3158 28-12-2003 05:33:01 6.8 C 6.19 g/m*3 6.8 C 0 km/h
3159 28-12-2003 05:45:01 6.9 C 6.16 g/m*3 6.9 C 0 km/h
3160 28-12-2003 05:57:01 7 C 6.12 g/m*3 7 C 0 km/h
3161 28-12-2003 06:09:00 6.9 C 6.24 g/m*3 6.9 C 0 km/h
3162 28-12-2003 06:21:00 7 C 6.12 g/m*3 7 C 0 km/h
3163 28-12-2003 06:33:01 6.9 C 6.31 g/m*3 6.9 C 0 km/h
3164 28-12-2003 06:45:01 6.8 C 6.35 g/m*3 6.8 C 0 km/h
3165 28-12-2003 06:57:01 6.7 C 6.31 g/m*3 6.7 C 0 km/h
3166 28-12-2003 07:09:00 6.5 C 6.3 g/m*3 6.5 C 0 km/h
3167 28-12-2003 07:21:00 6.4 C 6.26 g/m*3 6.4 C 0 km/h
3168 28-12-2003 07:33:00 6.5 C 6.37 g/m*3 6.5 C 0 km/h
3169 28-12-2003 07:45:00 6.5 C 6.3 g/m*3 6.5 C 0 km/h
3170 28-12-2003 07:57:00 6.5 C 6.3 g/m*3 6.5 C 0 km/h
3171 28-12-2003 08:10:01 6.5 C 6.37 g/m*3 6.5 C 0 km/h
3172 28-12-2003 08:22:01 6.8 C 6.42 g/m*3 6.8 C 0 km/h
3173 28-12-2003 08:33:01 6.7 C 6.31 g/m*3 6.7 C 0 km/h
3174 28-12-2003 08:45:01 7.1 C 6.4 g/m*3 7.1 C 0 km/h
3175 28-12-2003 08:57:01 7.6 C 6.36 g/m*3 7.6 C 0 km/h
Sensor: Nr:Datum:Temp:Abs-Feuchte:Windchill:Wind:
Aussen-T/F 3176 28-12-2003 09:09:00 7.6 C 6.28 g/m*3 7.6 C 0 km/h
3177 28-12-2003 09:21:00 7.7 C 6.24 g/m*3 7.7 C 0 km/h
3178 28-12-2003 09:33:00 7.8 C 6.2 g/m*3 7.8 C 0 km/h
3179 28-12-2003 09:45:00 7.6 C 6.2 g/m*3 7.6 C 0 km/h
3180 28-12-2003 09:57:00 7.9 C 6.16 g/m*3 7.9 C 0 km/h
3181 28-12-2003 10:10:01 8 C 6.12 g/m*3 8 C 0 km/h
3182 28-12-2003 10:22:01 8.1 C 6.16 g/m*3 8.1 C 0 km/h
3183 28-12-2003 10:33:01 8.5 C 6.23 g/m*3 8.5 C 0 km/h
3184 28-12-2003 10:45:01 8.2 C 6.36 g/m*3 8.2 C 0 km/h
3185 28-12-2003 10:57:01 8.2 C 6.45 g/m*3 8.2 C 0 km/h
3186 28-12-2003 11:09:00 8.2 C 6.45 g/m*3 8.2 C 0 km/h
3187 28-12-2003 11:21:00 8.3 C 6.49 g/m*3 8.3 C 0 km/h
3188 28-12-2003 11:33:00 8.7 C 6.57 g/m*3 8.7 C 0 km/h
3189 28-12-2003 11:45:00 9.1 C 6.48 g/m*3 9.1 C 0 km/h
3190 28-12-2003 11:57:00 9.7 C 6.36 g/m*3 9.7 C 0 km/h
3191 28-12-2003 12:10:01 9.8 C 6.31 g/m*3 9.8 C 0 km/h
3192 28-12-2003 12:22:01 10.1 C 6.24 g/m*3 10.1 C 0 km/h
3193 28-12-2003 12:33:00 10.2 C 6.28 g/m*3 10.2 C 0 km/h
3194 28-12-2003 12:45:01 10.3 C 6.32 g/m*3 10.3 C 0 km/h
3195 28-12-2003 12:57:01 10.3 C 6.03 g/m*3 10.3 C 0 km/h
3196 28-12-2003 13:09:00 10.4 C 6.17 g/m*3 10.4 C 0 km/h
3197 28-12-2003 13:21:00 10.4 C 6.07 g/m*3 10.4 C 0 km/h
3198 28-12-2003 13:33:00 10.6 C 5.95 g/m*3 10.6 C 0 km/h
3199 28-12-2003 13:45:00 10.6 C 6.05 g/m*3 10.6 C 0 km/h
3200 28-12-2003 13:57:00 10.9 C 5.77 g/m*3 10.9 C 0 km/h
Sensor: Nr:Datum:Temp:Abs-Feuchte:Windchill:Wind:
Aussen-T/F 3201 28-12-2003 14:10:01 11.1 C 5.54 g/m*3 11.1 C 0 km/h
3202 28-12-2003 14:22:01 11.2 C 5.47 g/m*3 11.2 C 0 km/h
3203 28-12-2003 14:33:01 11.2 C 5.47 g/m*3 11.2 C 0 km/h
3204 28-12-2003 14:45:01 11.4 C 5.23 g/m*3 11.4 C 0 km/h
3205 28-12-2003 14:57:01 11.4 C 5.23 g/m*3 11.4 C 0 km/h
3206 28-12-2003 15:09:00 11.2 C 5.17 g/m*3 11.2 C 0 km/h
3207 28-12-2003 15:21:00 8.4 C 6.11 g/m*3 8.4 C 0 km/h
3208 28-12-2003 15:33:01 8.1 C 6.16 g/m*3 8.1 C 0 km/h
3209 28-12-2003 15:45:01 8.2 C 6.11 g/m*3 8.2 C 0 km/h
3210 28-12-2003 15:57:01 8.2 C 6.11 g/m*3 8.2 C 0 km/h
3211 28-12-2003 16:09:00 8.5 C 5.98 g/m*3 8.5 C 0 km/h
3212 28-12-2003 16:21:00 8.6 C 5.84 g/m*3 8.6 C 0 km/h
3213 28-12-2003 16:33:00 8.1 C 5.82 g/m*3 8.1 C 0 km/h
3214 28-12-2003 16:45:00 7.9 C 5.75 g/m*3 7.9 C 0 km/h
3215 28-12-2003 16:57:00 7.8 C 5.63 g/m*3 7.8 C 0 km/h
3216 28-12-2003 17:10:00 7.7 C 5.59 g/m*3 7.7 C 0 km/h
3217 28-12-2003 17:22:01 7.2 C 5.65 g/m*3 7.2 C 0 km/h
3218 28-12-2003 17:33:01 6.6 C 5.74 g/m*3 6.6 C 0 km/h
3219 28-12-2003 17:45:01 6 C 5.01 g/m*3 6 C 0 km/h
3220 28-12-2003 17:57:01 5.6 C 4.95 g/m*3 5.6 C 0 km/h
3221 28-12-2003 18:09:00 5.5 C 4.85 g/m*3 5.5 C 0 km/h
3222 28-12-2003 18:21:00 5.5 C 4.85 g/m*3 5.5 C 0 km/h
3223 28-12-2003 18:33:00 5.5 C 4.85 g/m*3 5.5 C 0 km/h
3224 28-12-2003 18:45:00 5.4 C 4.81 g/m*3 5.4 C 0 km/h
3225 28-12-2003 18:57:00 5.5 C 4.78 g/m*3 5.5 C 0 km/h
Sensor: Nr:Datum:Temp:Abs-Feuchte:Windchill:Wind:
Aussen-T/F 3226 28-12-2003 19:10:01 5.4 C 4.74 g/m*3 5.4 C 0 km/h
3227 28-12-2003 19:22:01 5.4 C 4.67 g/m*3 5.4 C 0 km/h
3228 28-12-2003 19:33:01 5.5 C 4.71 g/m*3 5.5 C 0 km/h
3229 28-12-2003 19:45:01 5.5 C 4.71 g/m*3 5.5 C 0 km/h
3230 28-12-2003 19:57:01 5.4 C 4.67 g/m*3 5.4 C 0 km/h
3231 28-12-2003 20:09:00 5.3 C 4.71 g/m*3 5.3 C 0 km/h
3232 28-12-2003 20:21:00 5.2 C 4.68 g/m*3 5.2 C 0 km/h
3233 28-12-2003 20:33:00 5.2 C 4.68 g/m*3 5.2 C 0 km/h
3234 28-12-2003 20:45:00 5.3 C 4.71 g/m*3 5.3 C 0 km/h
3235 28-12-2003 20:57:00 5.2 C 4.68 g/m*3 5.2 C 0 km/h
3236 28-12-2003 21:10:00 5.2 C 4.68 g/m*3 5.2 C 0 km/h
3237 28-12-2003 21:22:00 5.2 C 4.61 g/m*3 5.2 C 0 km/h
3238 28-12-2003 21:33:01 5.2 C 4.61 g/m*3 5.2 C 0 km/h
3239 28-12-2003 21:45:01 5 C 4.69 g/m*3 5 C 0 km/h
3240 28-12-2003 21:57:01 5.1 C 4.72 g/m*3 5.1 C 0 km/h
3241 28-12-2003 22:09:00 5 C 4.62 g/m*3 5 C 0 km/h
3242 28-12-2003 22:21:00 4.9 C 4.46 g/m*3 4.9 C 0 km/h
3243 28-12-2003 22:33:00 4.8 C 4.09 g/m*3 4.8 C 0 km/h
3244 28-12-2003 22:45:01 4.7 C 3.93 g/m*3 4.7 C 0 km/h
3245 28-12-2003 22:57:01 4.7 C 4 g/m*3 4.7 C 0 km/h
3246 28-12-2003 23:09:00 4.6 C 3.9 g/m*3 4.6 C 0 km/h
3247 28-12-2003 23:21:00 4.5 C 3.94 g/m*3 4.5 C 0 km/h
3248 28-12-2003 23:33:00 4.3 C 3.83 g/m*3 4.3 C 0 km/h